<?xml version="1.0" encoding="UTF-8" standalone="no" ?><gpx xmlns="http://www.topografix.com/GPX/1/1" xmlns:gpxx="http://www.garmin.com/xmlschemas/GpxExtensions/v3" xmlns:wptx1="http://www.garmin.com/xmlschemas/WaypointExtension/v1" xmlns:gpxtpx="http://www.garmin.com/xmlschemas/TrackPointExtension/v1" creator="Oregon 450t" version="1.1" xmlns:xsi="http://www.w3.org/2001/XMLSchema-instance" xsi:schemaLocation="http://www.topografix.com/GPX/1/1 http://www.topografix.com/GPX/1/1/gpx.xsd http://www.garmin.com/xmlschemas/GpxExtensions/v3 http://www8.garmin.com/xmlschemas/GpxExtensionsv3.xsd http://www.garmin.com/xmlschemas/WaypointExtension/v1 http://www8.garmin.com/xmlschemas/WaypointExtensionv1.xsd http://www.garmin.com/xmlschemas/TrackPointExtension/v1 http://www.garmin.com/xmlschemas/TrackPointExtensionv1.xsd"><metadata><link href="http://www.garmin.com"><text>Garmin International</text></link><time>2014-08-28T10:03:22Z</time></metadata><trk><name>28-AGO-14 12:03:19 PM</name><extensions><gpxx:TrackExtension><gpxx:DisplayColor>Black</gpxx:DisplayColor></gpxx:TrackExtension></extensions><trkseg><trkpt lat="39.7291111015" lon="-0.2708768751"><ele>40.51</ele><time>2014-08-28T04:45:47Z</time></trkpt><trkpt lat="39.7290766519" lon="-0.2709006798"><ele>40.99</ele><time>2014-08-28T04:46:09Z</time></trkpt><trkpt lat="39.7290562838" lon="-0.2708837483"><ele>40.99</ele><time>2014-08-28T04:46:34Z</time></trkpt><trkpt lat="39.7290571220" lon="-0.2708894480"><ele>40.51</ele><time>2014-08-28T04:47:08Z</time></trkpt><trkpt lat="39.7290673479" lon="-0.2709301002"><ele>40.99</ele><time>2014-08-28T04:47:46Z</time></trkpt><trkpt lat="39.7290589660" lon="-0.2709751111"><ele>40.99</ele><time>2014-08-28T04:48:13Z</time></trkpt><trkpt lat="39.7290861234" lon="-0.2709747758"><ele>41.47</ele><time>2014-08-28T04:49:00Z</time></trkpt><trkpt lat="39.7290808428" lon="-0.2709496301"><ele>41.95</ele><time>2014-08-28T04:49:40Z</time></trkpt><trkpt lat="39.7290800046" lon="-0.2709195390"><ele>42.44</ele><time>2014-08-28T04:50:21Z</time></trkpt><trkpt lat="39.7290804237" lon="-0.2709131688"><ele>42.44</ele><time>2014-08-28T04:50:49Z</time></trkpt><trkpt lat="39.7290817648" lon="-0.2709418349"><ele>42.44</ele><time>2014-08-28T04:51:22Z</time></trkpt><trkpt lat="39.7290985286" lon="-0.2709198743"><ele>42.92</ele><time>2014-08-28T04:51:58Z</time></trkpt><trkpt lat="39.7291192319" lon="-0.2709368896"><ele>42.92</ele><time>2014-08-28T04:52:28Z</time></trkpt><trkpt lat="39.7290963493" lon="-0.2708457783"><ele>42.92</ele><time>2014-08-28T04:53:00Z</time></trkpt><trkpt lat="39.7291225847" lon="-0.2708761208"><ele>42.92</ele><time>2014-08-28T04:53:29Z</time></trkpt><trkpt lat="39.7291619796" lon="-0.2709252387"><ele>42.92</ele><time>2014-08-28T04:53:59Z</time></trkpt><trkpt lat="39.7291752230" lon="-0.2709414158"><ele>42.92</ele><time>2014-08-28T04:54:11Z</time></trkpt><trkpt lat="39.7291914839" lon="-0.2709627058"><ele>42.92</ele><time>2014-08-28T04:54:13Z</time></trkpt><trkpt lat="39.7292714473" lon="-0.2711783722"><ele>42.92</ele><time>2014-08-28T04:54:41Z</time></trkpt><trkpt lat="39.7291908972" lon="-0.2710203733"><ele>42.92</ele><time>2014-08-28T04:55:10Z</time></trkpt><trkpt lat="39.7291080840" lon="-0.2708916273"><ele>43.40</ele><time>2014-08-28T04:55:44Z</time></trkpt><trkpt lat="39.7290914878" lon="-0.2708779648"><ele>43.88</ele><time>2014-08-28T04:56:22Z</time></trkpt><trkpt lat="39.7290877998" lon="-0.2708601952"><ele>43.40</ele><time>2014-08-28T04:56:50Z</time></trkpt><trkpt lat="39.7290674318" lon="-0.2707390767"><ele>43.40</ele><time>2014-08-28T04:57:09Z</time></trkpt><trkpt lat="39.7291169688" lon="-0.2708592732"><ele>43.88</ele><time>2014-08-28T04:57:51Z</time></trkpt><trkpt lat="39.7291136160" lon="-0.2709196229"><ele>43.40</ele><time>2014-08-28T04:58:31Z</time></trkpt><trkpt lat="39.7291089222" lon="-0.2709794696"><ele>43.88</ele><time>2014-08-28T04:59:04Z</time></trkpt><trkpt lat="39.7291008756" lon="-0.2709409129"><ele>44.84</ele><time>2014-08-28T04:59:25Z</time></trkpt><trkpt lat="39.7290963493" lon="-0.2709158510"><ele>44.36</ele><time>2014-08-28T04:59:37Z</time></trkpt><trkpt lat="39.7291403543" lon="-0.2707555052"><ele>43.40</ele><time>2014-08-28T05:01:52Z</time></trkpt><trkpt lat="39.7291940823" lon="-0.2707506437"><ele>43.88</ele><time>2014-08-28T05:01:55Z</time></trkpt><trkpt lat="39.7293105070" lon="-0.2707729395"><ele>42.92</ele><time>2014-08-28T05:02:06Z</time></trkpt><trkpt lat="39.7294121794" lon="-0.2707305271"><ele>44.84</ele><time>2014-08-28T05:02:15Z</time></trkpt><trkpt lat="39.7294413485" lon="-0.2707181219"><ele>42.92</ele><time>2014-08-28T05:02:18Z</time></trkpt><trkpt lat="39.7294408455" lon="-0.2707410883"><ele>42.92</ele><time>2014-08-28T05:02:31Z</time></trkpt><trkpt lat="39.7294305358" lon="-0.2707905415"><ele>42.92</ele><time>2014-08-28T05:02:39Z</time></trkpt><trkpt lat="39.7294260096" lon="-0.2707845066"><ele>43.40</ele><time>2014-08-28T05:02:41Z</time></trkpt><trkpt lat="39.7295439430" lon="-0.2708043717"><ele>42.92</ele><time>2014-08-28T05:02:53Z</time></trkpt><trkpt lat="39.7296690010" lon="-0.2709233109"><ele>42.44</ele><time>2014-08-28T05:03:04Z</time></trkpt><trkpt lat="39.7296503093" lon="-0.2710223850"><ele>43.40</ele><time>2014-08-28T05:03:11Z</time></trkpt><trkpt lat="39.7295686696" lon="-0.2713151649"><ele>44.84</ele><time>2014-08-28T05:03:30Z</time></trkpt><trkpt lat="39.7294665780" lon="-0.2715750039"><ele>45.80</ele><time>2014-08-28T05:03:49Z</time></trkpt><trkpt lat="39.7293597087" lon="-0.2718683705"><ele>46.76</ele><time>2014-08-28T05:04:09Z</time></trkpt><trkpt lat="39.7292917315" lon="-0.2721577976"><ele>48.20</ele><time>2014-08-28T05:04:28Z</time></trkpt><trkpt lat="39.7291898075" lon="-0.2724230010"><ele>50.13</ele><time>2014-08-28T05:04:46Z</time></trkpt><trkpt lat="39.7290946729" lon="-0.2726704348"><ele>51.09</ele><time>2014-08-28T05:05:03Z</time></trkpt><trkpt lat="39.7290335689" lon="-0.2729105763"><ele>51.57</ele><time>2014-08-28T05:05:19Z</time></trkpt><trkpt lat="39.7289356682" lon="-0.2731803898"><ele>53.01</ele><time>2014-08-28T05:05:37Z</time></trkpt><trkpt lat="39.7288361751" lon="-0.2734396420"><ele>53.97</ele><time>2014-08-28T05:05:55Z</time></trkpt><trkpt lat="39.7287500091" lon="-0.2737515327"><ele>54.93</ele><time>2014-08-28T05:06:15Z</time></trkpt><trkpt lat="39.7286625858" lon="-0.2740085218"><ele>56.37</ele><time>2014-08-28T05:06:32Z</time></trkpt><trkpt lat="39.7285486758" lon="-0.2743146289"><ele>57.34</ele><time>2014-08-28T05:06:53Z</time></trkpt><trkpt lat="39.7284478415" lon="-0.2745531779"><ele>58.78</ele><time>2014-08-28T05:07:10Z</time></trkpt><trkpt lat="39.7283710632" lon="-0.2747989353"><ele>59.74</ele><time>2014-08-28T05:07:27Z</time></trkpt><trkpt lat="39.7283216938" lon="-0.2749208082"><ele>60.70</ele><time>2014-08-28T05:07:36Z</time></trkpt><trkpt lat="39.7283083666" lon="-0.2749754582"><ele>60.70</ele><time>2014-08-28T05:07:40Z</time></trkpt><trkpt lat="39.7282914352" lon="-0.2752296813"><ele>61.66</ele><time>2014-08-28T05:07:57Z</time></trkpt><trkpt lat="39.7282667086" lon="-0.2754926216"><ele>63.58</ele><time>2014-08-28T05:08:15Z</time></trkpt><trkpt lat="39.7282290738" lon="-0.2757059410"><ele>64.07</ele><time>2014-08-28T05:08:30Z</time></trkpt><trkpt lat="39.7281880025" lon="-0.2760042530"><ele>65.03</ele><time>2014-08-28T05:08:51Z</time></trkpt><trkpt lat="39.7281657904" lon="-0.2762158960"><ele>66.47</ele><time>2014-08-28T05:09:06Z</time></trkpt><trkpt lat="39.7281256411" lon="-0.2764722984"><ele>67.43</ele><time>2014-08-28T05:09:23Z</time></trkpt><trkpt lat="39.7280870844" lon="-0.2767228335"><ele>68.39</ele><time>2014-08-28T05:09:41Z</time></trkpt><trkpt lat="39.7280673869" lon="-0.2769297827"><ele>69.35</ele><time>2014-08-28T05:09:56Z</time></trkpt><trkpt lat="39.7280666325" lon="-0.2771578543"><ele>71.27</ele><time>2014-08-28T05:10:13Z</time></trkpt><trkpt lat="39.7280662972" lon="-0.2771582734"><ele>71.27</ele><time>2014-08-28T05:10:14Z</time></trkpt><trkpt lat="39.7280684765" lon="-0.2771993447"><ele>71.27</ele><time>2014-08-28T05:10:17Z</time></trkpt><trkpt lat="39.7280620225" lon="-0.2772539109"><ele>72.24</ele><time>2014-08-28T05:10:21Z</time></trkpt><trkpt lat="39.7280608490" lon="-0.2773270011"><ele>72.24</ele><time>2014-08-28T05:10:26Z</time></trkpt><trkpt lat="39.7280565742" lon="-0.2774010971"><ele>72.72</ele><time>2014-08-28T05:10:31Z</time></trkpt><trkpt lat="39.7280482762" lon="-0.2776673902"><ele>74.64</ele><time>2014-08-28T05:10:49Z</time></trkpt><trkpt lat="39.7280465160" lon="-0.2776805498"><ele>74.64</ele><time>2014-08-28T05:10:50Z</time></trkpt><trkpt lat="39.7280594241" lon="-0.2777610160"><ele>75.12</ele><time>2014-08-28T05:10:56Z</time></trkpt><trkpt lat="39.7280521318" lon="-0.2778122295"><ele>75.60</ele><time>2014-08-28T05:11:00Z</time></trkpt><trkpt lat="39.7280538082" lon="-0.2778535523"><ele>75.60</ele><time>2014-08-28T05:11:03Z</time></trkpt><trkpt lat="39.7280560713" lon="-0.2780662850"><ele>77.04</ele><time>2014-08-28T05:11:19Z</time></trkpt><trkpt lat="39.7280472703" lon="-0.2782503515"><ele>78.48</ele><time>2014-08-28T05:11:33Z</time></trkpt><trkpt lat="39.7280507907" lon="-0.2784735616"><ele>79.45</ele><time>2014-08-28T05:11:49Z</time></trkpt><trkpt lat="39.7280536406" lon="-0.2785575483"><ele>80.41</ele><time>2014-08-28T05:11:55Z</time></trkpt><trkpt lat="39.7280500364" lon="-0.2786629926"><ele>80.89</ele><time>2014-08-28T05:12:03Z</time></trkpt><trkpt lat="39.7280529700" lon="-0.2788654994"><ele>82.81</ele><time>2014-08-28T05:12:19Z</time></trkpt><trkpt lat="39.7280575801" lon="-0.2789163776"><ele>82.81</ele><time>2014-08-28T05:12:23Z</time></trkpt><trkpt lat="39.7280733380" lon="-0.2791441139"><ele>84.73</ele><time>2014-08-28T05:12:40Z</time></trkpt><trkpt lat="39.7280717455" lon="-0.2792385779"><ele>85.21</ele><time>2014-08-28T05:12:47Z</time></trkpt><trkpt lat="39.7280724160" lon="-0.2794759534"><ele>87.14</ele><time>2014-08-28T05:13:04Z</time></trkpt><trkpt lat="39.7280591726" lon="-0.2795507200"><ele>88.10</ele><time>2014-08-28T05:13:10Z</time></trkpt><trkpt lat="39.7280676384" lon="-0.2797069587"><ele>89.06</ele><time>2014-08-28T05:13:24Z</time></trkpt><trkpt lat="39.7280506231" lon="-0.2798367944"><ele>90.02</ele><time>2014-08-28T05:13:35Z</time></trkpt><trkpt lat="39.7280445881" lon="-0.2798752673"><ele>90.98</ele><time>2014-08-28T05:13:38Z</time></trkpt><trkpt lat="39.7280416545" lon="-0.2799812146"><ele>91.94</ele><time>2014-08-28T05:13:46Z</time></trkpt><trkpt lat="39.7280230466" lon="-0.2800952923"><ele>92.90</ele><time>2014-08-28T05:13:56Z</time></trkpt><trkpt lat="39.7279983200" lon="-0.2802333422"><ele>93.87</ele><time>2014-08-28T05:14:11Z</time></trkpt><trkpt lat="39.7279971465" lon="-0.2802419756"><ele>94.35</ele><time>2014-08-28T05:14:13Z</time></trkpt><trkpt lat="39.7279999126" lon="-0.2802772634"><ele>94.83</ele><time>2014-08-28T05:14:16Z</time></trkpt><trkpt lat="39.7279993258" lon="-0.2803026605"><ele>94.35</ele><time>2014-08-28T05:14:18Z</time></trkpt><trkpt lat="39.7280245554" lon="-0.2804678679"><ele>96.27</ele><time>2014-08-28T05:14:32Z</time></trkpt><trkpt lat="39.7280296683" lon="-0.2805203386"><ele>96.75</ele><time>2014-08-28T05:14:36Z</time></trkpt><trkpt lat="39.7280317638" lon="-0.2805787604"><ele>97.71</ele><time>2014-08-28T05:14:40Z</time></trkpt><trkpt lat="39.7280401457" lon="-0.2806339972"><ele>97.23</ele><time>2014-08-28T05:14:44Z</time></trkpt><trkpt lat="39.7280376311" lon="-0.2806641720"><ele>97.23</ele><time>2014-08-28T05:14:46Z</time></trkpt><trkpt lat="39.7280621063" lon="-0.2808717079"><ele>99.63</ele><time>2014-08-28T05:15:02Z</time></trkpt><trkpt lat="39.7281061951" lon="-0.2810893860"><ele>101.08</ele><time>2014-08-28T05:15:19Z</time></trkpt><trkpt lat="39.7281220369" lon="-0.2811635658"><ele>102.04</ele><time>2014-08-28T05:15:25Z</time></trkpt><trkpt lat="39.7281259764" lon="-0.2811986860"><ele>102.52</ele><time>2014-08-28T05:15:28Z</time></trkpt><trkpt lat="39.7281330172" lon="-0.2812367398"><ele>103.00</ele><time>2014-08-28T05:15:31Z</time></trkpt><trkpt lat="39.7281349450" lon="-0.2812649868"><ele>103.48</ele><time>2014-08-28T05:15:33Z</time></trkpt><trkpt lat="39.7281849012" lon="-0.2814368997"><ele>104.92</ele><time>2014-08-28T05:15:48Z</time></trkpt><trkpt lat="39.7282305826" lon="-0.2816110756"><ele>107.81</ele><time>2014-08-28T05:16:03Z</time></trkpt><trkpt lat="39.7282317560" lon="-0.2816218883"><ele>107.81</ele><time>2014-08-28T05:16:04Z</time></trkpt><trkpt lat="39.7282506153" lon="-0.2817387320"><ele>109.73</ele><time>2014-08-28T05:16:19Z</time></trkpt><trkpt lat="39.7282601707" lon="-0.2818273287"><ele>110.69</ele><time>2014-08-28T05:16:31Z</time></trkpt><trkpt lat="39.7282666247" lon="-0.2819298394"><ele>111.65</ele><time>2014-08-28T05:16:40Z</time></trkpt><trkpt lat="39.7282775212" lon="-0.2820751816"><ele>113.57</ele><time>2014-08-28T05:16:53Z</time></trkpt><trkpt lat="39.7282880824" lon="-0.2822021674"><ele>115.01</ele><time>2014-08-28T05:17:05Z</time></trkpt><trkpt lat="39.7283108812" lon="-0.2823201846"><ele>116.46</ele><time>2014-08-28T05:17:15Z</time></trkpt><trkpt lat="39.7283209395" lon="-0.2823534608"><ele>115.98</ele><time>2014-08-28T05:17:18Z</time></trkpt><trkpt lat="39.7283523716" lon="-0.2824297361"><ele>117.42</ele><time>2014-08-28T05:17:25Z</time></trkpt><trkpt lat="39.7283591609" lon="-0.2824682929"><ele>117.42</ele><time>2014-08-28T05:17:28Z</time></trkpt><trkpt lat="39.7283651959" lon="-0.2825088613"><ele>118.38</ele><time>2014-08-28T05:17:32Z</time></trkpt><trkpt lat="39.7283813730" lon="-0.2825576439"><ele>118.86</ele><time>2014-08-28T05:17:37Z</time></trkpt><trkpt lat="39.7283927724" lon="-0.2826355956"><ele>119.34</ele><time>2014-08-28T05:17:44Z</time></trkpt><trkpt lat="39.7284461651" lon="-0.2827345859"><ele>120.78</ele><time>2014-08-28T05:17:56Z</time></trkpt><trkpt lat="39.7284604143" lon="-0.2827634197"><ele>121.74</ele><time>2014-08-28T05:17:59Z</time></trkpt><trkpt lat="39.7284926008" lon="-0.2828442212"><ele>122.71</ele><time>2014-08-28T05:18:07Z</time></trkpt><trkpt lat="39.7285440657" lon="-0.2829810977"><ele>124.63</ele><time>2014-08-28T05:18:21Z</time></trkpt><trkpt lat="39.7285785154" lon="-0.2830964327"><ele>126.55</ele><time>2014-08-28T05:18:32Z</time></trkpt><trkpt lat="39.7285918426" lon="-0.2831270266"><ele>127.51</ele><time>2014-08-28T05:18:43Z</time></trkpt><trkpt lat="39.7286090255" lon="-0.2831411082"><ele>127.51</ele><time>2014-08-28T05:19:04Z</time></trkpt><trkpt lat="39.7285836283" lon="-0.2831467241"><ele>127.03</ele><time>2014-08-28T05:19:18Z</time></trkpt><trkpt lat="39.7285575606" lon="-0.2831455506"><ele>127.03</ele><time>2014-08-28T05:19:21Z</time></trkpt><trkpt lat="39.7285153158" lon="-0.2831623144"><ele>127.03</ele><time>2014-08-28T05:19:37Z</time></trkpt><trkpt lat="39.7285323311" lon="-0.2831692714"><ele>127.51</ele><time>2014-08-28T05:19:40Z</time></trkpt><trkpt lat="39.7286083549" lon="-0.2831552736"><ele>127.51</ele><time>2014-08-28T05:19:52Z</time></trkpt><trkpt lat="39.7286907490" lon="-0.2831195667"><ele>127.99</ele><time>2014-08-28T05:20:03Z</time></trkpt><trkpt lat="39.7287034057" lon="-0.2831157111"><ele>127.51</ele><time>2014-08-28T05:20:04Z</time></trkpt><trkpt lat="39.7288395278" lon="-0.2830584627"><ele>128.47</ele><time>2014-08-28T05:20:17Z</time></trkpt><trkpt lat="39.7289085109" lon="-0.2830262762"><ele>128.47</ele><time>2014-08-28T05:20:25Z</time></trkpt><trkpt lat="39.7289585508" lon="-0.2830043994"><ele>128.47</ele><time>2014-08-28T05:20:30Z</time></trkpt><trkpt lat="39.7290059086" lon="-0.2829845343"><ele>128.47</ele><time>2014-08-28T05:20:35Z</time></trkpt><trkpt lat="39.7290310543" lon="-0.2829693630"><ele>128.95</ele><time>2014-08-28T05:20:37Z</time></trkpt><trkpt lat="39.7291054856" lon="-0.2829277050"><ele>128.95</ele><time>2014-08-28T05:20:45Z</time></trkpt><trkpt lat="39.7292419430" lon="-0.2828529384"><ele>128.47</ele><time>2014-08-28T05:21:00Z</time></trkpt><trkpt lat="39.7293613851" lon="-0.2827854641"><ele>127.51</ele><time>2014-08-28T05:21:13Z</time></trkpt><trkpt lat="39.7294135205" lon="-0.2827324905"><ele>127.03</ele><time>2014-08-28T05:21:23Z</time></trkpt><trkpt lat="39.7294250876" lon="-0.2827134635"><ele>127.51</ele><time>2014-08-28T05:21:25Z</time></trkpt><trkpt lat="39.7294601239" lon="-0.2826818638"><ele>126.55</ele><time>2014-08-28T05:21:30Z</time></trkpt><trkpt lat="39.7294863593" lon="-0.2826428879"><ele>126.55</ele><time>2014-08-28T05:21:34Z</time></trkpt><trkpt lat="39.7296030354" lon="-0.2824964561"><ele>125.59</ele><time>2014-08-28T05:21:50Z</time></trkpt><trkpt lat="39.7296102438" lon="-0.2824885771"><ele>125.11</ele><time>2014-08-28T05:21:51Z</time></trkpt><trkpt lat="39.7296964098" lon="-0.2823789418"><ele>124.15</ele><time>2014-08-28T05:22:04Z</time></trkpt><trkpt lat="39.7297007684" lon="-0.2823713142"><ele>123.67</ele><time>2014-08-28T05:22:05Z</time></trkpt><trkpt lat="39.7297399119" lon="-0.2823312487"><ele>123.67</ele><time>2014-08-28T05:22:09Z</time></trkpt><trkpt lat="39.7297728527" lon="-0.2822954580"><ele>123.67</ele><time>2014-08-28T05:22:13Z</time></trkpt><trkpt lat="39.7298213840" lon="-0.2822786942"><ele>123.19</ele><time>2014-08-28T05:22:18Z</time></trkpt><trkpt lat="39.7298513073" lon="-0.2822543867"><ele>122.71</ele><time>2014-08-28T05:22:21Z</time></trkpt><trkpt lat="39.7300417442" lon="-0.2821620181"><ele>122.71</ele><time>2014-08-28T05:22:39Z</time></trkpt><trkpt lat="39.7301046085" lon="-0.2821440808"><ele>123.19</ele><time>2014-08-28T05:22:50Z</time></trkpt><trkpt lat="39.7302144952" lon="-0.2820939571"><ele>123.19</ele><time>2014-08-28T05:23:03Z</time></trkpt><trkpt lat="39.7302859090" lon="-0.2820602618"><ele>123.19</ele><time>2014-08-28T05:23:10Z</time></trkpt><trkpt lat="39.7303999029" lon="-0.2819900215"><ele>123.19</ele><time>2014-08-28T05:23:21Z</time></trkpt><trkpt lat="39.7304973006" lon="-0.2819217090"><ele>123.67</ele><time>2014-08-28T05:23:34Z</time></trkpt><trkpt lat="39.7305156570" lon="-0.2819122374"><ele>123.67</ele><time>2014-08-28T05:23:45Z</time></trkpt><trkpt lat="39.7305086162" lon="-0.2819041908"><ele>123.67</ele><time>2014-08-28T05:24:00Z</time></trkpt><trkpt lat="39.7305290680" lon="-0.2818894386"><ele>123.67</ele><time>2014-08-28T05:24:23Z</time></trkpt><trkpt lat="39.7305592429" lon="-0.2818719205"><ele>123.67</ele><time>2014-08-28T05:24:26Z</time></trkpt><trkpt lat="39.7305957042" lon="-0.2818642091"><ele>123.67</ele><time>2014-08-28T05:24:30Z</time></trkpt><trkpt lat="39.7306644358" lon="-0.2817851678"><ele>123.67</ele><time>2014-08-28T05:24:40Z</time></trkpt><trkpt lat="39.7306935210" lon="-0.2817441802"><ele>123.67</ele><time>2014-08-28T05:24:44Z</time></trkpt><trkpt lat="39.7308123764" lon="-0.2816961519"><ele>123.19</ele><time>2014-08-28T05:24:56Z</time></trkpt><trkpt lat="39.7308455687" lon="-0.2816676535"><ele>123.19</ele><time>2014-08-28T05:25:11Z</time></trkpt><trkpt lat="39.7308531962" lon="-0.2816672344"><ele>122.71</ele><time>2014-08-28T05:25:12Z</time></trkpt><trkpt lat="39.7308411263" lon="-0.2816604450"><ele>122.71</ele><time>2014-08-28T05:25:22Z</time></trkpt><trkpt lat="39.7308491729" lon="-0.2816422563"><ele>121.74</ele><time>2014-08-28T05:25:43Z</time></trkpt><trkpt lat="39.7308412939" lon="-0.2816458605"><ele>121.74</ele><time>2014-08-28T05:26:16Z</time></trkpt><trkpt lat="39.7308423836" lon="-0.2816769574"><ele>123.19</ele><time>2014-08-28T05:26:46Z</time></trkpt><trkpt lat="39.7308454011" lon="-0.2816720121"><ele>123.67</ele><time>2014-08-28T05:26:55Z</time></trkpt><trkpt lat="39.7308436409" lon="-0.2816689946"><ele>122.71</ele><time>2014-08-28T05:27:06Z</time></trkpt><trkpt lat="39.7308478318" lon="-0.2816801425"><ele>123.19</ele><time>2014-08-28T05:27:15Z</time></trkpt><trkpt lat="39.7308438085" lon="-0.2816757001"><ele>123.67</ele><time>2014-08-28T05:27:46Z</time></trkpt><trkpt lat="39.7308564652" lon="-0.2816788014"><ele>123.67</ele><time>2014-08-28T05:28:04Z</time></trkpt><trkpt lat="39.7308779228" lon="-0.2816727664"><ele>123.67</ele><time>2014-08-28T05:28:06Z</time></trkpt><trkpt lat="39.7309513483" lon="-0.2816464473"><ele>123.19</ele><time>2014-08-28T05:28:13Z</time></trkpt><trkpt lat="39.7309978679" lon="-0.2816057950"><ele>123.19</ele><time>2014-08-28T05:28:19Z</time></trkpt><trkpt lat="39.7310770769" lon="-0.2815391589"><ele>122.71</ele><time>2014-08-28T05:28:29Z</time></trkpt><trkpt lat="39.7311434615" lon="-0.2815269213"><ele>121.74</ele><time>2014-08-28T05:28:40Z</time></trkpt><trkpt lat="39.7311737202" lon="-0.2815136779"><ele>122.71</ele><time>2014-08-28T05:28:49Z</time></trkpt><trkpt lat="39.7312018834" lon="-0.2815017756"><ele>122.71</ele><time>2014-08-28T05:29:03Z</time></trkpt><trkpt lat="39.7312080022" lon="-0.2814918850"><ele>122.22</ele><time>2014-08-28T05:29:20Z</time></trkpt><trkpt lat="39.7311970219" lon="-0.2814820781"><ele>121.74</ele><time>2014-08-28T05:29:39Z</time></trkpt><trkpt lat="39.7311943397" lon="-0.2814737801"><ele>121.74</ele><time>2014-08-28T05:29:45Z</time></trkpt><trkpt lat="39.7311708704" lon="-0.2814625483"><ele>121.74</ele><time>2014-08-28T05:29:47Z</time></trkpt><trkpt lat="39.7310820222" lon="-0.2815305255"><ele>122.71</ele><time>2014-08-28T05:30:00Z</time></trkpt><trkpt lat="39.7311114427" lon="-0.2815886121"><ele>123.67</ele><time>2014-08-28T05:30:14Z</time></trkpt><trkpt lat="39.7311333194" lon="-0.2816062979"><ele>124.63</ele><time>2014-08-28T05:30:24Z</time></trkpt><trkpt lat="39.7311525978" lon="-0.2816137578"><ele>126.55</ele><time>2014-08-28T05:30:37Z</time></trkpt><trkpt lat="39.7311699484" lon="-0.2816425078"><ele>127.03</ele><time>2014-08-28T05:30:48Z</time></trkpt><trkpt lat="39.7311784141" lon="-0.2816494647"><ele>128.47</ele><time>2014-08-28T05:31:00Z</time></trkpt><trkpt lat="39.7311862092" lon="-0.2816599421"><ele>129.43</ele><time>2014-08-28T05:31:11Z</time></trkpt><trkpt lat="39.7312131990" lon="-0.2816729341"><ele>129.92</ele><time>2014-08-28T05:31:24Z</time></trkpt><trkpt lat="39.7312203236" lon="-0.2816637978"><ele>129.92</ele><time>2014-08-28T05:31:37Z</time></trkpt><trkpt lat="39.7312801704" lon="-0.2816474531"><ele>131.36</ele><time>2014-08-28T05:31:45Z</time></trkpt><trkpt lat="39.7313328926" lon="-0.2816236485"><ele>131.84</ele><time>2014-08-28T05:31:57Z</time></trkpt><trkpt lat="39.7313337307" lon="-0.2815736085"><ele>130.88</ele><time>2014-08-28T05:32:10Z</time></trkpt><trkpt lat="39.7313582897" lon="-0.2814800665"><ele>128.95</ele><time>2014-08-28T05:32:24Z</time></trkpt><trkpt lat="39.7314293683" lon="-0.2813981753"><ele>128.47</ele><time>2014-08-28T05:32:38Z</time></trkpt><trkpt lat="39.7314918134" lon="-0.2812991850"><ele>127.99</ele><time>2014-08-28T05:32:53Z</time></trkpt><trkpt lat="39.7315229941" lon="-0.2811941598"><ele>126.55</ele><time>2014-08-28T05:33:08Z</time></trkpt><trkpt lat="39.7315300349" lon="-0.2811295353"><ele>126.07</ele><time>2014-08-28T05:33:24Z</time></trkpt><trkpt lat="39.7315170430" lon="-0.2810695209"><ele>125.11</ele><time>2014-08-28T05:33:37Z</time></trkpt><trkpt lat="39.7315229103" lon="-0.2809936646"><ele>123.67</ele><time>2014-08-28T05:33:49Z</time></trkpt><trkpt lat="39.7315773088" lon="-0.2809341531"><ele>123.19</ele><time>2014-08-28T05:34:00Z</time></trkpt><trkpt lat="39.7316302825" lon="-0.2808831073"><ele>123.19</ele><time>2014-08-28T05:34:12Z</time></trkpt><trkpt lat="39.7316874471" lon="-0.2808244340"><ele>123.67</ele><time>2014-08-28T05:34:25Z</time></trkpt><trkpt lat="39.7317614593" lon="-0.2807392739"><ele>123.19</ele><time>2014-08-28T05:34:38Z</time></trkpt><trkpt lat="39.7318203002" lon="-0.2806878928"><ele>123.19</ele><time>2014-08-28T05:34:46Z</time></trkpt><trkpt lat="39.7319156025" lon="-0.2805718873"><ele>123.67</ele><time>2014-08-28T05:35:01Z</time></trkpt><trkpt lat="39.7319314443" lon="-0.2805277146"><ele>123.67</ele><time>2014-08-28T05:35:05Z</time></trkpt><trkpt lat="39.7320139222" lon="-0.2804856375"><ele>124.15</ele><time>2014-08-28T05:35:17Z</time></trkpt><trkpt lat="39.7320186161" lon="-0.2804757468"><ele>124.63</ele><time>2014-08-28T05:35:18Z</time></trkpt><trkpt lat="39.7320284229" lon="-0.2804536186"><ele>125.11</ele><time>2014-08-28T05:35:20Z</time></trkpt><trkpt lat="39.7320559155" lon="-0.2804012317"><ele>125.11</ele><time>2014-08-28T05:35:28Z</time></trkpt><trkpt lat="39.7320985794" lon="-0.2803324163"><ele>125.11</ele><time>2014-08-28T05:35:39Z</time></trkpt><trkpt lat="39.7321294248" lon="-0.2802542131"><ele>125.11</ele><time>2014-08-28T05:35:48Z</time></trkpt><trkpt lat="39.7321507987" lon="-0.2801502775"><ele>126.07</ele><time>2014-08-28T05:36:01Z</time></trkpt><trkpt lat="39.7321462724" lon="-0.2801308315"><ele>126.07</ele><time>2014-08-28T05:36:03Z</time></trkpt><trkpt lat="39.7321621142" lon="-0.2800057735"><ele>126.07</ele><time>2014-08-28T05:36:17Z</time></trkpt><trkpt lat="39.7321801353" lon="-0.2799661271"><ele>126.07</ele><time>2014-08-28T05:36:21Z</time></trkpt><trkpt lat="39.7322511300" lon="-0.2799251396"><ele>125.59</ele><time>2014-08-28T05:36:34Z</time></trkpt><trkpt lat="39.7322812211" lon="-0.2799083758"><ele>125.11</ele><time>2014-08-28T05:36:41Z</time></trkpt><trkpt lat="39.7323784512" lon="-0.2799323481"><ele>125.59</ele><time>2014-08-28T05:36:55Z</time></trkpt><trkpt lat="39.7323981486" lon="-0.2799657080"><ele>127.03</ele><time>2014-08-28T05:37:07Z</time></trkpt><trkpt lat="39.7324119788" lon="-0.2799834777"><ele>127.03</ele><time>2014-08-28T05:37:14Z</time></trkpt><trkpt lat="39.7324044351" lon="-0.2800107189"><ele>127.99</ele><time>2014-08-28T05:37:19Z</time></trkpt><trkpt lat="39.7324207798" lon="-0.2800398041"><ele>127.51</ele><time>2014-08-28T05:37:22Z</time></trkpt><trkpt lat="39.7324419860" lon="-0.2800776064"><ele>127.99</ele><time>2014-08-28T05:37:28Z</time></trkpt><trkpt lat="39.7324640304" lon="-0.2801474277"><ele>127.99</ele><time>2014-08-28T05:37:39Z</time></trkpt><trkpt lat="39.7324668802" lon="-0.2801564801"><ele>128.95</ele><time>2014-08-28T05:37:42Z</time></trkpt><trkpt lat="39.7324854042" lon="-0.2802985534"><ele>128.95</ele><time>2014-08-28T05:37:57Z</time></trkpt><trkpt lat="39.7324943729" lon="-0.2803373616"><ele>127.51</ele><time>2014-08-28T05:38:08Z</time></trkpt><trkpt lat="39.7325350251" lon="-0.2803869825"><ele>126.07</ele><time>2014-08-28T05:38:18Z</time></trkpt><trkpt lat="39.7325916030" lon="-0.2804677002"><ele>124.15</ele><time>2014-08-28T05:38:31Z</time></trkpt><trkpt lat="39.7326180898" lon="-0.2805870585"><ele>124.15</ele><time>2014-08-28T05:38:45Z</time></trkpt><trkpt lat="39.7326517850" lon="-0.2806968614"><ele>123.67</ele><time>2014-08-28T05:38:57Z</time></trkpt><trkpt lat="39.7326962091" lon="-0.2808100171"><ele>124.63</ele><time>2014-08-28T05:39:10Z</time></trkpt><trkpt lat="39.7327167448" lon="-0.2808590513"><ele>123.67</ele><time>2014-08-28T05:39:22Z</time></trkpt><trkpt lat="39.7327263840" lon="-0.2808944229"><ele>124.15</ele><time>2014-08-28T05:39:31Z</time></trkpt><trkpt lat="39.7327260487" lon="-0.2808971051"><ele>123.67</ele><time>2014-08-28T05:39:42Z</time></trkpt><trkpt lat="39.7327306587" lon="-0.2809175570"><ele>124.15</ele><time>2014-08-28T05:40:01Z</time></trkpt><trkpt lat="39.7327211872" lon="-0.2809408586"><ele>124.63</ele><time>2014-08-28T05:40:17Z</time></trkpt><trkpt lat="39.7326948680" lon="-0.2809721231"><ele>126.55</ele><time>2014-08-28T05:40:28Z</time></trkpt><trkpt lat="39.7326765116" lon="-0.2809865400"><ele>127.51</ele><time>2014-08-28T05:40:38Z</time></trkpt><trkpt lat="39.7326656152" lon="-0.2809642442"><ele>127.99</ele><time>2014-08-28T05:40:50Z</time></trkpt><trkpt lat="39.7326240409" lon="-0.2809731290"><ele>128.47</ele><time>2014-08-28T05:41:02Z</time></trkpt><trkpt lat="39.7326206043" lon="-0.2810006216"><ele>129.92</ele><time>2014-08-28T05:41:14Z</time></trkpt><trkpt lat="39.7326335125" lon="-0.2810659166"><ele>130.40</ele><time>2014-08-28T05:41:24Z</time></trkpt><trkpt lat="39.7327109613" lon="-0.2811535913"><ele>130.40</ele><time>2014-08-28T05:41:38Z</time></trkpt><trkpt lat="39.7327516973" lon="-0.2812533360"><ele>129.43</ele><time>2014-08-28T05:41:50Z</time></trkpt><trkpt lat="39.7327900864" lon="-0.2813572716"><ele>129.92</ele><time>2014-08-28T05:42:02Z</time></trkpt><trkpt lat="39.7328492627" lon="-0.2814235725"><ele>129.92</ele><time>2014-08-28T05:42:13Z</time></trkpt><trkpt lat="39.7328808624" lon="-0.2815042902"><ele>129.43</ele><time>2014-08-28T05:42:22Z</time></trkpt><trkpt lat="39.7329466604" lon="-0.2816120815"><ele>128.95</ele><time>2014-08-28T05:42:33Z</time></trkpt><trkpt lat="39.7330137156" lon="-0.2817488741"><ele>128.95</ele><time>2014-08-28T05:42:47Z</time></trkpt><trkpt lat="39.7330645099" lon="-0.2818934619"><ele>127.99</ele><time>2014-08-28T05:42:58Z</time></trkpt><trkpt lat="39.7331167292" lon="-0.2820046898"><ele>127.99</ele><time>2014-08-28T05:43:08Z</time></trkpt><trkpt lat="39.7331463173" lon="-0.2820424084"><ele>127.03</ele><time>2014-08-28T05:43:14Z</time></trkpt><trkpt lat="39.7331416234" lon="-0.2822051849"><ele>127.51</ele><time>2014-08-28T05:43:27Z</time></trkpt><trkpt lat="39.7331666015" lon="-0.2823234536"><ele>127.03</ele><time>2014-08-28T05:43:37Z</time></trkpt><trkpt lat="39.7331966925" lon="-0.2824096195"><ele>126.07</ele><time>2014-08-28T05:43:45Z</time></trkpt><trkpt lat="39.7331893165" lon="-0.2825174946"><ele>125.11</ele><time>2014-08-28T05:43:58Z</time></trkpt><trkpt lat="39.7332541086" lon="-0.2825905010"><ele>123.67</ele><time>2014-08-28T05:44:11Z</time></trkpt><trkpt lat="39.7332876362" lon="-0.2826486714"><ele>123.19</ele><time>2014-08-28T05:44:20Z</time></trkpt><trkpt lat="39.7332883906" lon="-0.2826520242"><ele>123.67</ele><time>2014-08-28T05:44:22Z</time></trkpt><trkpt lat="39.7333414480" lon="-0.2827194147"><ele>123.67</ele><time>2014-08-28T05:44:33Z</time></trkpt><trkpt lat="39.7333998699" lon="-0.2827391960"><ele>124.63</ele><time>2014-08-28T05:44:46Z</time></trkpt><trkpt lat="39.7335006204" lon="-0.2827767469"><ele>123.19</ele><time>2014-08-28T05:44:59Z</time></trkpt><trkpt lat="39.7335792426" lon="-0.2827819437"><ele>123.19</ele><time>2014-08-28T05:45:12Z</time></trkpt><trkpt lat="39.7336045559" lon="-0.2828788385"><ele>124.63</ele><time>2014-08-28T05:45:23Z</time></trkpt><trkpt lat="39.7335867863" lon="-0.2829982806"><ele>124.63</ele><time>2014-08-28T05:45:34Z</time></trkpt><trkpt lat="39.7335663345" lon="-0.2831034735"><ele>125.59</ele><time>2014-08-28T05:45:46Z</time></trkpt><trkpt lat="39.7335372493" lon="-0.2832556888"><ele>127.51</ele><time>2014-08-28T05:45:58Z</time></trkpt><trkpt lat="39.7335779853" lon="-0.2832951676"><ele>127.51</ele><time>2014-08-28T05:46:04Z</time></trkpt><trkpt lat="39.7335928213" lon="-0.2833029628"><ele>127.03</ele><time>2014-08-28T05:46:06Z</time></trkpt><trkpt lat="39.7336742096" lon="-0.2833595406"><ele>127.51</ele><time>2014-08-28T05:46:18Z</time></trkpt><trkpt lat="39.7337524127" lon="-0.2834018692"><ele>128.47</ele><time>2014-08-28T05:46:31Z</time></trkpt><trkpt lat="39.7337483056" lon="-0.2833784837"><ele>127.99</ele><time>2014-08-28T05:46:45Z</time></trkpt><trkpt lat="39.7337516584" lon="-0.2833881229"><ele>127.99</ele><time>2014-08-28T05:47:06Z</time></trkpt><trkpt lat="39.7337815817" lon="-0.2834553458"><ele>128.95</ele><time>2014-08-28T05:47:17Z</time></trkpt><trkpt lat="39.7338081524" lon="-0.2834646497"><ele>128.47</ele><time>2014-08-28T05:47:29Z</time></trkpt><trkpt lat="39.7338062245" lon="-0.2834643144"><ele>129.43</ele><time>2014-08-28T05:47:46Z</time></trkpt><trkpt lat="39.7338128462" lon="-0.2834611293"><ele>129.43</ele><time>2014-08-28T05:48:00Z</time></trkpt><trkpt lat="39.7338016145" lon="-0.2834658232"><ele>128.95</ele><time>2014-08-28T05:48:26Z</time></trkpt><trkpt lat="39.7338584438" lon="-0.2834610455"><ele>127.51</ele><time>2014-08-28T05:48:40Z</time></trkpt><trkpt lat="39.7338595334" lon="-0.2834516577"><ele>127.51</ele><time>2014-08-28T05:48:54Z</time></trkpt><trkpt lat="39.7338870261" lon="-0.2834508196"><ele>127.03</ele><time>2014-08-28T05:49:13Z</time></trkpt><trkpt lat="39.7338999342" lon="-0.2834441140"><ele>127.51</ele><time>2014-08-28T05:49:32Z</time></trkpt><trkpt lat="39.7339205537" lon="-0.2834228240"><ele>127.51</ele><time>2014-08-28T05:49:45Z</time></trkpt><trkpt lat="39.7339189611" lon="-0.2834107541"><ele>127.51</ele><time>2014-08-28T05:49:57Z</time></trkpt><trkpt lat="39.7339128423" lon="-0.2834031265"><ele>127.51</ele><time>2014-08-28T05:50:21Z</time></trkpt><trkpt lat="39.7339297738" lon="-0.2834343072"><ele>127.99</ele><time>2014-08-28T05:50:48Z</time></trkpt><trkpt lat="39.7339198831" lon="-0.2834337205"><ele>127.99</ele><time>2014-08-28T05:51:04Z</time></trkpt><trkpt lat="39.7339169495" lon="-0.2834402584"><ele>127.99</ele><time>2014-08-28T05:51:15Z</time></trkpt><trkpt lat="39.7339115851" lon="-0.2834232431"><ele>127.99</ele><time>2014-08-28T05:51:26Z</time></trkpt><trkpt lat="39.7338906303" lon="-0.2834263444"><ele>127.99</ele><time>2014-08-28T05:51:38Z</time></trkpt><trkpt lat="39.7338597011" lon="-0.2834540047"><ele>129.43</ele><time>2014-08-28T05:51:51Z</time></trkpt><trkpt lat="39.7338328790" lon="-0.2834897954"><ele>129.92</ele><time>2014-08-28T05:52:02Z</time></trkpt><trkpt lat="39.7338379081" lon="-0.2835541684"><ele>130.40</ele><time>2014-08-28T05:52:14Z</time></trkpt><trkpt lat="39.7338790633" lon="-0.2836374845"><ele>130.88</ele><time>2014-08-28T05:52:27Z</time></trkpt><trkpt lat="39.7339384910" lon="-0.2836986724"><ele>131.84</ele><time>2014-08-28T05:52:38Z</time></trkpt><trkpt lat="39.7339746170" lon="-0.2837456949"><ele>132.80</ele><time>2014-08-28T05:52:49Z</time></trkpt><trkpt lat="39.7340535745" lon="-0.2838503849"><ele>134.24</ele><time>2014-08-28T05:53:02Z</time></trkpt><trkpt lat="39.7340775467" lon="-0.2839110699"><ele>136.16</ele><time>2014-08-28T05:53:13Z</time></trkpt><trkpt lat="39.7340818215" lon="-0.2839562483"><ele>137.61</ele><time>2014-08-28T05:53:23Z</time></trkpt><trkpt lat="39.7341015190" lon="-0.2840582561"><ele>138.57</ele><time>2014-08-28T05:53:33Z</time></trkpt><trkpt lat="39.7341096494" lon="-0.2840637043"><ele>139.53</ele><time>2014-08-28T05:53:34Z</time></trkpt><trkpt lat="39.7342112381" lon="-0.2841348667"><ele>139.53</ele><time>2014-08-28T05:53:46Z</time></trkpt><trkpt lat="39.7342176083" lon="-0.2841478586"><ele>139.53</ele><time>2014-08-28T05:53:47Z</time></trkpt><trkpt lat="39.7343007568" lon="-0.2842366230"><ele>140.49</ele><time>2014-08-28T05:53:59Z</time></trkpt><trkpt lat="39.7343682311" lon="-0.2842990682"><ele>141.45</ele><time>2014-08-28T05:54:10Z</time></trkpt><trkpt lat="39.7344591748" lon="-0.2844264731"><ele>142.41</ele><time>2014-08-28T05:54:23Z</time></trkpt><trkpt lat="39.7345255595" lon="-0.2844825480"><ele>142.89</ele><time>2014-08-28T05:54:34Z</time></trkpt><trkpt lat="39.7346362844" lon="-0.2845509443"><ele>142.41</ele><time>2014-08-28T05:54:48Z</time></trkpt><trkpt lat="39.7347408906" lon="-0.2846087795"><ele>141.93</ele><time>2014-08-28T05:55:01Z</time></trkpt><trkpt lat="39.7347611748" lon="-0.2846116293"><ele>141.93</ele><time>2014-08-28T05:55:03Z</time></trkpt><trkpt lat="39.7348057665" lon="-0.2846359368"><ele>141.45</ele><time>2014-08-28T05:55:08Z</time></trkpt><trkpt lat="39.7349063493" lon="-0.2846850548"><ele>140.49</ele><time>2014-08-28T05:55:21Z</time></trkpt><trkpt lat="39.7349123005" lon="-0.2846895810"><ele>140.01</ele><time>2014-08-28T05:55:23Z</time></trkpt><trkpt lat="39.7350045014" lon="-0.2848273795"><ele>139.05</ele><time>2014-08-28T05:55:37Z</time></trkpt><trkpt lat="39.7350680362" lon="-0.2848977037"><ele>138.09</ele><time>2014-08-28T05:55:47Z</time></trkpt><trkpt lat="39.7352200840" lon="-0.2849731408"><ele>137.61</ele><time>2014-08-28T05:56:04Z</time></trkpt><trkpt lat="39.7353019752" lon="-0.2850450575"><ele>136.16</ele><time>2014-08-28T05:56:18Z</time></trkpt><trkpt lat="39.7353259474" lon="-0.2851322293"><ele>134.24</ele><time>2014-08-28T05:56:32Z</time></trkpt><trkpt lat="39.7353384364" lon="-0.2852344047"><ele>132.32</ele><time>2014-08-28T05:56:44Z</time></trkpt><trkpt lat="39.7353438009" lon="-0.2852452174"><ele>132.32</ele><time>2014-08-28T05:56:45Z</time></trkpt><trkpt lat="39.7353928350" lon="-0.2853538468"><ele>131.36</ele><time>2014-08-28T05:56:59Z</time></trkpt><trkpt lat="39.7354466468" lon="-0.2854218241"><ele>129.92</ele><time>2014-08-28T05:57:14Z</time></trkpt><trkpt lat="39.7354690265" lon="-0.2854419407"><ele>130.40</ele><time>2014-08-28T05:57:27Z</time></trkpt><trkpt lat="39.7355126124" lon="-0.2855258435"><ele>128.47</ele><time>2014-08-28T05:57:39Z</time></trkpt><trkpt lat="39.7356059868" lon="-0.2856462076"><ele>126.55</ele><time>2014-08-28T05:57:55Z</time></trkpt><trkpt lat="39.7356436215" lon="-0.2857021987"><ele>125.11</ele><time>2014-08-28T05:58:06Z</time></trkpt><trkpt lat="39.7356771491" lon="-0.2857658174"><ele>123.19</ele><time>2014-08-28T05:58:18Z</time></trkpt><trkpt lat="39.7357304581" lon="-0.2858463675"><ele>122.22</ele><time>2014-08-28T05:58:30Z</time></trkpt><trkpt lat="39.7357990220" lon="-0.2859331202"><ele>119.34</ele><time>2014-08-28T05:58:44Z</time></trkpt><trkpt lat="39.7358695138" lon="-0.2859842498"><ele>117.90</ele><time>2014-08-28T05:58:55Z</time></trkpt><trkpt lat="39.7359615471" lon="-0.2860698290"><ele>115.50</ele><time>2014-08-28T05:59:10Z</time></trkpt><trkpt lat="39.7360056359" lon="-0.2861046139"><ele>113.57</ele><time>2014-08-28T05:59:23Z</time></trkpt><trkpt lat="39.7360534966" lon="-0.2861570846"><ele>111.65</ele><time>2014-08-28T05:59:35Z</time></trkpt><trkpt lat="39.7361068055" lon="-0.2862155065"><ele>109.25</ele><time>2014-08-28T05:59:47Z</time></trkpt><trkpt lat="39.7361442726" lon="-0.2862642892"><ele>107.32</ele><time>2014-08-28T05:59:59Z</time></trkpt><trkpt lat="39.7362485435" lon="-0.2863389719"><ele>105.88</ele><time>2014-08-28T06:00:15Z</time></trkpt><trkpt lat="39.7362533212" lon="-0.2863650396"><ele>105.40</ele><time>2014-08-28T06:00:27Z</time></trkpt><trkpt lat="39.7362282593" lon="-0.2863915265"><ele>105.88</ele><time>2014-08-28T06:00:36Z</time></trkpt><trkpt lat="39.7362212185" lon="-0.2865237091"><ele>107.32</ele><time>2014-08-28T06:00:48Z</time></trkpt><trkpt lat="39.7361860983" lon="-0.2866334282"><ele>108.77</ele><time>2014-08-28T06:01:00Z</time></trkpt><trkpt lat="39.7361514810" lon="-0.2867806144"><ele>109.73</ele><time>2014-08-28T06:01:14Z</time></trkpt><trkpt lat="39.7361436021" lon="-0.2868434787"><ele>110.21</ele><time>2014-08-28T06:01:19Z</time></trkpt><trkpt lat="39.7360941488" lon="-0.2869873121"><ele>111.17</ele><time>2014-08-28T06:01:32Z</time></trkpt><trkpt lat="39.7360809892" lon="-0.2870394476"><ele>111.65</ele><time>2014-08-28T06:01:38Z</time></trkpt><trkpt lat="39.7360703442" lon="-0.2870728076"><ele>111.65</ele><time>2014-08-28T06:01:41Z</time></trkpt><trkpt lat="39.7360503953" lon="-0.2872722968"><ele>112.61</ele><time>2014-08-28T06:01:57Z</time></trkpt><trkpt lat="39.7360151075" lon="-0.2873993665"><ele>113.57</ele><time>2014-08-28T06:02:10Z</time></trkpt><trkpt lat="39.7359988466" lon="-0.2875358239"><ele>114.53</ele><time>2014-08-28T06:02:21Z</time></trkpt><trkpt lat="39.7359967511" lon="-0.2875505760"><ele>114.53</ele><time>2014-08-28T06:02:22Z</time></trkpt><trkpt lat="39.7359736171" lon="-0.2877583634"><ele>115.50</ele><time>2014-08-28T06:02:36Z</time></trkpt><trkpt lat="39.7359674983" lon="-0.2877950761"><ele>116.46</ele><time>2014-08-28T06:02:39Z</time></trkpt><trkpt lat="39.7359371558" lon="-0.2879589424"><ele>116.94</ele><time>2014-08-28T06:02:53Z</time></trkpt><trkpt lat="39.7359304503" lon="-0.2879968286"><ele>117.90</ele><time>2014-08-28T06:02:56Z</time></trkpt><trkpt lat="39.7359203082" lon="-0.2881273348"><ele>119.34</ele><time>2014-08-28T06:03:08Z</time></trkpt><trkpt lat="39.7359229904" lon="-0.2881475352"><ele>119.34</ele><time>2014-08-28T06:03:10Z</time></trkpt><trkpt lat="39.7359104175" lon="-0.2882612776"><ele>119.82</ele><time>2014-08-28T06:03:21Z</time></trkpt><trkpt lat="39.7358972579" lon="-0.2883789595"><ele>122.22</ele><time>2014-08-28T06:03:32Z</time></trkpt><trkpt lat="39.7358975932" lon="-0.2883910295"><ele>121.74</ele><time>2014-08-28T06:03:33Z</time></trkpt><trkpt lat="39.7358863614" lon="-0.2884438355"><ele>122.22</ele><time>2014-08-28T06:03:38Z</time></trkpt><trkpt lat="39.7358716931" lon="-0.2885682229"><ele>123.67</ele><time>2014-08-28T06:03:49Z</time></trkpt><trkpt lat="39.7358441167" lon="-0.2886879165"><ele>124.15</ele><time>2014-08-28T06:04:00Z</time></trkpt><trkpt lat="39.7358333040" lon="-0.2887553070"><ele>124.63</ele><time>2014-08-28T06:04:06Z</time></trkpt><trkpt lat="39.7358275205" lon="-0.2887993958"><ele>125.11</ele><time>2014-08-28T06:04:10Z</time></trkpt><trkpt lat="39.7358200606" lon="-0.2888531238"><ele>125.59</ele><time>2014-08-28T06:04:14Z</time></trkpt><trkpt lat="39.7357949149" lon="-0.2889449894"><ele>126.07</ele><time>2014-08-28T06:04:22Z</time></trkpt><trkpt lat="39.7357626446" lon="-0.2890350111"><ele>126.55</ele><time>2014-08-28T06:04:30Z</time></trkpt><trkpt lat="39.7357478924" lon="-0.2890489250"><ele>126.55</ele><time>2014-08-28T06:04:32Z</time></trkpt><trkpt lat="39.7357103415" lon="-0.2891234402"><ele>127.03</ele><time>2014-08-28T06:04:40Z</time></trkpt><trkpt lat="39.7356565297" lon="-0.2891827840"><ele>127.51</ele><time>2014-08-28T06:04:48Z</time></trkpt><trkpt lat="39.7355914023" lon="-0.2893213369"><ele>127.51</ele><time>2014-08-28T06:05:02Z</time></trkpt><trkpt lat="39.7355856188" lon="-0.2893507574"><ele>128.47</ele><time>2014-08-28T06:05:05Z</time></trkpt><trkpt lat="39.7355761472" lon="-0.2895051520"><ele>129.43</ele><time>2014-08-28T06:05:16Z</time></trkpt><trkpt lat="39.7355472296" lon="-0.2896642406"><ele>129.92</ele><time>2014-08-28T06:05:28Z</time></trkpt><trkpt lat="39.7355188150" lon="-0.2897715289"><ele>130.88</ele><time>2014-08-28T06:05:37Z</time></trkpt><trkpt lat="39.7355192341" lon="-0.2898118459"><ele>130.88</ele><time>2014-08-28T06:05:40Z</time></trkpt><trkpt lat="39.7354727983" lon="-0.2899783105"><ele>131.84</ele><time>2014-08-28T06:05:55Z</time></trkpt><trkpt lat="39.7354687750" lon="-0.2900031209"><ele>131.36</ele><time>2014-08-28T06:05:57Z</time></trkpt><trkpt lat="39.7354520950" lon="-0.2900946513"><ele>131.84</ele><time>2014-08-28T06:06:04Z</time></trkpt><trkpt lat="39.7354128677" lon="-0.2902464475"><ele>132.80</ele><time>2014-08-28T06:06:16Z</time></trkpt><trkpt lat="39.7354074195" lon="-0.2902588528"><ele>132.80</ele><time>2014-08-28T06:06:17Z</time></trkpt><trkpt lat="39.7353913262" lon="-0.2903104015"><ele>133.28</ele><time>2014-08-28T06:06:21Z</time></trkpt><trkpt lat="39.7353709582" lon="-0.2903857548"><ele>134.24</ele><time>2014-08-28T06:06:27Z</time></trkpt><trkpt lat="39.7353264503" lon="-0.2905466035"><ele>135.20</ele><time>2014-08-28T06:06:41Z</time></trkpt><trkpt lat="39.7353028134" lon="-0.2907067817"><ele>135.68</ele><time>2014-08-28T06:06:53Z</time></trkpt><trkpt lat="39.7352688666" lon="-0.2908125613"><ele>136.64</ele><time>2014-08-28T06:07:02Z</time></trkpt><trkpt lat="39.7352075949" lon="-0.2910001483"><ele>136.64</ele><time>2014-08-28T06:07:16Z</time></trkpt><trkpt lat="39.7351302300" lon="-0.2911741566"><ele>137.61</ele><time>2014-08-28T06:07:29Z</time></trkpt><trkpt lat="39.7351185791" lon="-0.2912126295"><ele>137.13</ele><time>2014-08-28T06:07:32Z</time></trkpt><trkpt lat="39.7350759991" lon="-0.2914003003"><ele>137.61</ele><time>2014-08-28T06:07:47Z</time></trkpt><trkpt lat="39.7350443155" lon="-0.2914670203"><ele>138.09</ele><time>2014-08-28T06:07:53Z</time></trkpt><trkpt lat="39.7350343410" lon="-0.2915025596"><ele>138.09</ele><time>2014-08-28T06:07:56Z</time></trkpt><trkpt lat="39.7350257915" lon="-0.2915283758"><ele>138.57</ele><time>2014-08-28T06:07:58Z</time></trkpt><trkpt lat="39.7349739913" lon="-0.2917031385"><ele>139.05</ele><time>2014-08-28T06:08:12Z</time></trkpt><trkpt lat="39.7349263821" lon="-0.2918549348"><ele>139.53</ele><time>2014-08-28T06:08:24Z</time></trkpt><trkpt lat="39.7348889988" lon="-0.2919652406"><ele>140.01</ele><time>2014-08-28T06:08:33Z</time></trkpt><trkpt lat="39.7348069400" lon="-0.2921527438"><ele>140.01</ele><time>2014-08-28T06:08:48Z</time></trkpt><trkpt lat="39.7347984742" lon="-0.2921922226"><ele>140.49</ele><time>2014-08-28T06:08:51Z</time></trkpt><trkpt lat="39.7347712331" lon="-0.2922312822"><ele>140.49</ele><time>2014-08-28T06:08:55Z</time></trkpt><trkpt lat="39.7347227018" lon="-0.2924125828"><ele>140.97</ele><time>2014-08-28T06:09:09Z</time></trkpt><trkpt lat="39.7346937843" lon="-0.2925321925"><ele>141.93</ele><time>2014-08-28T06:09:19Z</time></trkpt><trkpt lat="39.7346790321" lon="-0.2925700787"><ele>141.93</ele><time>2014-08-28T06:09:22Z</time></trkpt><trkpt lat="39.7346694767" lon="-0.2926045284"><ele>141.93</ele><time>2014-08-28T06:09:25Z</time></trkpt><trkpt lat="39.7346547246" lon="-0.2926326077"><ele>142.41</ele><time>2014-08-28T06:09:28Z</time></trkpt><trkpt lat="39.7346430738" lon="-0.2926725894"><ele>142.89</ele><time>2014-08-28T06:09:31Z</time></trkpt><trkpt lat="39.7346038464" lon="-0.2928472683"><ele>143.85</ele><time>2014-08-28T06:09:44Z</time></trkpt><trkpt lat="39.7345730849" lon="-0.2929977234"><ele>145.30</ele><time>2014-08-28T06:09:57Z</time></trkpt><trkpt lat="39.7345654573" lon="-0.2930226177"><ele>145.78</ele><time>2014-08-28T06:10:19Z</time></trkpt><trkpt lat="39.7345342766" lon="-0.2930927742"><ele>145.78</ele><time>2014-08-28T06:10:30Z</time></trkpt><trkpt lat="39.7345272359" lon="-0.2931066882"><ele>145.78</ele><time>2014-08-28T06:10:32Z</time></trkpt><trkpt lat="39.7344881762" lon="-0.2931476757"><ele>146.26</ele><time>2014-08-28T06:10:38Z</time></trkpt><trkpt lat="39.7344758548" lon="-0.2931796107"><ele>146.26</ele><time>2014-08-28T06:10:41Z</time></trkpt><trkpt lat="39.7344142478" lon="-0.2932495996"><ele>146.26</ele><time>2014-08-28T06:10:54Z</time></trkpt><trkpt lat="39.7344218753" lon="-0.2932551317"><ele>145.78</ele><time>2014-08-28T06:11:07Z</time></trkpt><trkpt lat="39.7344160080" lon="-0.2932586521"><ele>146.26</ele><time>2014-08-28T06:11:22Z</time></trkpt><trkpt lat="39.7343956400" lon="-0.2932993043"><ele>146.74</ele><time>2014-08-28T06:11:27Z</time></trkpt><trkpt lat="39.7343515512" lon="-0.2933448181"><ele>146.26</ele><time>2014-08-28T06:11:33Z</time></trkpt><trkpt lat="39.7343447618" lon="-0.2933942713"><ele>146.74</ele><time>2014-08-28T06:11:37Z</time></trkpt><trkpt lat="39.7342990804" lon="-0.2934393659"><ele>146.74</ele><time>2014-08-28T06:11:42Z</time></trkpt><trkpt lat="39.7342623677" lon="-0.2934628353"><ele>146.74</ele><time>2014-08-28T06:11:46Z</time></trkpt><trkpt lat="39.7341914568" lon="-0.2935928386"><ele>147.22</ele><time>2014-08-28T06:11:59Z</time></trkpt><trkpt lat="39.7341397405" lon="-0.2936816029"><ele>147.22</ele><time>2014-08-28T06:12:07Z</time></trkpt><trkpt lat="39.7340689134" lon="-0.2938362490"><ele>148.18</ele><time>2014-08-28T06:12:21Z</time></trkpt><trkpt lat="39.7340061329" lon="-0.2939864527"><ele>149.14</ele><time>2014-08-28T06:12:34Z</time></trkpt><trkpt lat="39.7339379881" lon="-0.2941322979"><ele>150.58</ele><time>2014-08-28T06:12:47Z</time></trkpt><trkpt lat="39.7338967491" lon="-0.2941943239"><ele>151.06</ele><time>2014-08-28T06:12:53Z</time></trkpt><trkpt lat="39.7338741180" lon="-0.2942746226"><ele>151.06</ele><time>2014-08-28T06:12:59Z</time></trkpt><trkpt lat="39.7338577732" lon="-0.2943209745"><ele>151.54</ele><time>2014-08-28T06:13:03Z</time></trkpt><trkpt lat="39.7338406742" lon="-0.2943331283"><ele>152.03</ele><time>2014-08-28T06:13:05Z</time></trkpt><trkpt lat="39.7338115890" lon="-0.2943899576"><ele>152.51</ele><time>2014-08-28T06:13:10Z</time></trkpt><trkpt lat="39.7337835934" lon="-0.2944505587"><ele>152.99</ele><time>2014-08-28T06:13:15Z</time></trkpt><trkpt lat="39.7337101679" lon="-0.2946161851"><ele>153.47</ele><time>2014-08-28T06:13:30Z</time></trkpt><trkpt lat="39.7336361557" lon="-0.2947673947"><ele>154.43</ele><time>2014-08-28T06:13:43Z</time></trkpt><trkpt lat="39.7335703578" lon="-0.2949055284"><ele>155.39</ele><time>2014-08-28T06:13:55Z</time></trkpt><trkpt lat="39.7334813420" lon="-0.2950333524"><ele>155.87</ele><time>2014-08-28T06:14:09Z</time></trkpt><trkpt lat="39.7334296256" lon="-0.2951605897"><ele>155.87</ele><time>2014-08-28T06:14:20Z</time></trkpt><trkpt lat="39.7334119398" lon="-0.2952344343"><ele>156.35</ele><time>2014-08-28T06:14:32Z</time></trkpt><trkpt lat="39.7333728801" lon="-0.2952328417"><ele>156.83</ele><time>2014-08-28T06:14:48Z</time></trkpt><trkpt lat="39.7333436273" lon="-0.2952186763"><ele>156.83</ele><time>2014-08-28T06:15:07Z</time></trkpt><trkpt lat="39.7332982812" lon="-0.2951602545"><ele>157.79</ele><time>2014-08-28T06:15:18Z</time></trkpt><trkpt lat="39.7332448047" lon="-0.2951180935"><ele>159.24</ele><time>2014-08-28T06:15:30Z</time></trkpt><trkpt lat="39.7331720497" lon="-0.2951279841"><ele>160.68</ele><time>2014-08-28T06:15:45Z</time></trkpt><trkpt lat="39.7331330739" lon="-0.2951450832"><ele>160.68</ele><time>2014-08-28T06:15:57Z</time></trkpt><trkpt lat="39.7331319004" lon="-0.2951515373"><ele>160.20</ele><time>2014-08-28T06:15:58Z</time></trkpt><trkpt lat="39.7331262846" lon="-0.2952609211"><ele>160.68</ele><time>2014-08-28T06:16:10Z</time></trkpt><trkpt lat="39.7331238538" lon="-0.2952675428"><ele>160.68</ele><time>2014-08-28T06:16:11Z</time></trkpt><trkpt lat="39.7331175674" lon="-0.2953527030"><ele>162.60</ele><time>2014-08-28T06:16:24Z</time></trkpt><trkpt lat="39.7331179865" lon="-0.2954448201"><ele>164.52</ele><time>2014-08-28T06:16:37Z</time></trkpt><trkpt lat="39.7330786753" lon="-0.2954792697"><ele>165.96</ele><time>2014-08-28T06:16:49Z</time></trkpt><trkpt lat="39.7330489196" lon="-0.2955226880"><ele>167.41</ele><time>2014-08-28T06:17:00Z</time></trkpt><trkpt lat="39.7330229357" lon="-0.2955462411"><ele>169.33</ele><time>2014-08-28T06:17:11Z</time></trkpt><trkpt lat="39.7330065910" lon="-0.2956516854"><ele>169.33</ele><time>2014-08-28T06:17:23Z</time></trkpt><trkpt lat="39.7329927608" lon="-0.2957304753"><ele>171.25</ele><time>2014-08-28T06:17:36Z</time></trkpt><trkpt lat="39.7329648491" lon="-0.2957630809"><ele>172.21</ele><time>2014-08-28T06:17:46Z</time></trkpt><trkpt lat="39.7329484206" lon="-0.2957733069"><ele>173.17</ele><time>2014-08-28T06:17:58Z</time></trkpt><trkpt lat="39.7329058405" lon="-0.2957713790"><ele>173.66</ele><time>2014-08-28T06:18:11Z</time></trkpt><trkpt lat="39.7328826226" lon="-0.2957976982"><ele>176.06</ele><time>2014-08-28T06:18:21Z</time></trkpt><trkpt lat="39.7328641824" lon="-0.2958380152"><ele>176.54</ele><time>2014-08-28T06:18:32Z</time></trkpt><trkpt lat="39.7328365222" lon="-0.2958379313"><ele>177.02</ele><time>2014-08-28T06:18:43Z</time></trkpt><trkpt lat="39.7328267153" lon="-0.2958412841"><ele>177.50</ele><time>2014-08-28T06:18:47Z</time></trkpt><trkpt lat="39.7327793576" lon="-0.2958299685"><ele>178.94</ele><time>2014-08-28T06:18:56Z</time></trkpt><trkpt lat="39.7327458300" lon="-0.2958148811"><ele>180.38</ele><time>2014-08-28T06:19:07Z</time></trkpt><trkpt lat="39.7327302396" lon="-0.2958313096"><ele>181.35</ele><time>2014-08-28T06:19:19Z</time></trkpt><trkpt lat="39.7326938622" lon="-0.2958821040"><ele>182.79</ele><time>2014-08-28T06:19:34Z</time></trkpt><trkpt lat="39.7326546349" lon="-0.2959093451"><ele>184.23</ele><time>2014-08-28T06:19:46Z</time></trkpt><trkpt lat="39.7326438222" lon="-0.2959306352"><ele>184.23</ele><time>2014-08-28T06:19:57Z</time></trkpt><trkpt lat="39.7326361109" lon="-0.2959295455"><ele>184.71</ele><time>2014-08-28T06:20:13Z</time></trkpt><trkpt lat="39.7326336801" lon="-0.2959301323"><ele>184.23</ele><time>2014-08-28T06:20:36Z</time></trkpt><trkpt lat="39.7326330934" lon="-0.2959234267"><ele>184.23</ele><time>2014-08-28T06:21:06Z</time></trkpt><trkpt lat="39.7326232027" lon="-0.2959141228"><ele>184.71</ele><time>2014-08-28T06:21:27Z</time></trkpt><trkpt lat="39.7325990628" lon="-0.2958807629"><ele>186.15</ele><time>2014-08-28T06:21:38Z</time></trkpt><trkpt lat="39.7325163335" lon="-0.2958642505"><ele>188.08</ele><time>2014-08-28T06:21:50Z</time></trkpt><trkpt lat="39.7324456740" lon="-0.2958864626"><ele>190.48</ele><time>2014-08-28T06:22:03Z</time></trkpt><trkpt lat="39.7323859949" lon="-0.2959117759"><ele>192.40</ele><time>2014-08-28T06:22:15Z</time></trkpt><trkpt lat="39.7323341109" lon="-0.2959640790"><ele>192.88</ele><time>2014-08-28T06:22:25Z</time></trkpt><trkpt lat="39.7322682291" lon="-0.2960043959"><ele>194.80</ele><time>2014-08-28T06:22:37Z</time></trkpt><trkpt lat="39.7322145011" lon="-0.2959767357"><ele>196.25</ele><time>2014-08-28T06:22:48Z</time></trkpt><trkpt lat="39.7321799677" lon="-0.2959292103"><ele>197.21</ele><time>2014-08-28T06:23:00Z</time></trkpt><trkpt lat="39.7321736813" lon="-0.2959329821"><ele>197.69</ele><time>2014-08-28T06:23:02Z</time></trkpt><trkpt lat="39.7321032733" lon="-0.2959655877"><ele>199.61</ele><time>2014-08-28T06:23:14Z</time></trkpt><trkpt lat="39.7320414986" lon="-0.2959459741"><ele>200.57</ele><time>2014-08-28T06:23:27Z</time></trkpt><trkpt lat="39.7319896985" lon="-0.2959478181"><ele>202.01</ele><time>2014-08-28T06:23:37Z</time></trkpt><trkpt lat="39.7319851723" lon="-0.2959488239"><ele>202.49</ele><time>2014-08-28T06:23:49Z</time></trkpt><trkpt lat="39.7319773771" lon="-0.2959482372"><ele>202.49</ele><time>2014-08-28T06:24:06Z</time></trkpt><trkpt lat="39.7319811489" lon="-0.2959432080"><ele>202.49</ele><time>2014-08-28T06:24:36Z</time></trkpt><trkpt lat="39.7319821548" lon="-0.2959434595"><ele>202.49</ele><time>2014-08-28T06:25:01Z</time></trkpt><trkpt lat="39.7319851723" lon="-0.2959339041"><ele>202.49</ele><time>2014-08-28T06:25:30Z</time></trkpt><trkpt lat="39.7319918778" lon="-0.2959314734"><ele>202.49</ele><time>2014-08-28T06:26:03Z</time></trkpt><trkpt lat="39.7319844179" lon="-0.2959599718"><ele>202.49</ele><time>2014-08-28T06:26:21Z</time></trkpt><trkpt lat="39.7319857590" lon="-0.2959667612"><ele>202.49</ele><time>2014-08-28T06:26:54Z</time></trkpt><trkpt lat="39.7319889441" lon="-0.2959707845"><ele>202.49</ele><time>2014-08-28T06:27:23Z</time></trkpt><trkpt lat="39.7319899499" lon="-0.2959675156"><ele>202.01</ele><time>2014-08-28T06:27:48Z</time></trkpt><trkpt lat="39.7319793049" lon="-0.2959609777"><ele>202.98</ele><time>2014-08-28T06:28:04Z</time></trkpt><trkpt lat="39.7319426760" lon="-0.2959516738"><ele>204.90</ele><time>2014-08-28T06:28:14Z</time></trkpt><trkpt lat="39.7319019400" lon="-0.2959275339"><ele>206.34</ele><time>2014-08-28T06:28:24Z</time></trkpt><trkpt lat="39.7318640538" lon="-0.2959018853"><ele>208.26</ele><time>2014-08-28T06:28:35Z</time></trkpt><trkpt lat="39.7318233177" lon="-0.2958881389"><ele>209.70</ele><time>2014-08-28T06:28:46Z</time></trkpt><trkpt lat="39.7317786422" lon="-0.2959069982"><ele>211.15</ele><time>2014-08-28T06:28:57Z</time></trkpt><trkpt lat="39.7317519039" lon="-0.2959235944"><ele>213.07</ele><time>2014-08-28T06:29:10Z</time></trkpt><trkpt lat="39.7317094076" lon="-0.2959256899"><ele>214.99</ele><time>2014-08-28T06:29:23Z</time></trkpt><trkpt lat="39.7316811606" lon="-0.2959388494"><ele>216.43</ele><time>2014-08-28T06:29:36Z</time></trkpt><trkpt lat="39.7316146921" lon="-0.2959306352"><ele>218.84</ele><time>2014-08-28T06:29:48Z</time></trkpt><trkpt lat="39.7315752134" lon="-0.2959315572"><ele>220.28</ele><time>2014-08-28T06:29:57Z</time></trkpt><trkpt lat="39.7315172944" lon="-0.2959176432"><ele>222.20</ele><time>2014-08-28T06:30:10Z</time></trkpt><trkpt lat="39.7314942442" lon="-0.2959059086"><ele>222.68</ele><time>2014-08-28T06:30:26Z</time></trkpt><trkpt lat="39.7314555198" lon="-0.2958482411"><ele>225.57</ele><time>2014-08-28T06:30:38Z</time></trkpt><trkpt lat="39.7314224951" lon="-0.2957747318"><ele>227.01</ele><time>2014-08-28T06:30:50Z</time></trkpt><trkpt lat="39.7313699406" lon="-0.2957016416"><ele>229.41</ele><time>2014-08-28T06:31:03Z</time></trkpt><trkpt lat="39.7313333116" lon="-0.2956391964"><ele>230.85</ele><time>2014-08-28T06:31:17Z</time></trkpt><trkpt lat="39.7313253488" lon="-0.2956262883"><ele>230.37</ele><time>2014-08-28T06:31:31Z</time></trkpt><trkpt lat="39.7313297074" lon="-0.2956182417"><ele>230.85</ele><time>2014-08-28T06:31:45Z</time></trkpt><trkpt lat="39.7313314676" lon="-0.2956100274"><ele>231.33</ele><time>2014-08-28T06:32:12Z</time></trkpt><trkpt lat="39.7313331440" lon="-0.2956233546"><ele>230.85</ele><time>2014-08-28T06:32:30Z</time></trkpt><trkpt lat="39.7313209902" lon="-0.2956179064"><ele>229.89</ele><time>2014-08-28T06:32:43Z</time></trkpt><trkpt lat="39.7313212417" lon="-0.2956065908"><ele>230.85</ele><time>2014-08-28T06:32:58Z</time></trkpt><trkpt lat="39.7313183919" lon="-0.2956153918"><ele>231.33</ele><time>2014-08-28T06:33:11Z</time></trkpt><trkpt lat="39.7313241754" lon="-0.2956264559"><ele>231.33</ele><time>2014-08-28T06:33:40Z</time></trkpt><trkpt lat="39.7313214093" lon="-0.2956236899"><ele>231.33</ele><time>2014-08-28T06:34:14Z</time></trkpt><trkpt lat="39.7313235048" lon="-0.2956200857"><ele>231.33</ele><time>2014-08-28T06:34:40Z</time></trkpt><trkpt lat="39.7313183080" lon="-0.2956105303"><ele>231.33</ele><time>2014-08-28T06:35:07Z</time></trkpt><trkpt lat="39.7313160449" lon="-0.2955819480"><ele>230.85</ele><time>2014-08-28T06:35:21Z</time></trkpt><trkpt lat="39.7313112672" lon="-0.2955125459"><ele>230.37</ele><time>2014-08-28T06:35:31Z</time></trkpt><trkpt lat="39.7312821820" lon="-0.2952968795"><ele>230.85</ele><time>2014-08-28T06:35:47Z</time></trkpt><trkpt lat="39.7312653344" lon="-0.2952261362"><ele>230.37</ele><time>2014-08-28T06:35:53Z</time></trkpt><trkpt lat="39.7312588803" lon="-0.2951854840"><ele>230.85</ele><time>2014-08-28T06:35:56Z</time></trkpt><trkpt lat="39.7312396858" lon="-0.2951196861"><ele>230.85</ele><time>2014-08-28T06:36:01Z</time></trkpt><trkpt lat="39.7312381770" lon="-0.2949785348"><ele>230.85</ele><time>2014-08-28T06:36:13Z</time></trkpt><trkpt lat="39.7311806772" lon="-0.2947968151"><ele>230.85</ele><time>2014-08-28T06:36:28Z</time></trkpt><trkpt lat="39.7311432939" lon="-0.2947496250"><ele>231.33</ele><time>2014-08-28T06:36:41Z</time></trkpt><trkpt lat="39.7311375942" lon="-0.2947513014"><ele>230.85</ele><time>2014-08-28T06:37:01Z</time></trkpt><trkpt lat="39.7311392706" lon="-0.2947367169"><ele>230.85</ele><time>2014-08-28T06:37:29Z</time></trkpt><trkpt lat="39.7311367560" lon="-0.2947424166"><ele>230.85</ele><time>2014-08-28T06:37:53Z</time></trkpt><trkpt lat="39.7311364207" lon="-0.2947309334"><ele>230.37</ele><time>2014-08-28T06:38:09Z</time></trkpt><trkpt lat="39.7311215848" lon="-0.2946295124"><ele>231.81</ele><time>2014-08-28T06:38:20Z</time></trkpt><trkpt lat="39.7310876381" lon="-0.2945353836"><ele>232.78</ele><time>2014-08-28T06:38:30Z</time></trkpt><trkpt lat="39.7310791723" lon="-0.2945110761"><ele>232.78</ele><time>2014-08-28T06:38:32Z</time></trkpt><trkpt lat="39.7310574632" lon="-0.2943859342"><ele>234.70</ele><time>2014-08-28T06:38:45Z</time></trkpt><trkpt lat="39.7310409509" lon="-0.2943240758"><ele>236.14</ele><time>2014-08-28T06:38:52Z</time></trkpt><trkpt lat="39.7310118657" lon="-0.2942151111"><ele>237.10</ele><time>2014-08-28T06:39:05Z</time></trkpt><trkpt lat="39.7310104407" lon="-0.2941484749"><ele>238.54</ele><time>2014-08-28T06:39:15Z</time></trkpt><trkpt lat="39.7310189065" lon="-0.2940243389"><ele>240.47</ele><time>2014-08-28T06:39:29Z</time></trkpt><trkpt lat="39.7310495842" lon="-0.2939496562"><ele>242.39</ele><time>2014-08-28T06:39:40Z</time></trkpt><trkpt lat="39.7310579661" lon="-0.2939310484"><ele>242.87</ele><time>2014-08-28T06:39:43Z</time></trkpt><trkpt lat="39.7310921643" lon="-0.2938173059"><ele>244.79</ele><time>2014-08-28T06:39:55Z</time></trkpt><trkpt lat="39.7311064973" lon="-0.2937540226"><ele>245.75</ele><time>2014-08-28T06:40:01Z</time></trkpt><trkpt lat="39.7311245184" lon="-0.2936261985"><ele>246.72</ele><time>2014-08-28T06:40:13Z</time></trkpt><trkpt lat="39.7311759833" lon="-0.2934860531"><ele>247.20</ele><time>2014-08-28T06:40:26Z</time></trkpt><trkpt lat="39.7312275320" lon="-0.2933404595"><ele>247.68</ele><time>2014-08-28T06:40:38Z</time></trkpt><trkpt lat="39.7312722914" lon="-0.2932462469"><ele>248.64</ele><time>2014-08-28T06:40:48Z</time></trkpt><trkpt lat="39.7312915698" lon="-0.2932078578"><ele>249.12</ele><time>2014-08-28T06:40:52Z</time></trkpt><trkpt lat="39.7313377541" lon="-0.2931052633"><ele>250.08</ele><time>2014-08-28T06:41:05Z</time></trkpt><trkpt lat="39.7313890513" lon="-0.2930317540"><ele>252.48</ele><time>2014-08-28T06:41:18Z</time></trkpt><trkpt lat="39.7314047255" lon="-0.2929473482"><ele>252.96</ele><time>2014-08-28T06:41:28Z</time></trkpt><trkpt lat="39.7314158734" lon="-0.2929016668"><ele>253.93</ele><time>2014-08-28T06:41:33Z</time></trkpt><trkpt lat="39.7313991096" lon="-0.2928265650"><ele>255.37</ele><time>2014-08-28T06:41:45Z</time></trkpt><trkpt lat="39.7313815076" lon="-0.2927230485"><ele>257.29</ele><time>2014-08-28T06:41:57Z</time></trkpt><trkpt lat="39.7313677613" lon="-0.2926319372"><ele>259.21</ele><time>2014-08-28T06:42:10Z</time></trkpt><trkpt lat="39.7313325573" lon="-0.2925747726"><ele>260.65</ele><time>2014-08-28T06:42:22Z</time></trkpt><trkpt lat="39.7312989458" lon="-0.2925160155"><ele>262.10</ele><time>2014-08-28T06:42:32Z</time></trkpt><trkpt lat="39.7312523425" lon="-0.2924200427"><ele>264.02</ele><time>2014-08-28T06:42:46Z</time></trkpt><trkpt lat="39.7312060744" lon="-0.2923459467"><ele>265.94</ele><time>2014-08-28T06:42:59Z</time></trkpt><trkpt lat="39.7311995365" lon="-0.2922664024"><ele>266.90</ele><time>2014-08-28T06:43:12Z</time></trkpt><trkpt lat="39.7312012129" lon="-0.2921901271"><ele>268.83</ele><time>2014-08-28T06:43:23Z</time></trkpt><trkpt lat="39.7311901487" lon="-0.2921120077"><ele>270.75</ele><time>2014-08-28T06:43:36Z</time></trkpt><trkpt lat="39.7311777435" lon="-0.2921001054"><ele>271.23</ele><time>2014-08-28T06:43:53Z</time></trkpt><trkpt lat="39.7311707027" lon="-0.2920990996"><ele>271.23</ele><time>2014-08-28T06:44:18Z</time></trkpt><trkpt lat="39.7311644163" lon="-0.2920922264"><ele>271.23</ele><time>2014-08-28T06:44:44Z</time></trkpt><trkpt lat="39.7311578784" lon="-0.2920923941"><ele>271.23</ele><time>2014-08-28T06:45:10Z</time></trkpt><trkpt lat="39.7311605606" lon="-0.2920933161"><ele>271.23</ele><time>2014-08-28T06:45:34Z</time></trkpt><trkpt lat="39.7311624046" lon="-0.2920978423"><ele>271.23</ele><time>2014-08-28T06:45:53Z</time></trkpt><trkpt lat="39.7311734688" lon="-0.2920893766"><ele>271.71</ele><time>2014-08-28T06:46:12Z</time></trkpt><trkpt lat="39.7311732173" lon="-0.2920827549"><ele>271.71</ele><time>2014-08-28T06:46:13Z</time></trkpt><trkpt lat="39.7312154621" lon="-0.2919909731"><ele>273.63</ele><time>2014-08-28T06:46:26Z</time></trkpt><trkpt lat="39.7312363330" lon="-0.2919306234"><ele>274.59</ele><time>2014-08-28T06:46:36Z</time></trkpt><trkpt lat="39.7312530968" lon="-0.2918793261"><ele>276.52</ele><time>2014-08-28T06:46:43Z</time></trkpt><trkpt lat="39.7312772367" lon="-0.2918588743"><ele>277.00</ele><time>2014-08-28T06:46:47Z</time></trkpt><trkpt lat="39.7313280310" lon="-0.2917827666"><ele>277.96</ele><time>2014-08-28T06:46:59Z</time></trkpt><trkpt lat="39.7313345689" lon="-0.2917791624"><ele>277.96</ele><time>2014-08-28T06:47:00Z</time></trkpt><trkpt lat="39.7313913982" lon="-0.2917116042"><ele>278.44</ele><time>2014-08-28T06:47:12Z</time></trkpt><trkpt lat="39.7314327210" lon="-0.2916143741"><ele>279.88</ele><time>2014-08-28T06:47:24Z</time></trkpt><trkpt lat="39.7314312961" lon="-0.2915909886"><ele>280.36</ele><time>2014-08-28T06:47:27Z</time></trkpt><trkpt lat="39.7314442042" lon="-0.2914780006"><ele>281.80</ele><time>2014-08-28T06:47:39Z</time></trkpt><trkpt lat="39.7314369958" lon="-0.2913919184"><ele>282.77</ele><time>2014-08-28T06:47:50Z</time></trkpt><trkpt lat="39.7314499877" lon="-0.2913034894"><ele>283.73</ele><time>2014-08-28T06:48:01Z</time></trkpt><trkpt lat="39.7314593755" lon="-0.2912137192"><ele>285.17</ele><time>2014-08-28T06:48:14Z</time></trkpt><trkpt lat="39.7314651590" lon="-0.2911489271"><ele>284.69</ele><time>2014-08-28T06:48:26Z</time></trkpt><trkpt lat="39.7314845212" lon="-0.2910459135"><ele>286.13</ele><time>2014-08-28T06:48:38Z</time></trkpt><trkpt lat="39.7315115109" lon="-0.2909480128"><ele>287.09</ele><time>2014-08-28T06:48:49Z</time></trkpt><trkpt lat="39.7315036319" lon="-0.2908344381"><ele>288.05</ele><time>2014-08-28T06:49:02Z</time></trkpt><trkpt lat="39.7314992733" lon="-0.2907399740"><ele>289.01</ele><time>2014-08-28T06:49:13Z</time></trkpt><trkpt lat="39.7314823419" lon="-0.2906428277"><ele>290.94</ele><time>2014-08-28T06:49:26Z</time></trkpt><trkpt lat="39.7314574476" lon="-0.2905572485"><ele>291.90</ele><time>2014-08-28T06:49:38Z</time></trkpt><trkpt lat="39.7314332239" lon="-0.2904839907"><ele>293.34</ele><time>2014-08-28T06:49:48Z</time></trkpt><trkpt lat="39.7314057313" lon="-0.2903727628"><ele>294.78</ele><time>2014-08-28T06:50:00Z</time></trkpt><trkpt lat="39.7314126883" lon="-0.2902949788"><ele>295.74</ele><time>2014-08-28T06:50:09Z</time></trkpt><trkpt lat="39.7314194776" lon="-0.2902424242"><ele>296.22</ele><time>2014-08-28T06:50:13Z</time></trkpt><trkpt lat="39.7313960921" lon="-0.2901635505"><ele>297.67</ele><time>2014-08-28T06:50:24Z</time></trkpt><trkpt lat="39.7313820105" lon="-0.2901313640"><ele>298.15</ele><time>2014-08-28T06:50:28Z</time></trkpt><trkpt lat="39.7313938290" lon="-0.2900868561"><ele>299.11</ele><time>2014-08-28T06:50:33Z</time></trkpt><trkpt lat="39.7313684318" lon="-0.2900078986"><ele>299.59</ele><time>2014-08-28T06:50:44Z</time></trkpt><trkpt lat="39.7313388437" lon="-0.2898962516"><ele>301.99</ele><time>2014-08-28T06:50:58Z</time></trkpt><trkpt lat="39.7313011251" lon="-0.2898193058"><ele>303.43</ele><time>2014-08-28T06:51:09Z</time></trkpt><trkpt lat="39.7312890552" lon="-0.2897580341"><ele>304.39</ele><time>2014-08-28T06:51:20Z</time></trkpt><trkpt lat="39.7312512528" lon="-0.2896981873"><ele>306.80</ele><time>2014-08-28T06:51:32Z</time></trkpt><trkpt lat="39.7312322259" lon="-0.2896597143"><ele>307.28</ele><time>2014-08-28T06:51:37Z</time></trkpt><trkpt lat="39.7312173899" lon="-0.2896064892"><ele>308.24</ele><time>2014-08-28T06:51:47Z</time></trkpt><trkpt lat="39.7312244307" lon="-0.2896027174"><ele>308.72</ele><time>2014-08-28T06:52:13Z</time></trkpt><trkpt lat="39.7312183119" lon="-0.2896058187"><ele>308.72</ele><time>2014-08-28T06:52:40Z</time></trkpt><trkpt lat="39.7312016319" lon="-0.2895590477"><ele>310.16</ele><time>2014-08-28T06:53:02Z</time></trkpt><trkpt lat="39.7311547771" lon="-0.2894841973"><ele>312.09</ele><time>2014-08-28T06:53:14Z</time></trkpt><trkpt lat="39.7311301343" lon="-0.2894183993"><ele>313.05</ele><time>2014-08-28T06:53:22Z</time></trkpt><trkpt lat="39.7310935892" lon="-0.2893213369"><ele>314.01</ele><time>2014-08-28T06:53:34Z</time></trkpt><trkpt lat="39.7310634982" lon="-0.2892241906"><ele>315.93</ele><time>2014-08-28T06:53:47Z</time></trkpt><trkpt lat="39.7310747299" lon="-0.2891329955"><ele>317.85</ele><time>2014-08-28T06:53:58Z</time></trkpt><trkpt lat="39.7310504224" lon="-0.2890599053"><ele>319.30</ele><time>2014-08-28T06:54:10Z</time></trkpt><trkpt lat="39.7310348321" lon="-0.2889867313"><ele>321.22</ele><time>2014-08-28T06:54:21Z</time></trkpt><trkpt lat="39.7310142964" lon="-0.2889182512"><ele>323.14</ele><time>2014-08-28T06:54:32Z</time></trkpt><trkpt lat="39.7310012206" lon="-0.2889072709"><ele>323.62</ele><time>2014-08-28T06:54:36Z</time></trkpt><trkpt lat="39.7309925035" lon="-0.2888186742"><ele>325.54</ele><time>2014-08-28T06:54:48Z</time></trkpt><trkpt lat="39.7309926711" lon="-0.2888043411"><ele>325.54</ele><time>2014-08-28T06:54:49Z</time></trkpt><trkpt lat="39.7309935093" lon="-0.2887005731"><ele>327.47</ele><time>2014-08-28T06:55:01Z</time></trkpt><trkpt lat="39.7309921682" lon="-0.2886112221"><ele>328.43</ele><time>2014-08-28T06:55:12Z</time></trkpt><trkpt lat="39.7309938446" lon="-0.2885253076"><ele>329.39</ele><time>2014-08-28T06:55:24Z</time></trkpt><trkpt lat="39.7309574671" lon="-0.2884736750"><ele>331.31</ele><time>2014-08-28T06:55:36Z</time></trkpt><trkpt lat="39.7309594788" lon="-0.2884501219"><ele>331.79</ele><time>2014-08-28T06:55:40Z</time></trkpt><trkpt lat="39.7309745662" lon="-0.2884178516"><ele>331.79</ele><time>2014-08-28T06:55:43Z</time></trkpt><trkpt lat="39.7309887316" lon="-0.2883408219"><ele>331.79</ele><time>2014-08-28T06:55:52Z</time></trkpt><trkpt lat="39.7309606522" lon="-0.2882772870"><ele>334.20</ele><time>2014-08-28T06:56:03Z</time></trkpt><trkpt lat="39.7309114505" lon="-0.2881829068"><ele>335.64</ele><time>2014-08-28T06:56:16Z</time></trkpt><trkpt lat="39.7308813594" lon="-0.2881334536"><ele>337.08</ele><time>2014-08-28T06:56:24Z</time></trkpt><trkpt lat="39.7308223508" lon="-0.2880757861"><ele>338.52</ele><time>2014-08-28T06:56:38Z</time></trkpt><trkpt lat="39.7307811119" lon="-0.2881030273"><ele>340.44</ele><time>2014-08-28T06:56:47Z</time></trkpt><trkpt lat="39.7307783458" lon="-0.2881095652"><ele>340.44</ele><time>2014-08-28T06:56:49Z</time></trkpt><trkpt lat="39.7307656892" lon="-0.2881259937"><ele>340.44</ele><time>2014-08-28T06:57:02Z</time></trkpt><trkpt lat="39.7307499312" lon="-0.2881287597"><ele>339.48</ele><time>2014-08-28T06:57:13Z</time></trkpt><trkpt lat="39.7307428066" lon="-0.2881317772"><ele>339.48</ele><time>2014-08-28T06:57:34Z</time></trkpt><trkpt lat="39.7307410464" lon="-0.2881303523"><ele>339.96</ele><time>2014-08-28T06:58:09Z</time></trkpt><trkpt lat="39.7307423037" lon="-0.2881326154"><ele>339.96</ele><time>2014-08-28T06:58:41Z</time></trkpt><trkpt lat="39.7307442315" lon="-0.2881368902"><ele>339.96</ele><time>2014-08-28T06:59:10Z</time></trkpt><trkpt lat="39.7307449020" lon="-0.2881373093"><ele>340.44</ele><time>2014-08-28T06:59:35Z</time></trkpt><trkpt lat="39.7307464946" lon="-0.2881366387"><ele>340.44</ele><time>2014-08-28T07:00:04Z</time></trkpt><trkpt lat="39.7307480033" lon="-0.2881362196"><ele>339.96</ele><time>2014-08-28T07:00:31Z</time></trkpt><trkpt lat="39.7307392862" lon="-0.2881383989"><ele>339.96</ele><time>2014-08-28T07:00:56Z</time></trkpt><trkpt lat="39.7307369392" lon="-0.2881359681"><ele>339.96</ele><time>2014-08-28T07:01:22Z</time></trkpt><trkpt lat="39.7307095304" lon="-0.2881660592"><ele>340.44</ele><time>2014-08-28T07:01:42Z</time></trkpt><trkpt lat="39.7307133023" lon="-0.2881564200"><ele>340.44</ele><time>2014-08-28T07:02:08Z</time></trkpt><trkpt lat="39.7307210974" lon="-0.2881492954"><ele>340.44</ele><time>2014-08-28T07:02:32Z</time></trkpt><trkpt lat="39.7307257913" lon="-0.2881428413"><ele>340.44</ele><time>2014-08-28T07:02:58Z</time></trkpt><trkpt lat="39.7307331674" lon="-0.2881364711"><ele>340.92</ele><time>2014-08-28T07:03:25Z</time></trkpt><trkpt lat="39.7307264619" lon="-0.2881440986"><ele>340.44</ele><time>2014-08-28T07:03:54Z</time></trkpt><trkpt lat="39.7307359334" lon="-0.2881418355"><ele>340.92</ele><time>2014-08-28T07:04:18Z</time></trkpt><trkpt lat="39.7307354305" lon="-0.2881268319"><ele>340.92</ele><time>2014-08-28T07:04:30Z</time></trkpt><trkpt lat="39.7307121288" lon="-0.2881047875"><ele>340.44</ele><time>2014-08-28T07:04:44Z</time></trkpt><trkpt lat="39.7307102848" lon="-0.2881018538"><ele>339.96</ele><time>2014-08-28T07:05:00Z</time></trkpt><trkpt lat="39.7307052556" lon="-0.2880933881"><ele>340.44</ele><time>2014-08-28T07:05:20Z</time></trkpt><trkpt lat="39.7307038307" lon="-0.2880856767"><ele>338.52</ele><time>2014-08-28T07:05:32Z</time></trkpt><trkpt lat="39.7307052556" lon="-0.2880698349"><ele>338.04</ele><time>2014-08-28T07:05:46Z</time></trkpt><trkpt lat="39.7307034954" lon="-0.2880554181"><ele>337.08</ele><time>2014-08-28T07:05:58Z</time></trkpt><trkpt lat="39.7307173256" lon="-0.2879907098"><ele>336.60</ele><time>2014-08-28T07:06:11Z</time></trkpt><trkpt lat="39.7307203431" lon="-0.2879833337"><ele>335.64</ele><time>2014-08-28T07:06:18Z</time></trkpt><trkpt lat="39.7307148110" lon="-0.2879619598"><ele>336.12</ele><time>2014-08-28T07:06:29Z</time></trkpt><trkpt lat="39.7307153977" lon="-0.2879532427"><ele>335.64</ele><time>2014-08-28T07:06:49Z</time></trkpt><trkpt lat="39.7307123803" lon="-0.2879469562"><ele>336.12</ele><time>2014-08-28T07:07:21Z</time></trkpt><trkpt lat="39.7307106201" lon="-0.2879380714"><ele>336.12</ele><time>2014-08-28T07:07:50Z</time></trkpt><trkpt lat="39.7307054233" lon="-0.2879305277"><ele>335.64</ele><time>2014-08-28T07:08:24Z</time></trkpt><trkpt lat="39.7307004780" lon="-0.2879326232"><ele>336.12</ele><time>2014-08-28T07:08:54Z</time></trkpt><trkpt lat="39.7306957003" lon="-0.2879301924"><ele>336.12</ele><time>2014-08-28T07:09:25Z</time></trkpt><trkpt lat="39.7306965385" lon="-0.2879319526"><ele>336.12</ele><time>2014-08-28T07:09:42Z</time></trkpt><trkpt lat="39.7307052556" lon="-0.2879431006"><ele>336.12</ele><time>2014-08-28T07:10:01Z</time></trkpt><trkpt lat="39.7307133023" lon="-0.2879462857"><ele>336.12</ele><time>2014-08-28T07:10:28Z</time></trkpt><trkpt lat="39.7307172418" lon="-0.2879522368"><ele>336.60</ele><time>2014-08-28T07:10:57Z</time></trkpt><trkpt lat="39.7307173256" lon="-0.2879541647"><ele>336.60</ele><time>2014-08-28T07:11:26Z</time></trkpt><trkpt lat="39.7307196725" lon="-0.2879529074"><ele>337.08</ele><time>2014-08-28T07:11:52Z</time></trkpt><trkpt lat="39.7307179961" lon="-0.2879571822"><ele>337.08</ele><time>2014-08-28T07:12:20Z</time></trkpt><trkpt lat="39.7307190020" lon="-0.2879620437"><ele>337.08</ele><time>2014-08-28T07:12:48Z</time></trkpt><trkpt lat="39.7307214327" lon="-0.2879679948"><ele>337.08</ele><time>2014-08-28T07:13:14Z</time></trkpt><trkpt lat="39.7307220194" lon="-0.2879684977"><ele>336.60</ele><time>2014-08-28T07:13:39Z</time></trkpt><trkpt lat="39.7307235282" lon="-0.2879662346"><ele>337.08</ele><time>2014-08-28T07:14:05Z</time></trkpt><trkpt lat="39.7307246178" lon="-0.2879633009"><ele>337.08</ele><time>2014-08-28T07:14:32Z</time></trkpt><trkpt lat="39.7307273000" lon="-0.2879586071"><ele>336.60</ele><time>2014-08-28T07:14:57Z</time></trkpt><trkpt lat="39.7307307366" lon="-0.2879576851"><ele>337.08</ele><time>2014-08-28T07:15:27Z</time></trkpt><trkpt lat="39.7307329997" lon="-0.2879541647"><ele>337.56</ele><time>2014-08-28T07:15:52Z</time></trkpt><trkpt lat="39.7307306528" lon="-0.2879550029"><ele>337.08</ele><time>2014-08-28T07:16:16Z</time></trkpt><trkpt lat="39.7307306528" lon="-0.2879524883"><ele>337.08</ele><time>2014-08-28T07:16:44Z</time></trkpt><trkpt lat="39.7307317425" lon="-0.2879472915"><ele>337.56</ele><time>2014-08-28T07:17:12Z</time></trkpt><trkpt lat="39.7307315748" lon="-0.2879443578"><ele>337.08</ele><time>2014-08-28T07:17:38Z</time></trkpt><trkpt lat="39.7307324968" lon="-0.2879462857"><ele>337.08</ele><time>2014-08-28T07:18:01Z</time></trkpt><trkpt lat="39.7307297308" lon="-0.2879519016"><ele>337.56</ele><time>2014-08-28T07:18:25Z</time></trkpt><trkpt lat="39.7307245340" lon="-0.2879592776"><ele>337.08</ele><time>2014-08-28T07:18:52Z</time></trkpt><trkpt lat="39.7307224385" lon="-0.2879610378"><ele>337.08</ele><time>2014-08-28T07:19:15Z</time></trkpt><trkpt lat="39.7307257075" lon="-0.2879610378"><ele>337.56</ele><time>2014-08-28T07:19:42Z</time></trkpt><trkpt lat="39.7307286412" lon="-0.2879601158"><ele>337.56</ele><time>2014-08-28T07:20:08Z</time></trkpt><trkpt lat="39.7307288926" lon="-0.2879603673"><ele>337.56</ele><time>2014-08-28T07:20:32Z</time></trkpt><trkpt lat="39.7307265457" lon="-0.2879544999"><ele>337.08</ele><time>2014-08-28T07:20:57Z</time></trkpt><trkpt lat="39.7307255398" lon="-0.2879462857"><ele>337.08</ele><time>2014-08-28T07:21:18Z</time></trkpt><trkpt lat="39.7307234444" lon="-0.2879439387"><ele>337.08</ele><time>2014-08-28T07:21:48Z</time></trkpt><trkpt lat="39.7307222709" lon="-0.2879393287"><ele>337.08</ele><time>2014-08-28T07:22:20Z</time></trkpt><trkpt lat="39.7307246178" lon="-0.2879384905"><ele>336.60</ele><time>2014-08-28T07:22:49Z</time></trkpt><trkpt lat="39.7307280544" lon="-0.2879442740"><ele>337.08</ele><time>2014-08-28T07:23:18Z</time></trkpt><trkpt lat="39.7307262104" lon="-0.2879494708"><ele>337.08</ele><time>2014-08-28T07:23:49Z</time></trkpt><trkpt lat="39.7307261266" lon="-0.2879455313"><ele>337.56</ele><time>2014-08-28T07:24:16Z</time></trkpt><trkpt lat="39.7307247855" lon="-0.2879399993"><ele>337.56</ele><time>2014-08-28T07:24:47Z</time></trkpt><trkpt lat="39.7307232767" lon="-0.2879417595"><ele>337.56</ele><time>2014-08-28T07:25:14Z</time></trkpt><trkpt lat="39.7307221033" lon="-0.2879513986"><ele>337.56</ele><time>2014-08-28T07:25:42Z</time></trkpt><trkpt lat="39.7307248693" lon="-0.2879529074"><ele>337.56</ele><time>2014-08-28T07:26:11Z</time></trkpt><trkpt lat="39.7307261266" lon="-0.2879500575"><ele>337.56</ele><time>2014-08-28T07:26:38Z</time></trkpt><trkpt lat="39.7307307366" lon="-0.2879476268"><ele>337.56</ele><time>2014-08-28T07:27:07Z</time></trkpt><trkpt lat="39.7307335865" lon="-0.2879490517"><ele>337.56</ele><time>2014-08-28T07:27:34Z</time></trkpt><trkpt lat="39.7307326645" lon="-0.2879547514"><ele>338.04</ele><time>2014-08-28T07:28:02Z</time></trkpt><trkpt lat="39.7307329159" lon="-0.2879472915"><ele>338.04</ele><time>2014-08-28T07:28:28Z</time></trkpt><trkpt lat="39.7307348438" lon="-0.2879462857"><ele>338.04</ele><time>2014-08-28T07:28:58Z</time></trkpt><trkpt lat="39.7307371069" lon="-0.2879455313"><ele>338.04</ele><time>2014-08-28T07:29:24Z</time></trkpt><trkpt lat="39.7307361849" lon="-0.2879496384"><ele>338.04</ele><time>2014-08-28T07:29:53Z</time></trkpt><trkpt lat="39.7307312395" lon="-0.2879543323"><ele>338.04</ele><time>2014-08-28T07:30:23Z</time></trkpt><trkpt lat="39.7307278868" lon="-0.2879574336"><ele>338.04</ele><time>2014-08-28T07:30:51Z</time></trkpt><trkpt lat="39.7307280544" lon="-0.2879553381"><ele>338.04</ele><time>2014-08-28T07:31:16Z</time></trkpt><trkpt lat="39.7307296470" lon="-0.2879489679"><ele>338.52</ele><time>2014-08-28T07:31:40Z</time></trkpt><trkpt lat="39.7307285573" lon="-0.2879505605"><ele>338.04</ele><time>2014-08-28T07:32:04Z</time></trkpt><trkpt lat="39.7307279706" lon="-0.2879510634"><ele>338.52</ele><time>2014-08-28T07:32:25Z</time></trkpt><trkpt lat="39.7307283897" lon="-0.2879407536"><ele>338.52</ele><time>2014-08-28T07:32:44Z</time></trkpt><trkpt lat="39.7307213489" lon="-0.2879348025"><ele>339.48</ele><time>2014-08-28T07:33:15Z</time></trkpt><trkpt lat="39.7307162359" lon="-0.2879334614"><ele>338.04</ele><time>2014-08-28T07:33:49Z</time></trkpt><trkpt lat="39.7307153977" lon="-0.2879292704"><ele>338.52</ele><time>2014-08-28T07:34:18Z</time></trkpt><trkpt lat="39.7307193372" lon="-0.2879281808"><ele>338.52</ele><time>2014-08-28T07:34:49Z</time></trkpt><trkpt lat="39.7307162359" lon="-0.2879324555"><ele>338.52</ele><time>2014-08-28T07:35:23Z</time></trkpt><trkpt lat="39.7307197563" lon="-0.2879390772"><ele>337.08</ele><time>2014-08-28T07:35:44Z</time></trkpt><trkpt lat="39.7307199240" lon="-0.2879394125"><ele>338.52</ele><time>2014-08-28T07:35:46Z</time></trkpt><trkpt lat="39.7307237796" lon="-0.2879380714"><ele>338.52</ele><time>2014-08-28T07:36:11Z</time></trkpt><trkpt lat="39.7307264619" lon="-0.2879365627"><ele>338.52</ele><time>2014-08-28T07:36:38Z</time></trkpt><trkpt lat="39.7307185829" lon="-0.2879461180"><ele>338.52</ele><time>2014-08-28T07:37:10Z</time></trkpt><trkpt lat="39.7307181638" lon="-0.2879495546"><ele>339.00</ele><time>2014-08-28T07:37:28Z</time></trkpt><trkpt lat="39.7307137214" lon="-0.2879451122"><ele>338.52</ele><time>2014-08-28T07:38:00Z</time></trkpt><trkpt lat="39.7307158168" lon="-0.2879476268"><ele>339.48</ele><time>2014-08-28T07:38:35Z</time></trkpt><trkpt lat="39.7307122964" lon="-0.2879456151"><ele>339.48</ele><time>2014-08-28T07:38:49Z</time></trkpt><trkpt lat="39.7307109553" lon="-0.2879450284"><ele>339.96</ele><time>2014-08-28T07:39:02Z</time></trkpt><trkpt lat="39.7307100333" lon="-0.2879678272"><ele>340.44</ele><time>2014-08-28T07:39:19Z</time></trkpt><trkpt lat="39.7306972090" lon="-0.2880131733"><ele>340.92</ele><time>2014-08-28T07:39:31Z</time></trkpt><trkpt lat="39.7306988016" lon="-0.2880270034"><ele>341.89</ele><time>2014-08-28T07:39:41Z</time></trkpt><trkpt lat="39.7306992207" lon="-0.2880581003"><ele>343.33</ele><time>2014-08-28T07:39:54Z</time></trkpt><trkpt lat="39.7307231929" lon="-0.2881074697"><ele>344.29</ele><time>2014-08-28T07:40:04Z</time></trkpt><trkpt lat="39.7307345923" lon="-0.2881478705"><ele>344.77</ele><time>2014-08-28T07:40:15Z</time></trkpt><trkpt lat="39.7307259589" lon="-0.2882223018"><ele>343.33</ele><time>2014-08-28T07:40:28Z</time></trkpt><trkpt lat="39.7307244502" lon="-0.2882237267"><ele>343.33</ele><time>2014-08-28T07:40:29Z</time></trkpt><trkpt lat="39.7307065129" lon="-0.2882352099"><ele>342.85</ele><time>2014-08-28T07:40:41Z</time></trkpt><trkpt lat="39.7307096981" lon="-0.2882741019"><ele>341.89</ele><time>2014-08-28T07:40:51Z</time></trkpt><trkpt lat="39.7307002265" lon="-0.2882983256"><ele>340.44</ele><time>2014-08-28T07:41:03Z</time></trkpt><trkpt lat="39.7306848876" lon="-0.2883131616"><ele>339.96</ele><time>2014-08-28T07:41:14Z</time></trkpt><trkpt lat="39.7306683753" lon="-0.2883398160"><ele>338.04</ele><time>2014-08-28T07:41:25Z</time></trkpt><trkpt lat="39.7306552157" lon="-0.2883808874"><ele>338.04</ele><time>2014-08-28T07:41:35Z</time></trkpt><trkpt lat="39.7306740750" lon="-0.2884378843"><ele>337.08</ele><time>2014-08-28T07:41:46Z</time></trkpt><trkpt lat="39.7306646872" lon="-0.2884972282"><ele>335.16</ele><time>2014-08-28T07:41:57Z</time></trkpt><trkpt lat="39.7306542937" lon="-0.2885170933"><ele>334.20</ele><time>2014-08-28T07:42:11Z</time></trkpt><trkpt lat="39.7306373622" lon="-0.2885811310"><ele>332.27</ele><time>2014-08-28T07:42:21Z</time></trkpt><trkpt lat="39.7306469176" lon="-0.2886278182"><ele>330.83</ele><time>2014-08-28T07:42:31Z</time></trkpt><trkpt lat="39.7306473367" lon="-0.2886367869"><ele>330.83</ele><time>2014-08-28T07:42:32Z</time></trkpt><trkpt lat="39.7306416370" lon="-0.2886816300"><ele>328.91</ele><time>2014-08-28T07:42:38Z</time></trkpt><trkpt lat="39.7306357697" lon="-0.2887370344"><ele>327.95</ele><time>2014-08-28T07:42:48Z</time></trkpt><trkpt lat="39.7306134738" lon="-0.2887625992"><ele>326.50</ele><time>2014-08-28T07:42:57Z</time></trkpt><trkpt lat="39.7305595782" lon="-0.2887796145"><ele>325.06</ele><time>2014-08-28T07:43:09Z</time></trkpt><trkpt lat="39.7305145673" lon="-0.2888046764"><ele>322.66</ele><time>2014-08-28T07:43:20Z</time></trkpt><trkpt lat="39.7304911818" lon="-0.2888393775"><ele>321.22</ele><time>2014-08-28T07:43:31Z</time></trkpt><trkpt lat="39.7304796986" lon="-0.2888799459"><ele>320.26</ele><time>2014-08-28T07:43:40Z</time></trkpt><trkpt lat="39.7304558940" lon="-0.2888921835"><ele>318.81</ele><time>2014-08-28T07:43:49Z</time></trkpt><trkpt lat="39.7304202709" lon="-0.2889579814"><ele>316.41</ele><time>2014-08-28T07:44:01Z</time></trkpt><trkpt lat="39.7303749248" lon="-0.2890143078"><ele>314.49</ele><time>2014-08-28T07:44:14Z</time></trkpt><trkpt lat="39.7303214483" lon="-0.2890223544"><ele>314.01</ele><time>2014-08-28T07:44:22Z</time></trkpt><trkpt lat="39.7302454244" lon="-0.2889240347"><ele>314.97</ele><time>2014-08-28T07:44:35Z</time></trkpt><trkpt lat="39.7302035987" lon="-0.2889040858"><ele>314.97</ele><time>2014-08-28T07:44:40Z</time></trkpt><trkpt lat="39.7301781178" lon="-0.2888709772"><ele>314.97</ele><time>2014-08-28T07:44:44Z</time></trkpt><trkpt lat="39.7300655488" lon="-0.2888080291"><ele>313.53</ele><time>2014-08-28T07:44:57Z</time></trkpt><trkpt lat="39.7300590947" lon="-0.2888133097"><ele>313.05</ele><time>2014-08-28T07:44:58Z</time></trkpt><trkpt lat="39.7300215438" lon="-0.2888472565"><ele>313.05</ele><time>2014-08-28T07:45:03Z</time></trkpt><trkpt lat="39.7299179435" lon="-0.2889268845"><ele>312.09</ele><time>2014-08-28T07:45:15Z</time></trkpt><trkpt lat="39.7298159357" lon="-0.2889740746"><ele>312.09</ele><time>2014-08-28T07:45:27Z</time></trkpt><trkpt lat="39.7297689132" lon="-0.2890078537"><ele>312.57</ele><time>2014-08-28T07:45:32Z</time></trkpt><trkpt lat="39.7296793945" lon="-0.2891079336"><ele>312.57</ele><time>2014-08-28T07:45:44Z</time></trkpt><trkpt lat="39.7295590304" lon="-0.2891811077"><ele>314.01</ele><time>2014-08-28T07:45:58Z</time></trkpt><trkpt lat="39.7295118403" lon="-0.2891795989"><ele>314.49</ele><time>2014-08-28T07:46:03Z</time></trkpt><trkpt lat="39.7294047195" lon="-0.2892192453"><ele>315.45</ele><time>2014-08-28T07:46:16Z</time></trkpt><trkpt lat="39.7293092497" lon="-0.2892630827"><ele>315.93</ele><time>2014-08-28T07:46:29Z</time></trkpt><trkpt lat="39.7292499896" lon="-0.2893063333"><ele>316.41</ele><time>2014-08-28T07:46:39Z</time></trkpt><trkpt lat="39.7291991115" lon="-0.2893602289"><ele>316.89</ele><time>2014-08-28T07:46:46Z</time></trkpt><trkpt lat="39.7291046474" lon="-0.2894225903"><ele>317.37</ele><time>2014-08-28T07:46:59Z</time></trkpt><trkpt lat="39.7290271986" lon="-0.2894711215"><ele>317.37</ele><time>2014-08-28T07:47:08Z</time></trkpt><trkpt lat="39.7289360873" lon="-0.2894992847"><ele>315.93</ele><time>2014-08-28T07:47:20Z</time></trkpt><trkpt lat="39.7288821079" lon="-0.2895445470"><ele>315.45</ele><time>2014-08-28T07:47:34Z</time></trkpt><trkpt lat="39.7287907451" lon="-0.2896009572"><ele>314.49</ele><time>2014-08-28T07:47:47Z</time></trkpt><trkpt lat="39.7287168168" lon="-0.2896214928"><ele>314.01</ele><time>2014-08-28T07:47:56Z</time></trkpt><trkpt lat="39.7286358476" lon="-0.2897028811"><ele>313.05</ele><time>2014-08-28T07:48:08Z</time></trkpt><trkpt lat="39.7286280524" lon="-0.2897107601"><ele>313.05</ele><time>2014-08-28T07:48:09Z</time></trkpt><trkpt lat="39.7285920102" lon="-0.2897358220"><ele>312.57</ele><time>2014-08-28T07:48:13Z</time></trkpt><trkpt lat="39.7285118792" lon="-0.2897810005"><ele>311.60</ele><time>2014-08-28T07:48:23Z</time></trkpt><trkpt lat="39.7284031659" lon="-0.2898805775"><ele>310.64</ele><time>2014-08-28T07:48:37Z</time></trkpt><trkpt lat="39.7283527069" lon="-0.2899234090"><ele>310.16</ele><time>2014-08-28T07:48:43Z</time></trkpt><trkpt lat="39.7282692231" lon="-0.2900374029"><ele>309.20</ele><time>2014-08-28T07:48:56Z</time></trkpt><trkpt lat="39.7282185126" lon="-0.2900951542"><ele>309.20</ele><time>2014-08-28T07:49:03Z</time></trkpt><trkpt lat="39.7281603422" lon="-0.2901813202"><ele>308.24</ele><time>2014-08-28T07:49:11Z</time></trkpt><trkpt lat="39.7280599270" lon="-0.2902784664"><ele>306.80</ele><time>2014-08-28T07:49:25Z</time></trkpt><trkpt lat="39.7280457616" lon="-0.2902775444"><ele>307.28</ele><time>2014-08-28T07:49:27Z</time></trkpt><trkpt lat="39.7279881779" lon="-0.2903274167"><ele>306.32</ele><time>2014-08-28T07:49:35Z</time></trkpt><trkpt lat="39.7279004194" lon="-0.2904013451"><ele>306.32</ele><time>2014-08-28T07:49:45Z</time></trkpt><trkpt lat="39.7277974058" lon="-0.2904953063"><ele>305.36</ele><time>2014-08-28T07:49:56Z</time></trkpt><trkpt lat="39.7277518082" lon="-0.2905258164"><ele>305.36</ele><time>2014-08-28T07:50:02Z</time></trkpt><trkpt lat="39.7277313564" lon="-0.2905331925"><ele>304.88</ele><time>2014-08-28T07:50:04Z</time></trkpt><trkpt lat="39.7276627086" lon="-0.2905976493"><ele>304.39</ele><time>2014-08-28T07:50:13Z</time></trkpt><trkpt lat="39.7275884449" lon="-0.2906591725"><ele>303.91</ele><time>2014-08-28T07:50:22Z</time></trkpt><trkpt lat="39.7274854314" lon="-0.2906327695"><ele>303.43</ele><time>2014-08-28T07:50:34Z</time></trkpt><trkpt lat="39.7273748741" lon="-0.2906544786"><ele>303.43</ele><time>2014-08-28T07:50:46Z</time></trkpt><trkpt lat="39.7272778116" lon="-0.2906486113"><ele>302.47</ele><time>2014-08-28T07:50:56Z</time></trkpt><trkpt lat="39.7271892987" lon="-0.2906158380"><ele>302.47</ele><time>2014-08-28T07:51:05Z</time></trkpt><trkpt lat="39.7271612193" lon="-0.2906179335"><ele>301.99</ele><time>2014-08-28T07:51:08Z</time></trkpt><trkpt lat="39.7271037195" lon="-0.2905906923"><ele>301.99</ele><time>2014-08-28T07:51:13Z</time></trkpt><trkpt lat="39.7270107642" lon="-0.2905685641"><ele>301.99</ele><time>2014-08-28T07:51:23Z</time></trkpt><trkpt lat="39.7269974370" lon="-0.2905487828"><ele>301.99</ele><time>2014-08-28T07:51:25Z</time></trkpt><trkpt lat="39.7268697806" lon="-0.2904464398"><ele>301.51</ele><time>2014-08-28T07:51:39Z</time></trkpt><trkpt lat="39.7267876379" lon="-0.2903606091"><ele>300.55</ele><time>2014-08-28T07:51:50Z</time></trkpt><trkpt lat="39.7267733887" lon="-0.2903497126"><ele>301.03</ele><time>2014-08-28T07:51:52Z</time></trkpt><trkpt lat="39.7267468181" lon="-0.2903132513"><ele>300.55</ele><time>2014-08-28T07:51:56Z</time></trkpt><trkpt lat="39.7267143801" lon="-0.2902717609"><ele>299.59</ele><time>2014-08-28T07:52:01Z</time></trkpt><trkpt lat="39.7266237717" lon="-0.2901518997"><ele>300.07</ele><time>2014-08-28T07:52:15Z</time></trkpt><trkpt lat="39.7265500948" lon="-0.2900618780"><ele>299.59</ele><time>2014-08-28T07:52:27Z</time></trkpt><trkpt lat="39.7264921758" lon="-0.2899920568"><ele>300.07</ele><time>2014-08-28T07:52:38Z</time></trkpt><trkpt lat="39.7264291439" lon="-0.2899691742"><ele>301.03</ele><time>2014-08-28T07:52:48Z</time></trkpt><trkpt lat="39.7263711412" lon="-0.2899286058"><ele>302.47</ele><time>2014-08-28T07:52:57Z</time></trkpt><trkpt lat="39.7263174970" lon="-0.2898808289"><ele>301.51</ele><time>2014-08-28T07:53:05Z</time></trkpt><trkpt lat="39.7262713965" lon="-0.2898618020"><ele>301.99</ele><time>2014-08-28T07:53:11Z</time></trkpt><trkpt lat="39.7261837218" lon="-0.2898493130"><ele>302.95</ele><time>2014-08-28T07:53:24Z</time></trkpt><trkpt lat="39.7261102125" lon="-0.2898143604"><ele>303.91</ele><time>2014-08-28T07:53:33Z</time></trkpt><trkpt lat="39.7260923591" lon="-0.2896613907"><ele>304.39</ele><time>2014-08-28T07:53:45Z</time></trkpt><trkpt lat="39.7260921076" lon="-0.2896214928"><ele>304.88</ele><time>2014-08-28T07:53:48Z</time></trkpt><trkpt lat="39.7261109669" lon="-0.2895204909"><ele>304.88</ele><time>2014-08-28T07:53:56Z</time></trkpt><trkpt lat="39.7261097934" lon="-0.2894926630"><ele>304.88</ele><time>2014-08-28T07:53:58Z</time></trkpt><trkpt lat="39.7261310834" lon="-0.2893650066"><ele>305.84</ele><time>2014-08-28T07:54:10Z</time></trkpt><trkpt lat="39.7261522897" lon="-0.2892666031"><ele>306.32</ele><time>2014-08-28T07:54:24Z</time></trkpt><trkpt lat="39.7261762619" lon="-0.2892216761"><ele>305.84</ele><time>2014-08-28T07:54:33Z</time></trkpt><trkpt lat="39.7262013238" lon="-0.2891153935"><ele>304.88</ele><time>2014-08-28T07:54:46Z</time></trkpt><trkpt lat="39.7262461670" lon="-0.2890416328"><ele>303.43</ele><time>2014-08-28T07:54:57Z</time></trkpt><trkpt lat="39.7262560576" lon="-0.2889405470"><ele>302.95</ele><time>2014-08-28T07:55:09Z</time></trkpt><trkpt lat="39.7262890823" lon="-0.2888684627"><ele>301.03</ele><time>2014-08-28T07:55:21Z</time></trkpt><trkpt lat="39.7262885794" lon="-0.2888625115"><ele>301.03</ele><time>2014-08-28T07:55:42Z</time></trkpt><trkpt lat="39.7262915969" lon="-0.2888625115"><ele>301.03</ele><time>2014-08-28T07:56:05Z</time></trkpt><trkpt lat="39.7262863163" lon="-0.2888598293"><ele>301.51</ele><time>2014-08-28T07:56:24Z</time></trkpt><trkpt lat="39.7263093665" lon="-0.2888474241"><ele>300.07</ele><time>2014-08-28T07:56:52Z</time></trkpt><trkpt lat="39.7263723146" lon="-0.2887787763"><ele>297.18</ele><time>2014-08-28T07:57:06Z</time></trkpt><trkpt lat="39.7264236119" lon="-0.2887260541"><ele>295.26</ele><time>2014-08-28T07:57:18Z</time></trkpt><trkpt lat="39.7264655214" lon="-0.2886558976"><ele>293.82</ele><time>2014-08-28T07:57:31Z</time></trkpt><trkpt lat="39.7265027370" lon="-0.2885098010"><ele>292.38</ele><time>2014-08-28T07:57:45Z</time></trkpt><trkpt lat="39.7265493404" lon="-0.2884363756"><ele>290.46</ele><time>2014-08-28T07:57:55Z</time></trkpt><trkpt lat="39.7265944351" lon="-0.2884212043"><ele>289.97</ele><time>2014-08-28T07:58:02Z</time></trkpt><trkpt lat="39.7266425472" lon="-0.2883899398"><ele>288.53</ele><time>2014-08-28T07:58:09Z</time></trkpt><trkpt lat="39.7266511805" lon="-0.2883706614"><ele>288.05</ele><time>2014-08-28T07:58:11Z</time></trkpt><trkpt lat="39.7266971972" lon="-0.2882829029"><ele>288.05</ele><time>2014-08-28T07:58:20Z</time></trkpt><trkpt lat="39.7266914975" lon="-0.2882484533"><ele>288.53</ele><time>2014-08-28T07:58:23Z</time></trkpt><trkpt lat="39.7266642563" lon="-0.2881689090"><ele>288.53</ele><time>2014-08-28T07:58:31Z</time></trkpt><trkpt lat="39.7267138772" lon="-0.2880851738"><ele>288.05</ele><time>2014-08-28T07:58:40Z</time></trkpt><trkpt lat="39.7267217562" lon="-0.2880522329"><ele>288.05</ele><time>2014-08-28T07:58:43Z</time></trkpt><trkpt lat="39.7267821059" lon="-0.2879585233"><ele>289.49</ele><time>2014-08-28T07:58:56Z</time></trkpt><trkpt lat="39.7268083412" lon="-0.2879187092"><ele>289.97</ele><time>2014-08-28T07:59:05Z</time></trkpt><trkpt lat="39.7268258594" lon="-0.2878730278"><ele>290.94</ele><time>2014-08-28T07:59:12Z</time></trkpt><trkpt lat="39.7268725466" lon="-0.2878096607"><ele>292.38</ele><time>2014-08-28T07:59:24Z</time></trkpt><trkpt lat="39.7269059066" lon="-0.2877104189"><ele>293.34</ele><time>2014-08-28T07:59:37Z</time></trkpt><trkpt lat="39.7269182280" lon="-0.2876759693"><ele>293.82</ele><time>2014-08-28T07:59:42Z</time></trkpt><trkpt lat="39.7269456368" lon="-0.2876246721"><ele>294.78</ele><time>2014-08-28T07:59:50Z</time></trkpt><trkpt lat="39.7269870434" lon="-0.2875607181"><ele>295.26</ele><time>2014-08-28T08:00:01Z</time></trkpt><trkpt lat="39.7270084172" lon="-0.2875313815"><ele>296.22</ele><time>2014-08-28T08:00:08Z</time></trkpt><trkpt lat="39.7270309646" lon="-0.2874905616"><ele>297.67</ele><time>2014-08-28T08:00:20Z</time></trkpt><trkpt lat="39.7270628996" lon="-0.2874582913"><ele>298.63</ele><time>2014-08-28T08:00:32Z</time></trkpt><trkpt lat="39.7271307092" lon="-0.2873636596"><ele>299.11</ele><time>2014-08-28T08:00:47Z</time></trkpt><trkpt lat="39.7271703556" lon="-0.2873515896"><ele>298.63</ele><time>2014-08-28T08:00:51Z</time></trkpt><trkpt lat="39.7272549290" lon="-0.2872505039"><ele>299.59</ele><time>2014-08-28T08:01:05Z</time></trkpt><trkpt lat="39.7272518277" lon="-0.2872163057"><ele>300.55</ele><time>2014-08-28T08:01:10Z</time></trkpt><trkpt lat="39.7272776440" lon="-0.2871592250"><ele>301.99</ele><time>2014-08-28T08:01:18Z</time></trkpt><trkpt lat="39.7273405083" lon="-0.2870718017"><ele>301.03</ele><time>2014-08-28T08:01:32Z</time></trkpt><trkpt lat="39.7273830045" lon="-0.2870525233"><ele>300.07</ele><time>2014-08-28T08:01:40Z</time></trkpt><trkpt lat="39.7274225671" lon="-0.2870251145"><ele>299.59</ele><time>2014-08-28T08:01:47Z</time></trkpt><trkpt lat="39.7274961602" lon="-0.2869555447"><ele>298.63</ele><time>2014-08-28T08:01:59Z</time></trkpt><trkpt lat="39.7275373992" lon="-0.2869557962"><ele>298.15</ele><time>2014-08-28T08:02:11Z</time></trkpt><trkpt lat="39.7275423445" lon="-0.2869602386"><ele>299.59</ele><time>2014-08-28T08:02:24Z</time></trkpt><trkpt lat="39.7275303584" lon="-0.2869525272"><ele>300.07</ele><time>2014-08-28T08:02:35Z</time></trkpt><trkpt lat="39.7275319509" lon="-0.2869446483"><ele>300.55</ele><time>2014-08-28T08:02:38Z</time></trkpt><trkpt lat="39.7275540791" lon="-0.2868965361"><ele>301.51</ele><time>2014-08-28T08:02:49Z</time></trkpt><trkpt lat="39.7275812365" lon="-0.2868297324"><ele>302.95</ele><time>2014-08-28T08:03:01Z</time></trkpt><trkpt lat="39.7275858466" lon="-0.2868290618"><ele>302.47</ele><time>2014-08-28T08:03:11Z</time></trkpt><trkpt lat="39.7275641374" lon="-0.2868768387"><ele>301.99</ele><time>2014-08-28T08:03:24Z</time></trkpt><trkpt lat="39.7275741957" lon="-0.2868469991"><ele>302.47</ele><time>2014-08-28T08:03:41Z</time></trkpt><trkpt lat="39.7276040353" lon="-0.2867790218"><ele>302.95</ele><time>2014-08-28T08:03:51Z</time></trkpt><trkpt lat="39.7276161052" lon="-0.2867460810"><ele>302.47</ele><time>2014-08-28T08:04:10Z</time></trkpt><trkpt lat="39.7276244871" lon="-0.2866878267"><ele>303.91</ele><time>2014-08-28T08:04:21Z</time></trkpt><trkpt lat="39.7276264988" lon="-0.2866675425"><ele>303.91</ele><time>2014-08-28T08:04:33Z</time></trkpt><trkpt lat="39.7276252415" lon="-0.2866584063"><ele>303.43</ele><time>2014-08-28T08:04:47Z</time></trkpt><trkpt lat="39.7276231460" lon="-0.2866566461"><ele>303.43</ele><time>2014-08-28T08:05:20Z</time></trkpt><trkpt lat="39.7276171111" lon="-0.2866555564"><ele>303.43</ele><time>2014-08-28T08:05:58Z</time></trkpt><trkpt lat="39.7276170272" lon="-0.2866558917"><ele>302.95</ele><time>2014-08-28T08:06:32Z</time></trkpt><trkpt lat="39.7276162729" lon="-0.2866517846"><ele>302.47</ele><time>2014-08-28T08:07:10Z</time></trkpt><trkpt lat="39.7276124172" lon="-0.2866589930"><ele>303.43</ele><time>2014-08-28T08:07:50Z</time></trkpt><trkpt lat="39.7276099864" lon="-0.2866612561"><ele>302.47</ele><time>2014-08-28T08:08:26Z</time></trkpt><trkpt lat="39.7276093997" lon="-0.2866628487"><ele>302.47</ele><time>2014-08-28T08:09:03Z</time></trkpt><trkpt lat="39.7276072204" lon="-0.2866646927"><ele>302.47</ele><time>2014-08-28T08:09:38Z</time></trkpt><trkpt lat="39.7276125848" lon="-0.2866630163"><ele>302.47</ele><time>2014-08-28T08:10:17Z</time></trkpt><trkpt lat="39.7276119981" lon="-0.2866569813"><ele>302.47</ele><time>2014-08-28T08:10:55Z</time></trkpt><trkpt lat="39.7276198771" lon="-0.2866578195"><ele>302.47</ele><time>2014-08-28T08:11:34Z</time></trkpt><trkpt lat="39.7276218887" lon="-0.2866531257"><ele>302.47</ele><time>2014-08-28T08:12:11Z</time></trkpt><trkpt lat="39.7276207153" lon="-0.2866542153"><ele>302.47</ele><time>2014-08-28T08:12:46Z</time></trkpt><trkpt lat="39.7276194580" lon="-0.2866492700"><ele>302.47</ele><time>2014-08-28T08:13:27Z</time></trkpt><trkpt lat="39.7276203800" lon="-0.2866465040"><ele>302.47</ele><time>2014-08-28T08:14:07Z</time></trkpt><trkpt lat="39.7276203800" lon="-0.2866495214"><ele>301.99</ele><time>2014-08-28T08:14:39Z</time></trkpt><trkpt lat="39.7276246548" lon="-0.2866605856"><ele>303.43</ele><time>2014-08-28T08:14:51Z</time></trkpt><trkpt lat="39.7276182845" lon="-0.2867251262"><ele>302.47</ele><time>2014-08-28T08:15:10Z</time></trkpt><trkpt lat="39.7276164405" lon="-0.2867752500"><ele>301.51</ele><time>2014-08-28T08:15:16Z</time></trkpt><trkpt lat="39.7275682446" lon="-0.2868629247"><ele>301.03</ele><time>2014-08-28T08:15:27Z</time></trkpt><trkpt lat="39.7275584377" lon="-0.2869266272"><ele>299.59</ele><time>2014-08-28T08:15:41Z</time></trkpt><trkpt lat="39.7275447752" lon="-0.2869339194"><ele>299.11</ele><time>2014-08-28T08:15:54Z</time></trkpt><trkpt lat="39.7275376506" lon="-0.2869366016"><ele>299.11</ele><time>2014-08-28T08:16:08Z</time></trkpt><trkpt lat="39.7275342140" lon="-0.2869423851"><ele>297.67</ele><time>2014-08-28T08:16:23Z</time></trkpt><trkpt lat="39.7275197133" lon="-0.2869500127"><ele>297.18</ele><time>2014-08-28T08:16:36Z</time></trkpt><trkpt lat="39.7274989262" lon="-0.2869461570"><ele>297.18</ele><time>2014-08-28T08:16:45Z</time></trkpt><trkpt lat="39.7274871077" lon="-0.2869709674"><ele>297.67</ele><time>2014-08-28T08:17:00Z</time></trkpt><trkpt lat="39.7274508141" lon="-0.2870209236"><ele>298.15</ele><time>2014-08-28T08:17:15Z</time></trkpt><trkpt lat="39.7274000198" lon="-0.2870594803"><ele>298.63</ele><time>2014-08-28T08:17:25Z</time></trkpt><trkpt lat="39.7273472138" lon="-0.2870826982"><ele>299.59</ele><time>2014-08-28T08:17:34Z</time></trkpt><trkpt lat="39.7272926476" lon="-0.2871592250"><ele>300.55</ele><time>2014-08-28T08:17:45Z</time></trkpt><trkpt lat="39.7272669151" lon="-0.2872376796"><ele>299.11</ele><time>2014-08-28T08:17:58Z</time></trkpt><trkpt lat="39.7272235807" lon="-0.2873167209"><ele>297.67</ele><time>2014-08-28T08:18:10Z</time></trkpt><trkpt lat="39.7271449585" lon="-0.2873811778"><ele>298.15</ele><time>2014-08-28T08:18:23Z</time></trkpt><trkpt lat="39.7270942479" lon="-0.2874567825"><ele>298.63</ele><time>2014-08-28T08:18:35Z</time></trkpt><trkpt lat="39.7270587087" lon="-0.2874745522"><ele>297.18</ele><time>2014-08-28T08:18:47Z</time></trkpt><trkpt lat="39.7270442918" lon="-0.2875339799"><ele>295.74</ele><time>2014-08-28T08:18:59Z</time></trkpt><trkpt lat="39.7269926593" lon="-0.2875830978"><ele>294.30</ele><time>2014-08-28T08:19:12Z</time></trkpt><trkpt lat="39.7269810084" lon="-0.2875970956"><ele>294.30</ele><time>2014-08-28T08:19:15Z</time></trkpt><trkpt lat="39.7269240115" lon="-0.2876647376"><ele>293.34</ele><time>2014-08-28T08:19:26Z</time></trkpt><trkpt lat="39.7268953454" lon="-0.2877396718"><ele>292.38</ele><time>2014-08-28T08:19:36Z</time></trkpt><trkpt lat="39.7268818505" lon="-0.2878115885"><ele>290.94</ele><time>2014-08-28T08:19:48Z</time></trkpt><trkpt lat="39.7268526815" lon="-0.2878601197"><ele>290.94</ele><time>2014-08-28T08:19:59Z</time></trkpt><trkpt lat="39.7268188186" lon="-0.2879229002"><ele>289.01</ele><time>2014-08-28T08:20:10Z</time></trkpt><trkpt lat="39.7267814353" lon="-0.2879758738"><ele>288.05</ele><time>2014-08-28T08:20:21Z</time></trkpt><trkpt lat="39.7267342452" lon="-0.2880434319"><ele>287.09</ele><time>2014-08-28T08:20:33Z</time></trkpt><trkpt lat="39.7266851272" lon="-0.2881282568"><ele>286.61</ele><time>2014-08-28T08:20:44Z</time></trkpt><trkpt lat="39.7266892344" lon="-0.2881779615"><ele>287.57</ele><time>2014-08-28T08:20:49Z</time></trkpt><trkpt lat="39.7267090995" lon="-0.2882989123"><ele>287.57</ele><time>2014-08-28T08:20:58Z</time></trkpt><trkpt lat="39.7266997118" lon="-0.2883382235"><ele>287.09</ele><time>2014-08-28T08:21:04Z</time></trkpt><trkpt lat="39.7266949341" lon="-0.2883598488"><ele>287.09</ele><time>2014-08-28T08:21:06Z</time></trkpt><trkpt lat="39.7266235203" lon="-0.2884210367"><ele>289.01</ele><time>2014-08-28T08:21:18Z</time></trkpt><trkpt lat="39.7266189102" lon="-0.2884289157"><ele>288.53</ele><time>2014-08-28T08:21:19Z</time></trkpt><trkpt lat="39.7265542019" lon="-0.2884577494"><ele>289.97</ele><time>2014-08-28T08:21:30Z</time></trkpt><trkpt lat="39.7265154775" lon="-0.2885185182"><ele>290.94</ele><time>2014-08-28T08:21:39Z</time></trkpt><trkpt lat="39.7264882363" lon="-0.2886354458"><ele>292.86</ele><time>2014-08-28T08:21:51Z</time></trkpt><trkpt lat="39.7264885716" lon="-0.2886667103"><ele>292.38</ele><time>2014-08-28T08:21:54Z</time></trkpt><trkpt lat="39.7264456563" lon="-0.2887531277"><ele>295.26</ele><time>2014-08-28T08:22:07Z</time></trkpt><trkpt lat="39.7263994720" lon="-0.2887835540"><ele>296.22</ele><time>2014-08-28T08:22:17Z</time></trkpt><trkpt lat="39.7263729852" lon="-0.2888330072"><ele>298.15</ele><time>2014-08-28T08:22:28Z</time></trkpt><trkpt lat="39.7263180837" lon="-0.2888709772"><ele>300.07</ele><time>2014-08-28T08:22:39Z</time></trkpt><trkpt lat="39.7262825444" lon="-0.2889221907"><ele>301.51</ele><time>2014-08-28T08:22:49Z</time></trkpt><trkpt lat="39.7262755875" lon="-0.2890129667"><ele>302.47</ele><time>2014-08-28T08:23:00Z</time></trkpt><trkpt lat="39.7262364440" lon="-0.2890944388"><ele>303.43</ele><time>2014-08-28T08:23:10Z</time></trkpt><trkpt lat="39.7262086160" lon="-0.2891649306"><ele>304.88</ele><time>2014-08-28T08:23:19Z</time></trkpt><trkpt lat="39.7261884157" lon="-0.2892316505"><ele>305.36</ele><time>2014-08-28T08:23:30Z</time></trkpt><trkpt lat="39.7261521220" lon="-0.2893148828"><ele>305.36</ele><time>2014-08-28T08:23:43Z</time></trkpt><trkpt lat="39.7261312511" lon="-0.2894608956"><ele>304.39</ele><time>2014-08-28T08:23:57Z</time></trkpt><trkpt lat="39.7261264734" lon="-0.2895145398"><ele>304.39</ele><time>2014-08-28T08:24:01Z</time></trkpt><trkpt lat="39.7261021659" lon="-0.2896525059"><ele>302.95</ele><time>2014-08-28T08:24:11Z</time></trkpt><trkpt lat="39.7260734998" lon="-0.2897522505"><ele>302.95</ele><time>2014-08-28T08:24:24Z</time></trkpt><trkpt lat="39.7260300815" lon="-0.2897756360"><ele>303.43</ele><time>2014-08-28T08:24:45Z</time></trkpt><trkpt lat="39.7259288281" lon="-0.2897585370"><ele>301.03</ele><time>2014-08-28T08:24:59Z</time></trkpt><trkpt lat="39.7259201109" lon="-0.2897551842"><ele>301.51</ele><time>2014-08-28T08:25:00Z</time></trkpt><trkpt lat="39.7258572467" lon="-0.2896835189"><ele>299.11</ele><time>2014-08-28T08:25:11Z</time></trkpt><trkpt lat="39.7258322686" lon="-0.2896135300"><ele>297.67</ele><time>2014-08-28T08:25:22Z</time></trkpt><trkpt lat="39.7257957235" lon="-0.2895372547"><ele>295.26</ele><time>2014-08-28T08:25:33Z</time></trkpt><trkpt lat="39.7257696558" lon="-0.2894259430"><ele>293.82</ele><time>2014-08-28T08:25:45Z</time></trkpt><trkpt lat="39.7256974038" lon="-0.2894535195"><ele>291.42</ele><time>2014-08-28T08:25:58Z</time></trkpt><trkpt lat="39.7256408259" lon="-0.2895245980"><ele>289.01</ele><time>2014-08-28T08:26:10Z</time></trkpt><trkpt lat="39.7255808115" lon="-0.2896175534"><ele>287.09</ele><time>2014-08-28T08:26:24Z</time></trkpt><trkpt lat="39.7255325317" lon="-0.2896897215"><ele>285.17</ele><time>2014-08-28T08:26:36Z</time></trkpt><trkpt lat="39.7254907060" lon="-0.2897473052"><ele>283.25</ele><time>2014-08-28T08:26:48Z</time></trkpt><trkpt lat="39.7254285123" lon="-0.2898177132"><ele>281.80</ele><time>2014-08-28T08:27:01Z</time></trkpt><trkpt lat="39.7254254948" lon="-0.2898198925"><ele>281.80</ele><time>2014-08-28T08:27:02Z</time></trkpt><trkpt lat="39.7253787238" lon="-0.2898852713"><ele>279.40</ele><time>2014-08-28T08:27:15Z</time></trkpt><trkpt lat="39.7253223136" lon="-0.2899187151"><ele>277.48</ele><time>2014-08-28T08:27:29Z</time></trkpt><trkpt lat="39.7252798174" lon="-0.2899340540"><ele>275.56</ele><time>2014-08-28T08:27:42Z</time></trkpt><trkpt lat="39.7252413444" lon="-0.2899447829"><ele>273.63</ele><time>2014-08-28T08:27:55Z</time></trkpt><trkpt lat="39.7251995187" lon="-0.2899634745"><ele>272.19</ele><time>2014-08-28T08:28:09Z</time></trkpt><trkpt lat="39.7251404263" lon="-0.2899829205"><ele>270.27</ele><time>2014-08-28T08:28:23Z</time></trkpt><trkpt lat="39.7250684258" lon="-0.2900216449"><ele>268.35</ele><time>2014-08-28T08:28:37Z</time></trkpt><trkpt lat="39.7249920666" lon="-0.2900449466"><ele>266.42</ele><time>2014-08-28T08:28:51Z</time></trkpt><trkpt lat="39.7249461338" lon="-0.2900876943"><ele>265.46</ele><time>2014-08-28T08:28:59Z</time></trkpt><trkpt lat="39.7248782404" lon="-0.2901571803"><ele>263.54</ele><time>2014-08-28T08:29:09Z</time></trkpt><trkpt lat="39.7248499934" lon="-0.2901419252"><ele>263.06</ele><time>2014-08-28T08:29:12Z</time></trkpt><trkpt lat="39.7247962654" lon="-0.2901345491"><ele>263.54</ele><time>2014-08-28T08:29:19Z</time></trkpt><trkpt lat="39.7247175593" lon="-0.2901177853"><ele>264.98</ele><time>2014-08-28T08:29:33Z</time></trkpt><trkpt lat="39.7246623226" lon="-0.2901052963"><ele>266.90</ele><time>2014-08-28T08:29:46Z</time></trkpt><trkpt lat="39.7246177308" lon="-0.2900671586"><ele>268.35</ele><time>2014-08-28T08:29:56Z</time></trkpt><trkpt lat="39.7245929204" lon="-0.2899710182"><ele>268.83</ele><time>2014-08-28T08:30:05Z</time></trkpt><trkpt lat="39.7245618235" lon="-0.2898845170"><ele>269.79</ele><time>2014-08-28T08:30:15Z</time></trkpt><trkpt lat="39.7245392762" lon="-0.2898422722"><ele>268.83</ele><time>2014-08-28T08:30:26Z</time></trkpt><trkpt lat="39.7245373484" lon="-0.2898321301"><ele>268.83</ele><time>2014-08-28T08:30:37Z</time></trkpt><trkpt lat="39.7245391924" lon="-0.2898297831"><ele>267.86</ele><time>2014-08-28T08:30:57Z</time></trkpt><trkpt lat="39.7245393600" lon="-0.2898263466"><ele>268.83</ele><time>2014-08-28T08:31:18Z</time></trkpt><trkpt lat="39.7245262004" lon="-0.2898267657"><ele>269.79</ele><time>2014-08-28T08:31:30Z</time></trkpt><trkpt lat="39.7245285474" lon="-0.2898226585"><ele>268.83</ele><time>2014-08-28T08:31:58Z</time></trkpt><trkpt lat="39.7245301399" lon="-0.2898235805"><ele>267.38</ele><time>2014-08-28T08:32:08Z</time></trkpt><trkpt lat="39.7245159745" lon="-0.2898209821"><ele>269.31</ele><time>2014-08-28T08:32:17Z</time></trkpt><trkpt lat="39.7244999651" lon="-0.2897912264"><ele>268.35</ele><time>2014-08-28T08:32:26Z</time></trkpt><trkpt lat="39.7244886495" lon="-0.2897856105"><ele>267.86</ele><time>2014-08-28T08:32:29Z</time></trkpt><trkpt lat="39.7244624142" lon="-0.2897321340"><ele>266.90</ele><time>2014-08-28T08:32:36Z</time></trkpt><trkpt lat="39.7243619151" lon="-0.2896467224"><ele>265.46</ele><time>2014-08-28T08:32:49Z</time></trkpt><trkpt lat="39.7242411319" lon="-0.2896026336"><ele>264.02</ele><time>2014-08-28T08:33:00Z</time></trkpt><trkpt lat="39.7241656948" lon="-0.2895166352"><ele>265.94</ele><time>2014-08-28T08:33:14Z</time></trkpt><trkpt lat="39.7241261322" lon="-0.2894788329"><ele>268.35</ele><time>2014-08-28T08:33:22Z</time></trkpt><trkpt lat="39.7240885813" lon="-0.2894170582"><ele>270.27</ele><time>2014-08-28T08:33:32Z</time></trkpt><trkpt lat="39.7240508627" lon="-0.2893570438"><ele>271.71</ele><time>2014-08-28T08:33:43Z</time></trkpt><trkpt lat="39.7240244597" lon="-0.2893224265"><ele>272.19</ele><time>2014-08-28T08:33:47Z</time></trkpt><trkpt lat="39.7240113840" lon="-0.2892797627"><ele>272.19</ele><time>2014-08-28T08:33:51Z</time></trkpt><trkpt lat="39.7239767667" lon="-0.2892043255"><ele>272.19</ele><time>2014-08-28T08:34:01Z</time></trkpt><trkpt lat="39.7239271458" lon="-0.2891203389"><ele>269.31</ele><time>2014-08-28T08:34:15Z</time></trkpt><trkpt lat="39.7238778602" lon="-0.2891031560"><ele>267.86</ele><time>2014-08-28T08:34:27Z</time></trkpt><trkpt lat="39.7238104697" lon="-0.2890346758"><ele>264.98</ele><time>2014-08-28T08:34:42Z</time></trkpt><trkpt lat="39.7237650398" lon="-0.2889764216"><ele>264.02</ele><time>2014-08-28T08:34:51Z</time></trkpt><trkpt lat="39.7237535566" lon="-0.2889352664"><ele>262.58</ele><time>2014-08-28T08:34:55Z</time></trkpt><trkpt lat="39.7237208672" lon="-0.2888917644"><ele>262.58</ele><time>2014-08-28T08:35:00Z</time></trkpt><trkpt lat="39.7237062827" lon="-0.2888608351"><ele>262.10</ele><time>2014-08-28T08:35:03Z</time></trkpt><trkpt lat="39.7236879263" lon="-0.2888494357"><ele>262.10</ele><time>2014-08-28T08:35:05Z</time></trkpt><trkpt lat="39.7236761916" lon="-0.2888312470"><ele>262.10</ele><time>2014-08-28T08:35:07Z</time></trkpt><trkpt lat="39.7235502116" lon="-0.2887191810"><ele>261.62</ele><time>2014-08-28T08:35:21Z</time></trkpt><trkpt lat="39.7235022672" lon="-0.2886409778"><ele>262.10</ele><time>2014-08-28T08:35:30Z</time></trkpt><trkpt lat="39.7234751936" lon="-0.2886168379"><ele>261.62</ele><time>2014-08-28T08:35:34Z</time></trkpt><trkpt lat="39.7234105691" lon="-0.2885739226"><ele>261.62</ele><time>2014-08-28T08:35:43Z</time></trkpt><trkpt lat="39.7233852558" lon="-0.2885320131"><ele>262.10</ele><time>2014-08-28T08:35:48Z</time></trkpt><trkpt lat="39.7233504709" lon="-0.2884978149"><ele>262.10</ele><time>2014-08-28T08:35:53Z</time></trkpt><trkpt lat="39.7233259119" lon="-0.2884570789"><ele>262.58</ele><time>2014-08-28T08:35:57Z</time></trkpt><trkpt lat="39.7232411709" lon="-0.2883393131"><ele>261.62</ele><time>2014-08-28T08:36:09Z</time></trkpt><trkpt lat="39.7232026979" lon="-0.2883011755"><ele>261.62</ele><time>2014-08-28T08:36:20Z</time></trkpt><trkpt lat="39.7231259197" lon="-0.2882329468"><ele>259.69</ele><time>2014-08-28T08:36:35Z</time></trkpt><trkpt lat="39.7230798192" lon="-0.2881785482"><ele>257.77</ele><time>2014-08-28T08:36:48Z</time></trkpt><trkpt lat="39.7230608761" lon="-0.2881207131"><ele>255.37</ele><time>2014-08-28T08:37:01Z</time></trkpt><trkpt lat="39.7230312880" lon="-0.2880711760"><ele>253.93</ele><time>2014-08-28T08:37:13Z</time></trkpt><trkpt lat="39.7230094951" lon="-0.2880516462"><ele>252.96</ele><time>2014-08-28T08:37:26Z</time></trkpt><trkpt lat="39.7229889594" lon="-0.2880132571"><ele>252.00</ele><time>2014-08-28T08:37:36Z</time></trkpt><trkpt lat="39.7229221556" lon="-0.2879430167"><ele>249.12</ele><time>2014-08-28T08:37:50Z</time></trkpt><trkpt lat="39.7228796594" lon="-0.2879100759"><ele>248.16</ele><time>2014-08-28T08:37:57Z</time></trkpt><trkpt lat="39.7228295356" lon="-0.2878176235"><ele>245.27</ele><time>2014-08-28T08:38:10Z</time></trkpt><trkpt lat="39.7228205670" lon="-0.2877956629"><ele>245.27</ele><time>2014-08-28T08:38:13Z</time></trkpt><trkpt lat="39.7227846086" lon="-0.2876683418"><ele>243.35</ele><time>2014-08-28T08:38:27Z</time></trkpt><trkpt lat="39.7227265220" lon="-0.2875695191"><ele>241.91</ele><time>2014-08-28T08:38:39Z</time></trkpt><trkpt lat="39.7226830199" lon="-0.2874896396"><ele>241.91</ele><time>2014-08-28T08:38:47Z</time></trkpt><trkpt lat="39.7226222511" lon="-0.2873564512"><ele>243.35</ele><time>2014-08-28T08:39:00Z</time></trkpt><trkpt lat="39.7225634102" lon="-0.2872936707"><ele>244.79</ele><time>2014-08-28T08:39:11Z</time></trkpt><trkpt lat="39.7225345764" lon="-0.2872421220"><ele>245.75</ele><time>2014-08-28T08:39:17Z</time></trkpt><trkpt lat="39.7224590555" lon="-0.2871714626"><ele>247.68</ele><time>2014-08-28T08:39:29Z</time></trkpt><trkpt lat="39.7224467341" lon="-0.2871400304"><ele>248.64</ele><time>2014-08-28T08:39:33Z</time></trkpt><trkpt lat="39.7223996278" lon="-0.2870709635"><ele>250.08</ele><time>2014-08-28T08:39:45Z</time></trkpt><trkpt lat="39.7223443072" lon="-0.2870182414"><ele>252.48</ele><time>2014-08-28T08:39:58Z</time></trkpt><trkpt lat="39.7222953569" lon="-0.2869639266"><ele>253.44</ele><time>2014-08-28T08:40:08Z</time></trkpt><trkpt lat="39.7222867236" lon="-0.2869034931"><ele>254.89</ele><time>2014-08-28T08:40:20Z</time></trkpt><trkpt lat="39.7222834546" lon="-0.2869015653"><ele>254.89</ele><time>2014-08-28T08:40:42Z</time></trkpt><trkpt lat="39.7222630866" lon="-0.2868780121"><ele>254.89</ele><time>2014-08-28T08:40:59Z</time></trkpt><trkpt lat="39.7222411260" lon="-0.2868528664"><ele>255.37</ele><time>2014-08-28T08:41:04Z</time></trkpt><trkpt lat="39.7222290561" lon="-0.2868132200"><ele>256.33</ele><time>2014-08-28T08:41:18Z</time></trkpt><trkpt lat="39.7222081013" lon="-0.2868059278"><ele>255.37</ele><time>2014-08-28T08:41:31Z</time></trkpt><trkpt lat="39.7221765015" lon="-0.2867792733"><ele>254.89</ele><time>2014-08-28T08:41:38Z</time></trkpt><trkpt lat="39.7221071832" lon="-0.2867153194"><ele>253.93</ele><time>2014-08-28T08:41:49Z</time></trkpt><trkpt lat="39.7220042534" lon="-0.2865828853"><ele>252.96</ele><time>2014-08-28T08:42:05Z</time></trkpt><trkpt lat="39.7220009845" lon="-0.2865733299"><ele>252.48</ele><time>2014-08-28T08:42:06Z</time></trkpt><trkpt lat="39.7220034990" lon="-0.2865330968"><ele>252.00</ele><time>2014-08-28T08:42:09Z</time></trkpt><trkpt lat="39.7219662834" lon="-0.2864971384"><ele>252.00</ele><time>2014-08-28T08:42:13Z</time></trkpt><trkpt lat="39.7219443228" lon="-0.2864698973"><ele>251.52</ele><time>2014-08-28T08:42:16Z</time></trkpt><trkpt lat="39.7218325082" lon="-0.2864115592"><ele>251.52</ele><time>2014-08-28T08:42:29Z</time></trkpt><trkpt lat="39.7218294907" lon="-0.2864091285"><ele>252.00</ele><time>2014-08-28T08:42:40Z</time></trkpt><trkpt lat="39.7218317538" lon="-0.2864125650"><ele>250.56</ele><time>2014-08-28T08:42:56Z</time></trkpt><trkpt lat="39.7218313348" lon="-0.2864229586"><ele>250.08</ele><time>2014-08-28T08:43:29Z</time></trkpt><trkpt lat="39.7218199354" lon="-0.2864496969"><ele>250.56</ele><time>2014-08-28T08:44:11Z</time></trkpt><trkpt lat="39.7218161635" lon="-0.2864481881"><ele>251.04</ele><time>2014-08-28T08:44:29Z</time></trkpt><trkpt lat="39.7218116373" lon="-0.2864342742"><ele>251.04</ele><time>2014-08-28T08:44:43Z</time></trkpt><trkpt lat="39.7218148224" lon="-0.2864208631"><ele>251.52</ele><time>2014-08-28T08:45:03Z</time></trkpt><trkpt lat="39.7218030877" lon="-0.2863967232"><ele>252.00</ele><time>2014-08-28T08:45:29Z</time></trkpt><trkpt lat="39.7217091266" lon="-0.2863661293"><ele>252.96</ele><time>2014-08-28T08:45:42Z</time></trkpt><trkpt lat="39.7216229606" lon="-0.2863493655"><ele>254.41</ele><time>2014-08-28T08:45:55Z</time></trkpt><trkpt lat="39.7215428296" lon="-0.2863504551"><ele>255.85</ele><time>2014-08-28T08:46:05Z</time></trkpt><trkpt lat="39.7214649618" lon="-0.2863552328"><ele>257.29</ele><time>2014-08-28T08:46:17Z</time></trkpt><trkpt lat="39.7214212921" lon="-0.2863515448"><ele>259.21</ele><time>2014-08-28T08:46:24Z</time></trkpt><trkpt lat="39.7213870101" lon="-0.2863385528"><ele>259.69</ele><time>2014-08-28T08:46:28Z</time></trkpt><trkpt lat="39.7212993354" lon="-0.2863266505"><ele>261.62</ele><time>2014-08-28T08:46:41Z</time></trkpt><trkpt lat="39.7212944739" lon="-0.2863253094"><ele>261.62</ele><time>2014-08-28T08:46:42Z</time></trkpt><trkpt lat="39.7212392371" lon="-0.2863038518"><ele>264.02</ele><time>2014-08-28T08:46:52Z</time></trkpt><trkpt lat="39.7212314419" lon="-0.2863045223"><ele>264.02</ele><time>2014-08-28T08:46:53Z</time></trkpt><trkpt lat="39.7211684939" lon="-0.2863199450"><ele>264.98</ele><time>2014-08-28T08:47:03Z</time></trkpt><trkpt lat="39.7211299371" lon="-0.2862901054"><ele>266.90</ele><time>2014-08-28T08:47:12Z</time></trkpt><trkpt lat="39.7211088985" lon="-0.2862745151"><ele>267.86</ele><time>2014-08-28T08:47:24Z</time></trkpt><trkpt lat="39.7210757062" lon="-0.2862651274"><ele>268.35</ele><time>2014-08-28T08:47:45Z</time></trkpt><trkpt lat="39.7210565954" lon="-0.2862569969"><ele>268.83</ele><time>2014-08-28T08:47:48Z</time></trkpt><trkpt lat="39.7209881153" lon="-0.2862007543"><ele>269.79</ele><time>2014-08-28T08:47:59Z</time></trkpt><trkpt lat="39.7209076490" lon="-0.2861314360"><ele>268.83</ele><time>2014-08-28T08:48:10Z</time></trkpt><trkpt lat="39.7208727803" lon="-0.2860972378"><ele>268.35</ele><time>2014-08-28T08:48:15Z</time></trkpt><trkpt lat="39.7207842674" lon="-0.2860224713"><ele>267.86</ele><time>2014-08-28T08:48:27Z</time></trkpt><trkpt lat="39.7207653243" lon="-0.2860134188"><ele>267.38</ele><time>2014-08-28T08:48:29Z</time></trkpt><trkpt lat="39.7206195630" lon="-0.2858856786"><ele>268.35</ele><time>2014-08-28T08:48:45Z</time></trkpt><trkpt lat="39.7205370851" lon="-0.2858516481"><ele>268.35</ele><time>2014-08-28T08:48:54Z</time></trkpt><trkpt lat="39.7204603907" lon="-0.2858037036"><ele>270.27</ele><time>2014-08-28T08:49:06Z</time></trkpt><trkpt lat="39.7203747276" lon="-0.2857611235"><ele>272.19</ele><time>2014-08-28T08:49:19Z</time></trkpt><trkpt lat="39.7203073371" lon="-0.2857396659"><ele>274.59</ele><time>2014-08-28T08:49:32Z</time></trkpt><trkpt lat="39.7202741448" lon="-0.2856990974"><ele>277.00</ele><time>2014-08-28T08:49:42Z</time></trkpt><trkpt lat="39.7202220932" lon="-0.2856834233"><ele>279.88</ele><time>2014-08-28T08:49:54Z</time></trkpt><trkpt lat="39.7201630846" lon="-0.2856478840"><ele>281.32</ele><time>2014-08-28T08:50:04Z</time></trkpt><trkpt lat="39.7200716380" lon="-0.2856352273"><ele>283.73</ele><time>2014-08-28T08:50:18Z</time></trkpt><trkpt lat="39.7200111207" lon="-0.2856196370"><ele>284.21</ele><time>2014-08-28T08:50:27Z</time></trkpt><trkpt lat="39.7199256252" lon="-0.2855990175"><ele>285.65</ele><time>2014-08-28T08:50:38Z</time></trkpt><trkpt lat="39.7198937740" lon="-0.2855773084"><ele>285.65</ele><time>2014-08-28T08:50:43Z</time></trkpt><trkpt lat="39.7198520321" lon="-0.2855641488"><ele>285.65</ele><time>2014-08-28T08:50:56Z</time></trkpt><trkpt lat="39.7198571451" lon="-0.2855695970"><ele>285.65</ele><time>2014-08-28T08:51:19Z</time></trkpt><trkpt lat="39.7198365256" lon="-0.2855835110"><ele>285.65</ele><time>2014-08-28T08:51:36Z</time></trkpt><trkpt lat="39.7197890840" lon="-0.2855848521"><ele>284.21</ele><time>2014-08-28T08:51:49Z</time></trkpt><trkpt lat="39.7197921854" lon="-0.2855923958"><ele>285.17</ele><time>2014-08-28T08:52:17Z</time></trkpt><trkpt lat="39.7197612561" lon="-0.2856071480"><ele>285.17</ele><time>2014-08-28T08:52:27Z</time></trkpt><trkpt lat="39.7197306622" lon="-0.2856072318"><ele>284.69</ele><time>2014-08-28T08:52:30Z</time></trkpt><trkpt lat="39.7196215298" lon="-0.2856289409"><ele>284.21</ele><time>2014-08-28T08:52:41Z</time></trkpt><trkpt lat="39.7195911873" lon="-0.2856242470"><ele>284.21</ele><time>2014-08-28T08:52:44Z</time></trkpt><trkpt lat="39.7195528820" lon="-0.2856286056"><ele>284.69</ele><time>2014-08-28T08:52:48Z</time></trkpt><trkpt lat="39.7194221243" lon="-0.2856571041"><ele>285.17</ele><time>2014-08-28T08:53:00Z</time></trkpt><trkpt lat="39.7192714177" lon="-0.2856546734"><ele>287.57</ele><time>2014-08-28T08:53:15Z</time></trkpt><trkpt lat="39.7192522231" lon="-0.2856481355"><ele>287.57</ele><time>2014-08-28T08:53:17Z</time></trkpt><trkpt lat="39.7191267461" lon="-0.2856677491"><ele>290.46</ele><time>2014-08-28T08:53:31Z</time></trkpt><trkpt lat="39.7190646362" lon="-0.2856547572"><ele>290.94</ele><time>2014-08-28T08:53:38Z</time></trkpt><trkpt lat="39.7189948987" lon="-0.2856573556"><ele>291.90</ele><time>2014-08-28T08:53:46Z</time></trkpt><trkpt lat="39.7188573517" lon="-0.2855513245"><ele>292.38</ele><time>2014-08-28T08:54:02Z</time></trkpt><trkpt lat="39.7187691741" lon="-0.2854752168"><ele>292.38</ele><time>2014-08-28T08:54:12Z</time></trkpt><trkpt lat="39.7187494766" lon="-0.2854648232"><ele>292.38</ele><time>2014-08-28T08:54:14Z</time></trkpt><trkpt lat="39.7187235765" lon="-0.2854176331"><ele>292.38</ele><time>2014-08-28T08:54:18Z</time></trkpt><trkpt lat="39.7186497319" lon="-0.2853619773"><ele>292.38</ele><time>2014-08-28T08:54:26Z</time></trkpt><trkpt lat="39.7186299507" lon="-0.2853545174"><ele>292.38</ele><time>2014-08-28T08:54:28Z</time></trkpt><trkpt lat="39.7186102532" lon="-0.2853437886"><ele>292.38</ele><time>2014-08-28T08:54:30Z</time></trkpt><trkpt lat="39.7185224108" lon="-0.2853294555"><ele>292.38</ele><time>2014-08-28T08:54:39Z</time></trkpt><trkpt lat="39.7184402682" lon="-0.2852938324"><ele>292.38</ele><time>2014-08-28T08:54:46Z</time></trkpt><trkpt lat="39.7183898091" lon="-0.2852266934"><ele>293.34</ele><time>2014-08-28T08:54:53Z</time></trkpt><trkpt lat="39.7183378413" lon="-0.2851903159"><ele>293.34</ele><time>2014-08-28T08:54:59Z</time></trkpt><trkpt lat="39.7182886396" lon="-0.2851644158"><ele>294.30</ele><time>2014-08-28T08:55:05Z</time></trkpt><trkpt lat="39.7182684392" lon="-0.2851665951"><ele>294.30</ele><time>2014-08-28T08:55:07Z</time></trkpt><trkpt lat="39.7182538547" lon="-0.2851543576"><ele>294.78</ele><time>2014-08-28T08:55:09Z</time></trkpt><trkpt lat="39.7182123642" lon="-0.2851407789"><ele>294.78</ele><time>2014-08-28T08:55:14Z</time></trkpt><trkpt lat="39.7181709576" lon="-0.2851528488"><ele>295.26</ele><time>2014-08-28T08:55:18Z</time></trkpt><trkpt lat="39.7181451414" lon="-0.2851607278"><ele>295.26</ele><time>2014-08-28T08:55:21Z</time></trkpt><trkpt lat="39.7181229293" lon="-0.2851551119"><ele>295.26</ele><time>2014-08-28T08:55:24Z</time></trkpt><trkpt lat="39.7179953568" lon="-0.2851775754"><ele>296.22</ele><time>2014-08-28T08:55:37Z</time></trkpt><trkpt lat="39.7179520223" lon="-0.2851877175"><ele>297.18</ele><time>2014-08-28T08:55:41Z</time></trkpt><trkpt lat="39.7179169022" lon="-0.2851745579"><ele>297.18</ele><time>2014-08-28T08:55:45Z</time></trkpt><trkpt lat="39.7178105358" lon="-0.2851677686"><ele>298.63</ele><time>2014-08-28T08:55:58Z</time></trkpt><trkpt lat="39.7177607473" lon="-0.2851663437"><ele>299.59</ele><time>2014-08-28T08:56:04Z</time></trkpt><trkpt lat="39.7177112941" lon="-0.2851567883"><ele>300.07</ele><time>2014-08-28T08:56:10Z</time></trkpt><trkpt lat="39.7176168300" lon="-0.2851597220"><ele>301.99</ele><time>2014-08-28T08:56:20Z</time></trkpt><trkpt lat="39.7175561450" lon="-0.2851529326"><ele>302.47</ele><time>2014-08-28T08:56:26Z</time></trkpt><trkpt lat="39.7174573224" lon="-0.2851984464"><ele>303.43</ele><time>2014-08-28T08:56:37Z</time></trkpt><trkpt lat="39.7174184304" lon="-0.2851847000"><ele>303.43</ele><time>2014-08-28T08:56:41Z</time></trkpt><trkpt lat="39.7174006607" lon="-0.2851731330"><ele>303.91</ele><time>2014-08-28T08:56:43Z</time></trkpt><trkpt lat="39.7173391376" lon="-0.2851551119"><ele>304.88</ele><time>2014-08-28T08:56:55Z</time></trkpt><trkpt lat="39.7173325159" lon="-0.2851562854"><ele>305.84</ele><time>2014-08-28T08:57:11Z</time></trkpt><trkpt lat="39.7173306718" lon="-0.2851441316"><ele>303.91</ele><time>2014-08-28T08:57:24Z</time></trkpt><trkpt lat="39.7173326835" lon="-0.2851397730"><ele>304.39</ele><time>2014-08-28T08:58:04Z</time></trkpt><trkpt lat="39.7173367906" lon="-0.2851276193"><ele>304.39</ele><time>2014-08-28T08:58:39Z</time></trkpt><trkpt lat="39.7173410654" lon="-0.2851240989"><ele>304.39</ele><time>2014-08-28T08:59:14Z</time></trkpt><trkpt lat="39.7173400596" lon="-0.2851305529"><ele>303.91</ele><time>2014-08-28T08:59:52Z</time></trkpt><trkpt lat="39.7173342761" lon="-0.2851446345"><ele>303.91</ele><time>2014-08-28T09:00:26Z</time></trkpt><trkpt lat="39.7173378803" lon="-0.2851419523"><ele>303.91</ele><time>2014-08-28T09:01:02Z</time></trkpt><trkpt lat="39.7173397243" lon="-0.2851463947"><ele>304.88</ele><time>2014-08-28T09:01:23Z</time></trkpt><trkpt lat="39.7173401434" lon="-0.2851405274"><ele>304.39</ele><time>2014-08-28T09:01:42Z</time></trkpt><trkpt lat="39.7173367068" lon="-0.2851434611"><ele>305.36</ele><time>2014-08-28T09:01:56Z</time></trkpt><trkpt lat="39.7173363715" lon="-0.2851427067"><ele>304.88</ele><time>2014-08-28T09:02:04Z</time></trkpt><trkpt lat="39.7173201945" lon="-0.2851588838"><ele>305.84</ele><time>2014-08-28T09:02:14Z</time></trkpt><trkpt lat="39.7172825597" lon="-0.2851628233"><ele>305.84</ele><time>2014-08-28T09:02:27Z</time></trkpt><trkpt lat="39.7172680590" lon="-0.2851497475"><ele>305.84</ele><time>2014-08-28T09:02:31Z</time></trkpt><trkpt lat="39.7172427457" lon="-0.2851383481"><ele>306.32</ele><time>2014-08-28T09:02:34Z</time></trkpt><trkpt lat="39.7171976510" lon="-0.2851205785"><ele>306.80</ele><time>2014-08-28T09:02:39Z</time></trkpt><trkpt lat="39.7171676438" lon="-0.2851311397"><ele>306.80</ele><time>2014-08-28T09:02:42Z</time></trkpt><trkpt lat="39.7171501257" lon="-0.2851313073"><ele>307.28</ele><time>2014-08-28T09:02:44Z</time></trkpt><trkpt lat="39.7170668934" lon="-0.2851320617"><ele>308.24</ele><time>2014-08-28T09:02:59Z</time></trkpt><trkpt lat="39.7170684021" lon="-0.2851401921"><ele>308.24</ele><time>2014-08-28T09:03:17Z</time></trkpt><trkpt lat="39.7170630377" lon="-0.2851383481"><ele>307.76</ele><time>2014-08-28T09:03:33Z</time></trkpt><trkpt lat="39.7170688212" lon="-0.2851388510"><ele>307.76</ele><time>2014-08-28T09:03:59Z</time></trkpt><trkpt lat="39.7170672286" lon="-0.2851415332"><ele>308.24</ele><time>2014-08-28T09:04:09Z</time></trkpt><trkpt lat="39.7170210443" lon="-0.2851429582"><ele>308.24</ele><time>2014-08-28T09:04:14Z</time></trkpt><trkpt lat="39.7168824077" lon="-0.2851981111"><ele>309.20</ele><time>2014-08-28T09:04:29Z</time></trkpt><trkpt lat="39.7168357205" lon="-0.2852568682"><ele>308.72</ele><time>2014-08-28T09:04:35Z</time></trkpt><trkpt lat="39.7166865226" lon="-0.2853507455"><ele>310.64</ele><time>2014-08-28T09:04:51Z</time></trkpt><trkpt lat="39.7166705132" lon="-0.2853654977"><ele>310.64</ele><time>2014-08-28T09:04:53Z</time></trkpt><trkpt lat="39.7165554296" lon="-0.2854344808"><ele>312.57</ele><time>2014-08-28T09:05:08Z</time></trkpt><trkpt lat="39.7165297810" lon="-0.2854519151"><ele>313.53</ele><time>2014-08-28T09:05:12Z</time></trkpt><trkpt lat="39.7164917272" lon="-0.2854426950"><ele>314.97</ele><time>2014-08-28T09:05:24Z</time></trkpt><trkpt lat="39.7164388373" lon="-0.2854553517"><ele>315.45</ele><time>2014-08-28T09:05:43Z</time></trkpt><trkpt lat="39.7164087463" lon="-0.2854786534"><ele>316.41</ele><time>2014-08-28T09:05:47Z</time></trkpt><trkpt lat="39.7163729556" lon="-0.2854991890"><ele>316.41</ele><time>2014-08-28T09:05:52Z</time></trkpt><trkpt lat="39.7163130250" lon="-0.2854343969"><ele>316.41</ele><time>2014-08-28T09:06:02Z</time></trkpt><trkpt lat="39.7163148690" lon="-0.2853287850"><ele>314.01</ele><time>2014-08-28T09:06:15Z</time></trkpt><trkpt lat="39.7163200658" lon="-0.2852628194"><ele>311.60</ele><time>2014-08-28T09:06:27Z</time></trkpt><trkpt lat="39.7163108457" lon="-0.2851967700"><ele>310.16</ele><time>2014-08-28T09:06:39Z</time></trkpt><trkpt lat="39.7163063195" lon="-0.2851544414"><ele>309.20</ele><time>2014-08-28T09:06:43Z</time></trkpt><trkpt lat="39.7162979376" lon="-0.2851176448"><ele>308.24</ele><time>2014-08-28T09:06:46Z</time></trkpt><trkpt lat="39.7162535973" lon="-0.2850432135"><ele>307.28</ele><time>2014-08-28T09:06:53Z</time></trkpt><trkpt lat="39.7161688562" lon="-0.2849521860"><ele>304.39</ele><time>2014-08-28T09:07:07Z</time></trkpt><trkpt lat="39.7161715385" lon="-0.2849319018"><ele>304.39</ele><time>2014-08-28T09:07:10Z</time></trkpt><trkpt lat="39.7161850333" lon="-0.2848261222"><ele>301.51</ele><time>2014-08-28T09:07:24Z</time></trkpt><trkpt lat="39.7161857039" lon="-0.2847784292"><ele>300.07</ele><time>2014-08-28T09:07:28Z</time></trkpt><trkpt lat="39.7161789984" lon="-0.2847457398"><ele>299.59</ele><time>2014-08-28T09:07:31Z</time></trkpt><trkpt lat="39.7161315568" lon="-0.2846642677"><ele>300.07</ele><time>2014-08-28T09:07:39Z</time></trkpt><trkpt lat="39.7161660902" lon="-0.2846119646"><ele>299.11</ele><time>2014-08-28T09:07:46Z</time></trkpt><trkpt lat="39.7162001207" lon="-0.2845930215"><ele>298.63</ele><time>2014-08-28T09:07:50Z</time></trkpt><trkpt lat="39.7162350733" lon="-0.2845610864"><ele>298.63</ele><time>2014-08-28T09:07:54Z</time></trkpt><trkpt lat="39.7163152043" lon="-0.2845079452"><ele>296.70</ele><time>2014-08-28T09:08:08Z</time></trkpt><trkpt lat="39.7164100036" lon="-0.2844945341"><ele>294.30</ele><time>2014-08-28T09:08:23Z</time></trkpt><trkpt lat="39.7164265160" lon="-0.2844874933"><ele>293.82</ele><time>2014-08-28T09:08:25Z</time></trkpt><trkpt lat="39.7164901346" lon="-0.2844306640"><ele>291.90</ele><time>2014-08-28T09:08:37Z</time></trkpt><trkpt lat="39.7165549267" lon="-0.2843871620"><ele>290.46</ele><time>2014-08-28T09:08:46Z</time></trkpt><trkpt lat="39.7166058887" lon="-0.2842824720"><ele>289.97</ele><time>2014-08-28T09:08:59Z</time></trkpt><trkpt lat="39.7166776378" lon="-0.2842252236"><ele>288.05</ele><time>2014-08-28T09:09:11Z</time></trkpt><trkpt lat="39.7167491354" lon="-0.2841396444"><ele>286.13</ele><time>2014-08-28T09:09:22Z</time></trkpt><trkpt lat="39.7168239020" lon="-0.2840250637"><ele>284.21</ele><time>2014-08-28T09:09:35Z</time></trkpt><trkpt lat="39.7168587707" lon="-0.2839748561"><ele>283.73</ele><time>2014-08-28T09:09:41Z</time></trkpt><trkpt lat="39.7168827429" lon="-0.2839331981"><ele>282.77</ele><time>2014-08-28T09:09:45Z</time></trkpt><trkpt lat="39.7169495467" lon="-0.2838235628"><ele>283.25</ele><time>2014-08-28T09:09:55Z</time></trkpt><trkpt lat="39.7169819009" lon="-0.2837951481"><ele>283.25</ele><time>2014-08-28T09:09:59Z</time></trkpt><trkpt lat="39.7170590144" lon="-0.2837563399"><ele>281.32</ele><time>2014-08-28T09:10:08Z</time></trkpt><trkpt lat="39.7170999181" lon="-0.2837393247"><ele>280.84</ele><time>2014-08-28T09:10:13Z</time></trkpt><trkpt lat="39.7172072064" lon="-0.2836787235"><ele>279.88</ele><time>2014-08-28T09:10:25Z</time></trkpt><trkpt lat="39.7172847390" lon="-0.2836285997"><ele>278.44</ele><time>2014-08-28T09:10:34Z</time></trkpt><trkpt lat="39.7173251398" lon="-0.2836070582"><ele>277.48</ele><time>2014-08-28T09:10:39Z</time></trkpt><trkpt lat="39.7173920274" lon="-0.2836222295"><ele>276.52</ele><time>2014-08-28T09:10:48Z</time></trkpt><trkpt lat="39.7174289078" lon="-0.2836100757"><ele>274.59</ele><time>2014-08-28T09:10:57Z</time></trkpt><trkpt lat="39.7174814623" lon="-0.2835915517"><ele>273.63</ele><time>2014-08-28T09:11:08Z</time></trkpt><trkpt lat="39.7175091226" lon="-0.2835685853"><ele>273.63</ele><time>2014-08-28T09:11:15Z</time></trkpt><trkpt lat="39.7175620124" lon="-0.2835326269"><ele>272.67</ele><time>2014-08-28T09:11:21Z</time></trkpt><trkpt lat="39.7176215239" lon="-0.2835001051"><ele>272.19</ele><time>2014-08-28T09:11:34Z</time></trkpt><trkpt lat="39.7176258825" lon="-0.2834992670"><ele>272.67</ele><time>2014-08-28T09:11:56Z</time></trkpt><trkpt lat="39.7176801134" lon="-0.2834664937"><ele>272.19</ele><time>2014-08-28T09:12:13Z</time></trkpt><trkpt lat="39.7178110387" lon="-0.2834260091"><ele>270.27</ele><time>2014-08-28T09:12:27Z</time></trkpt><trkpt lat="39.7178179957" lon="-0.2833730355"><ele>271.23</ele><time>2014-08-28T09:12:33Z</time></trkpt><trkpt lat="39.7177770082" lon="-0.2832758054"><ele>269.31</ele><time>2014-08-28T09:12:46Z</time></trkpt><trkpt lat="39.7177126352" lon="-0.2832358237"><ele>268.35</ele><time>2014-08-28T09:12:59Z</time></trkpt><trkpt lat="39.7176717315" lon="-0.2831704449"><ele>266.90</ele><time>2014-08-28T09:13:09Z</time></trkpt><trkpt lat="39.7176213562" lon="-0.2831154596"><ele>265.94</ele><time>2014-08-28T09:13:17Z</time></trkpt><trkpt lat="39.7175037581" lon="-0.2830323949"><ele>263.54</ele><time>2014-08-28T09:13:31Z</time></trkpt><trkpt lat="39.7174460907" lon="-0.2830023039"><ele>263.06</ele><time>2014-08-28T09:13:45Z</time></trkpt><trkpt lat="39.7174444143" lon="-0.2830051538"><ele>263.06</ele><time>2014-08-28T09:13:49Z</time></trkpt><trkpt lat="39.7173560690" lon="-0.2829583827"><ele>263.06</ele><time>2014-08-28T09:14:02Z</time></trkpt><trkpt lat="39.7173400596" lon="-0.2829542756"><ele>262.58</ele><time>2014-08-28T09:14:14Z</time></trkpt><trkpt lat="39.7172981501" lon="-0.2829225082"><ele>261.62</ele><time>2014-08-28T09:14:25Z</time></trkpt><trkpt lat="39.7172482777" lon="-0.2828855440"><ele>261.62</ele><time>2014-08-28T09:14:30Z</time></trkpt><trkpt lat="39.7171335295" lon="-0.2828308940"><ele>260.65</ele><time>2014-08-28T09:14:43Z</time></trkpt><trkpt lat="39.7171118204" lon="-0.2827911638"><ele>260.17</ele><time>2014-08-28T09:14:49Z</time></trkpt><trkpt lat="39.7170914523" lon="-0.2827826142"><ele>259.69</ele><time>2014-08-28T09:14:51Z</time></trkpt><trkpt lat="39.7170001734" lon="-0.2826884855"><ele>257.29</ele><time>2014-08-28T09:15:05Z</time></trkpt><trkpt lat="39.7170347068" lon="-0.2826134674"><ele>257.77</ele><time>2014-08-28T09:15:17Z</time></trkpt><trkpt lat="39.7170977388" lon="-0.2825071849"><ele>256.81</ele><time>2014-08-28T09:15:31Z</time></trkpt><trkpt lat="39.7171622794" lon="-0.2824334241"><ele>253.93</ele><time>2014-08-28T09:15:44Z</time></trkpt><trkpt lat="39.7171887662" lon="-0.2824050095"><ele>252.48</ele><time>2014-08-28T09:15:57Z</time></trkpt><trkpt lat="39.7172396444" lon="-0.2823636867"><ele>250.56</ele><time>2014-08-28T09:16:08Z</time></trkpt><trkpt lat="39.7173003294" lon="-0.2823047619"><ele>247.68</ele><time>2014-08-28T09:16:20Z</time></trkpt><trkpt lat="39.7173443343" lon="-0.2822408080"><ele>246.23</ele><time>2014-08-28T09:16:32Z</time></trkpt><trkpt lat="39.7174092103" lon="-0.2821694780"><ele>243.35</ele><time>2014-08-28T09:16:46Z</time></trkpt><trkpt lat="39.7174833901" lon="-0.2820885926"><ele>240.47</ele><time>2014-08-28T09:17:01Z</time></trkpt><trkpt lat="39.7175584082" lon="-0.2819907758"><ele>237.58</ele><time>2014-08-28T09:17:15Z</time></trkpt><trkpt lat="39.7176175844" lon="-0.2819072921"><ele>234.70</ele><time>2014-08-28T09:17:28Z</time></trkpt><trkpt lat="39.7176741622" lon="-0.2818072960"><ele>232.78</ele><time>2014-08-28T09:17:42Z</time></trkpt><trkpt lat="39.7176740784" lon="-0.2817787137"><ele>232.30</ele><time>2014-08-28T09:17:45Z</time></trkpt><trkpt lat="39.7176697198" lon="-0.2817159332"><ele>231.33</ele><time>2014-08-28T09:17:49Z</time></trkpt><trkpt lat="39.7176452447" lon="-0.2816060465"><ele>230.37</ele><time>2014-08-28T09:17:59Z</time></trkpt><trkpt lat="39.7175662871" lon="-0.2814578544"><ele>229.89</ele><time>2014-08-28T09:18:14Z</time></trkpt><trkpt lat="39.7175379563" lon="-0.2813650668"><ele>227.97</ele><time>2014-08-28T09:18:21Z</time></trkpt><trkpt lat="39.7175369505" lon="-0.2812586166"><ele>225.57</ele><time>2014-08-28T09:18:33Z</time></trkpt><trkpt lat="39.7175486851" lon="-0.2812285256"><ele>224.12</ele><time>2014-08-28T09:18:37Z</time></trkpt><trkpt lat="39.7175528761" lon="-0.2812026255"><ele>223.64</ele><time>2014-08-28T09:18:39Z</time></trkpt><trkpt lat="39.7175039258" lon="-0.2810905594"><ele>220.76</ele><time>2014-08-28T09:18:52Z</time></trkpt><trkpt lat="39.7174283210" lon="-0.2809495758"><ele>217.40</ele><time>2014-08-28T09:19:08Z</time></trkpt><trkpt lat="39.7173899319" lon="-0.2808990330"><ele>216.91</ele><time>2014-08-28T09:19:14Z</time></trkpt><trkpt lat="39.7172967251" lon="-0.2807796746"><ele>214.51</ele><time>2014-08-28T09:19:29Z</time></trkpt><trkpt lat="39.7172523011" lon="-0.2806874737"><ele>212.59</ele><time>2014-08-28T09:19:38Z</time></trkpt><trkpt lat="39.7171777021" lon="-0.2805803530"><ele>211.15</ele><time>2014-08-28T09:19:47Z</time></trkpt><trkpt lat="39.7171036061" lon="-0.2805263735"><ele>211.15</ele><time>2014-08-28T09:19:55Z</time></trkpt><trkpt lat="39.7169890255" lon="-0.2803829592"><ele>208.74</ele><time>2014-08-28T09:20:10Z</time></trkpt><trkpt lat="39.7169114929" lon="-0.2802297380"><ele>206.82</ele><time>2014-08-28T09:20:24Z</time></trkpt><trkpt lat="39.7169065475" lon="-0.2802123036"><ele>206.82</ele><time>2014-08-28T09:20:26Z</time></trkpt><trkpt lat="39.7169415839" lon="-0.2801019140"><ele>204.90</ele><time>2014-08-28T09:20:38Z</time></trkpt><trkpt lat="39.7170046158" lon="-0.2800989803"><ele>203.46</ele><time>2014-08-28T09:20:47Z</time></trkpt><trkpt lat="39.7170757782" lon="-0.2800325118"><ele>201.05</ele><time>2014-08-28T09:20:59Z</time></trkpt><trkpt lat="39.7171676438" lon="-0.2800271474"><ele>199.13</ele><time>2014-08-28T09:21:11Z</time></trkpt><trkpt lat="39.7171823122" lon="-0.2800204419"><ele>198.65</ele><time>2014-08-28T09:21:14Z</time></trkpt><trkpt lat="39.7172367945" lon="-0.2799878363"><ele>195.77</ele><time>2014-08-28T09:21:27Z</time></trkpt><trkpt lat="39.7172737587" lon="-0.2799857408"><ele>195.28</ele><time>2014-08-28T09:21:32Z</time></trkpt><trkpt lat="39.7173812147" lon="-0.2800167538"><ele>193.84</ele><time>2014-08-28T09:21:43Z</time></trkpt><trkpt lat="39.7174339369" lon="-0.2800051868"><ele>192.88</ele><time>2014-08-28T09:21:51Z</time></trkpt><trkpt lat="39.7175242100" lon="-0.2799985651"><ele>190.96</ele><time>2014-08-28T09:22:02Z</time></trkpt><trkpt lat="39.7175630182" lon="-0.2799994871"><ele>190.00</ele><time>2014-08-28T09:22:07Z</time></trkpt><trkpt lat="39.7176731564" lon="-0.2799496986"><ele>187.11</ele><time>2014-08-28T09:22:20Z</time></trkpt><trkpt lat="39.7177374456" lon="-0.2799089625"><ele>184.71</ele><time>2014-08-28T09:22:33Z</time></trkpt><trkpt lat="39.7177988011" lon="-0.2798731718"><ele>183.27</ele><time>2014-08-28T09:22:43Z</time></trkpt><trkpt lat="39.7178275511" lon="-0.2798574977"><ele>182.31</ele><time>2014-08-28T09:22:49Z</time></trkpt><trkpt lat="39.7178945225" lon="-0.2798076253"><ele>180.38</ele><time>2014-08-28T09:23:02Z</time></trkpt><trkpt lat="39.7178895772" lon="-0.2798087150"><ele>180.38</ele><time>2014-08-28T09:23:10Z</time></trkpt><trkpt lat="39.7179611586" lon="-0.2797864191"><ele>178.46</ele><time>2014-08-28T09:23:21Z</time></trkpt><trkpt lat="39.7180112824" lon="-0.2797633689"><ele>177.50</ele><time>2014-08-28T09:23:27Z</time></trkpt><trkpt lat="39.7180231009" lon="-0.2797435038"><ele>177.02</ele><time>2014-08-28T09:23:29Z</time></trkpt><trkpt lat="39.7180533595" lon="-0.2797200345"><ele>176.54</ele><time>2014-08-28T09:23:33Z</time></trkpt><trkpt lat="39.7181007173" lon="-0.2797036059"><ele>175.58</ele><time>2014-08-28T09:23:39Z</time></trkpt><trkpt lat="39.7182417009" lon="-0.2796586789"><ele>172.69</ele><time>2014-08-28T09:23:54Z</time></trkpt><trkpt lat="39.7183591314" lon="-0.2796232235"><ele>170.77</ele><time>2014-08-28T09:24:06Z</time></trkpt><trkpt lat="39.7183758114" lon="-0.2796192840"><ele>170.77</ele><time>2014-08-28T09:24:08Z</time></trkpt><trkpt lat="39.7184947506" lon="-0.2795892768"><ele>168.85</ele><time>2014-08-28T09:24:21Z</time></trkpt><trkpt lat="39.7185481433" lon="-0.2795930486"><ele>167.89</ele><time>2014-08-28T09:24:26Z</time></trkpt><trkpt lat="39.7186130192" lon="-0.2795651369"><ele>166.45</ele><time>2014-08-28T09:24:33Z</time></trkpt><trkpt lat="39.7187822498" lon="-0.2795295976"><ele>163.56</ele><time>2014-08-28T09:24:50Z</time></trkpt><trkpt lat="39.7188622970" lon="-0.2794663981"><ele>162.60</ele><time>2014-08-28T09:24:59Z</time></trkpt><trkpt lat="39.7189353872" lon="-0.2793316171"><ele>161.16</ele><time>2014-08-28T09:25:12Z</time></trkpt><trkpt lat="39.7189387400" lon="-0.2793150209"><ele>160.20</ele><time>2014-08-28T09:25:13Z</time></trkpt><trkpt lat="39.7189524863" lon="-0.2792577725"><ele>159.24</ele><time>2014-08-28T09:25:18Z</time></trkpt><trkpt lat="39.7189783026" lon="-0.2792237420"><ele>159.24</ele><time>2014-08-28T09:25:21Z</time></trkpt><trkpt lat="39.7190046217" lon="-0.2791997697"><ele>158.75</ele><time>2014-08-28T09:25:24Z</time></trkpt><trkpt lat="39.7190185357" lon="-0.2791667450"><ele>158.27</ele><time>2014-08-28T09:25:27Z</time></trkpt><trkpt lat="39.7190250736" lon="-0.2791395038"><ele>157.79</ele><time>2014-08-28T09:25:29Z</time></trkpt><trkpt lat="39.7191022709" lon="-0.2789545991"><ele>154.91</ele><time>2014-08-28T09:25:46Z</time></trkpt><trkpt lat="39.7191080544" lon="-0.2789276093"><ele>153.95</ele><time>2014-08-28T09:25:48Z</time></trkpt><trkpt lat="39.7191099823" lon="-0.2788759768"><ele>153.95</ele><time>2014-08-28T09:25:53Z</time></trkpt><trkpt lat="39.7191247344" lon="-0.2788215782"><ele>152.51</ele><time>2014-08-28T09:25:59Z</time></trkpt><trkpt lat="39.7191437613" lon="-0.2786807623"><ele>150.10</ele><time>2014-08-28T09:26:14Z</time></trkpt><trkpt lat="39.7191293444" lon="-0.2786629926"><ele>150.10</ele><time>2014-08-28T09:26:33Z</time></trkpt><trkpt lat="39.7191346250" lon="-0.2786514256"><ele>150.10</ele><time>2014-08-28T09:26:46Z</time></trkpt><trkpt lat="39.7191170231" lon="-0.2786448877"><ele>150.10</ele><time>2014-08-28T09:27:05Z</time></trkpt><trkpt lat="39.7191143408" lon="-0.2786467317"><ele>150.10</ele><time>2014-08-28T09:27:28Z</time></trkpt><trkpt lat="39.7191124968" lon="-0.2786352485"><ele>150.58</ele><time>2014-08-28T09:27:39Z</time></trkpt><trkpt lat="39.7191145923" lon="-0.2786269505"><ele>150.10</ele><time>2014-08-28T09:27:56Z</time></trkpt><trkpt lat="39.7191184480" lon="-0.2785953507"><ele>150.10</ele><time>2014-08-28T09:27:59Z</time></trkpt><trkpt lat="39.7191527300" lon="-0.2785049099"><ele>149.62</ele><time>2014-08-28T09:28:07Z</time></trkpt><trkpt lat="39.7192689870" lon="-0.2783884853"><ele>148.66</ele><time>2014-08-28T09:28:22Z</time></trkpt><trkpt lat="39.7193515487" lon="-0.2782734856"><ele>146.74</ele><time>2014-08-28T09:28:36Z</time></trkpt><trkpt lat="39.7193844896" lon="-0.2782214340"><ele>145.78</ele><time>2014-08-28T09:28:41Z</time></trkpt><trkpt lat="39.7194155864" lon="-0.2781213541"><ele>145.30</ele><time>2014-08-28T09:28:51Z</time></trkpt><trkpt lat="39.7194028459" lon="-0.2780310810"><ele>144.82</ele><time>2014-08-28T09:29:05Z</time></trkpt><trkpt lat="39.7194131557" lon="-0.2780111320"><ele>144.82</ele><time>2014-08-28T09:29:17Z</time></trkpt><trkpt lat="39.7194078751" lon="-0.2779957093"><ele>144.82</ele><time>2014-08-28T09:29:44Z</time></trkpt><trkpt lat="39.7194160894" lon="-0.2780132275"><ele>144.82</ele><time>2014-08-28T09:30:01Z</time></trkpt><trkpt lat="39.7194098867" lon="-0.2780210227"><ele>144.82</ele><time>2014-08-28T09:30:24Z</time></trkpt><trkpt lat="39.7194112279" lon="-0.2780222800"><ele>144.82</ele><time>2014-08-28T09:31:02Z</time></trkpt><trkpt lat="39.7194136586" lon="-0.2780218609"><ele>144.82</ele><time>2014-08-28T09:31:28Z</time></trkpt><trkpt lat="39.7194245551" lon="-0.2780315001"><ele>144.82</ele><time>2014-08-28T09:32:00Z</time></trkpt><trkpt lat="39.7194279078" lon="-0.2780283149"><ele>144.82</ele><time>2014-08-28T09:32:32Z</time></trkpt><trkpt lat="39.7194318473" lon="-0.2780330088"><ele>144.82</ele><time>2014-08-28T09:32:48Z</time></trkpt><trkpt lat="39.7194291651" lon="-0.2780336794"><ele>145.30</ele><time>2014-08-28T09:33:10Z</time></trkpt><trkpt lat="39.7194302548" lon="-0.2780312486"><ele>144.82</ele><time>2014-08-28T09:33:29Z</time></trkpt><trkpt lat="39.7194239683" lon="-0.2780302428"><ele>144.82</ele><time>2014-08-28T09:33:46Z</time></trkpt><trkpt lat="39.7194269020" lon="-0.2780278958"><ele>143.85</ele><time>2014-08-28T09:34:01Z</time></trkpt><trkpt lat="39.7194379661" lon="-0.2780346852"><ele>144.82</ele><time>2014-08-28T09:34:29Z</time></trkpt><trkpt lat="39.7194462642" lon="-0.2780420613"><ele>144.82</ele><time>2014-08-28T09:34:53Z</time></trkpt><trkpt lat="39.7194416542" lon="-0.2780258842"><ele>144.34</ele><time>2014-08-28T09:35:17Z</time></trkpt><trkpt lat="39.7194465157" lon="-0.2780330088"><ele>144.34</ele><time>2014-08-28T09:35:38Z</time></trkpt><trkpt lat="39.7194532212" lon="-0.2780187596"><ele>145.30</ele><time>2014-08-28T09:35:48Z</time></trkpt><trkpt lat="39.7195003275" lon="-0.2780334279"><ele>144.34</ele><time>2014-08-28T09:35:55Z</time></trkpt><trkpt lat="39.7196262237" lon="-0.2780061867"><ele>144.82</ele><time>2014-08-28T09:36:07Z</time></trkpt><trkpt lat="39.7196631879" lon="-0.2780252974"><ele>143.85</ele><time>2014-08-28T09:36:10Z</time></trkpt><trkpt lat="39.7197390441" lon="-0.2780468389"><ele>143.37</ele><time>2014-08-28T09:36:23Z</time></trkpt><trkpt lat="39.7198701371" lon="-0.2781242877"><ele>142.89</ele><time>2014-08-28T09:36:35Z</time></trkpt><trkpt lat="39.7199891601" lon="-0.2781822067"><ele>142.41</ele><time>2014-08-28T09:36:45Z</time></trkpt><trkpt lat="39.7201271262" lon="-0.2781805303"><ele>141.93</ele><time>2014-08-28T09:36:59Z</time></trkpt><trkpt lat="39.7202096879" lon="-0.2781825420"><ele>141.93</ele><time>2014-08-28T09:37:07Z</time></trkpt><trkpt lat="39.7203783318" lon="-0.2782086935"><ele>141.45</ele><time>2014-08-28T09:37:21Z</time></trkpt><trkpt lat="39.7204686049" lon="-0.2781907562"><ele>141.93</ele><time>2014-08-28T09:37:35Z</time></trkpt><trkpt lat="39.7206111811" lon="-0.2783116233"><ele>140.97</ele><time>2014-08-28T09:37:51Z</time></trkpt><trkpt lat="39.7206880432" lon="-0.2785272058"><ele>139.05</ele><time>2014-08-28T09:38:07Z</time></trkpt><trkpt lat="39.7207224090" lon="-0.2786877193"><ele>137.13</ele><time>2014-08-28T09:38:22Z</time></trkpt><trkpt lat="39.7207473032" lon="-0.2787743881"><ele>135.20</ele><time>2014-08-28T09:38:35Z</time></trkpt><trkpt lat="39.7207776457" lon="-0.2788337320"><ele>134.72</ele><time>2014-08-28T09:38:43Z</time></trkpt><trkpt lat="39.7208357323" lon="-0.2789162938"><ele>132.80</ele><time>2014-08-28T09:39:00Z</time></trkpt><trkpt lat="39.7208900470" lon="-0.2789763920"><ele>132.80</ele><time>2014-08-28T09:39:11Z</time></trkpt><trkpt lat="39.7210097406" lon="-0.2790212352"><ele>131.84</ele><time>2014-08-28T09:39:24Z</time></trkpt><trkpt lat="39.7211003490" lon="-0.2790341433"><ele>129.92</ele><time>2014-08-28T09:39:36Z</time></trkpt><trkpt lat="39.7210912127" lon="-0.2789782360"><ele>129.43</ele><time>2014-08-28T09:39:41Z</time></trkpt><trkpt lat="39.7210593615" lon="-0.2788568661"><ele>126.55</ele><time>2014-08-28T09:39:54Z</time></trkpt><trkpt lat="39.7210902907" lon="-0.2787650004"><ele>126.07</ele><time>2014-08-28T09:40:09Z</time></trkpt><trkpt lat="39.7211524844" lon="-0.2786080074"><ele>124.63</ele><time>2014-08-28T09:40:24Z</time></trkpt><trkpt lat="39.7211757861" lon="-0.2785737254"><ele>124.15</ele><time>2014-08-28T09:40:28Z</time></trkpt><trkpt lat="39.7212174442" lon="-0.2785388567"><ele>123.19</ele><time>2014-08-28T09:40:33Z</time></trkpt><trkpt lat="39.7212934680" lon="-0.2783622500"><ele>121.74</ele><time>2014-08-28T09:40:48Z</time></trkpt><trkpt lat="39.7212941386" lon="-0.2783478331"><ele>121.74</ele><time>2014-08-28T09:40:49Z</time></trkpt><trkpt lat="39.7213165183" lon="-0.2782024909"><ele>120.30</ele><time>2014-08-28T09:40:58Z</time></trkpt><trkpt lat="39.7213431727" lon="-0.2781738248"><ele>120.30</ele><time>2014-08-28T09:41:01Z</time></trkpt><trkpt lat="39.7213685699" lon="-0.2781226952"><ele>119.34</ele><time>2014-08-28T09:41:04Z</time></trkpt><trkpt lat="39.7214195319" lon="-0.2779403049"><ele>117.90</ele><time>2014-08-28T09:41:18Z</time></trkpt><trkpt lat="39.7213890217" lon="-0.2778294124"><ele>115.50</ele><time>2014-08-28T09:41:31Z</time></trkpt><trkpt lat="39.7213934641" lon="-0.2778061945"><ele>115.01</ele><time>2014-08-28T09:41:33Z</time></trkpt><trkpt lat="39.7213880159" lon="-0.2777452581"><ele>115.01</ele><time>2014-08-28T09:41:37Z</time></trkpt><trkpt lat="39.7214031871" lon="-0.2776895184"><ele>114.05</ele><time>2014-08-28T09:41:41Z</time></trkpt><trkpt lat="39.7214871738" lon="-0.2775432542"><ele>111.65</ele><time>2014-08-28T09:41:57Z</time></trkpt><trkpt lat="39.7215127386" lon="-0.2774176095"><ele>110.69</ele><time>2014-08-28T09:42:09Z</time></trkpt><trkpt lat="39.7215218749" lon="-0.2773714252"><ele>110.69</ele><time>2014-08-28T09:42:12Z</time></trkpt><trkpt lat="39.7215717472" lon="-0.2772677410"><ele>109.73</ele><time>2014-08-28T09:42:20Z</time></trkpt><trkpt lat="39.7216193564" lon="-0.2771584410"><ele>108.29</ele><time>2014-08-28T09:42:28Z</time></trkpt><trkpt lat="39.7217554785" lon="-0.2770894580"><ele>107.32</ele><time>2014-08-28T09:42:41Z</time></trkpt><trkpt lat="39.7218122240" lon="-0.2769767214"><ele>106.36</ele><time>2014-08-28T09:42:54Z</time></trkpt><trkpt lat="39.7218379565" lon="-0.2767854463"><ele>105.40</ele><time>2014-08-28T09:43:07Z</time></trkpt><trkpt lat="39.7218164988" lon="-0.2765484899"><ele>104.92</ele><time>2014-08-28T09:43:26Z</time></trkpt><trkpt lat="39.7218344361" lon="-0.2763931733"><ele>103.48</ele><time>2014-08-28T09:43:38Z</time></trkpt><trkpt lat="39.7218897566" lon="-0.2762895729"><ele>103.48</ele><time>2014-08-28T09:43:47Z</time></trkpt><trkpt lat="39.7219007369" lon="-0.2762615774"><ele>103.48</ele><time>2014-08-28T09:43:49Z</time></trkpt><trkpt lat="39.7219486814" lon="-0.2761290595"><ele>103.00</ele><time>2014-08-28T09:44:01Z</time></trkpt><trkpt lat="39.7219962068" lon="-0.2759171650"><ele>101.08</ele><time>2014-08-28T09:44:16Z</time></trkpt><trkpt lat="39.7220526170" lon="-0.2758081164"><ele>100.60</ele><time>2014-08-28T09:44:25Z</time></trkpt><trkpt lat="39.7221034113" lon="-0.2756822202"><ele>100.11</ele><time>2014-08-28T09:44:36Z</time></trkpt><trkpt lat="39.7221533675" lon="-0.2756527998"><ele>99.63</ele><time>2014-08-28T09:44:39Z</time></trkpt><trkpt lat="39.7222606558" lon="-0.2755699027"><ele>99.15</ele><time>2014-08-28T09:44:49Z</time></trkpt><trkpt lat="39.7224140447" lon="-0.2754973155"><ele>97.71</ele><time>2014-08-28T09:45:02Z</time></trkpt><trkpt lat="39.7224364243" lon="-0.2754744329"><ele>97.23</ele><time>2014-08-28T09:45:05Z</time></trkpt><trkpt lat="39.7225027252" lon="-0.2754305117"><ele>96.75</ele><time>2014-08-28T09:45:11Z</time></trkpt><trkpt lat="39.7225277033" lon="-0.2753921226"><ele>96.27</ele><time>2014-08-28T09:45:14Z</time></trkpt><trkpt lat="39.7226453852" lon="-0.2753005084"><ele>95.79</ele><time>2014-08-28T09:45:27Z</time></trkpt><trkpt lat="39.7226561978" lon="-0.2752899472"><ele>95.79</ele><time>2014-08-28T09:45:28Z</time></trkpt><trkpt lat="39.7227041423" lon="-0.2752772067"><ele>95.31</ele><time>2014-08-28T09:45:31Z</time></trkpt><trkpt lat="39.7227999475" lon="-0.2751845028"><ele>94.35</ele><time>2014-08-28T09:45:45Z</time></trkpt><trkpt lat="39.7228317987" lon="-0.2751433477"><ele>93.87</ele><time>2014-08-28T09:45:57Z</time></trkpt><trkpt lat="39.7228609677" lon="-0.2751259133"><ele>93.39</ele><time>2014-08-28T09:46:17Z</time></trkpt><trkpt lat="39.7229056433" lon="-0.2750963252"><ele>92.90</ele><time>2014-08-28T09:46:29Z</time></trkpt><trkpt lat="39.7229094151" lon="-0.2750846744"><ele>93.39</ele><time>2014-08-28T09:46:40Z</time></trkpt><trkpt lat="39.7229892947" lon="-0.2750113327"><ele>91.94</ele><time>2014-08-28T09:46:54Z</time></trkpt><trkpt lat="39.7229965869" lon="-0.2749974187"><ele>91.46</ele><time>2014-08-28T09:47:03Z</time></trkpt><trkpt lat="39.7230162006" lon="-0.2749837562"><ele>90.98</ele><time>2014-08-28T09:47:05Z</time></trkpt><trkpt lat="39.7230724432" lon="-0.2748849336"><ele>90.02</ele><time>2014-08-28T09:47:17Z</time></trkpt><trkpt lat="39.7231275961" lon="-0.2748281043"><ele>89.54</ele><time>2014-08-28T09:47:37Z</time></trkpt><trkpt lat="39.7231394146" lon="-0.2748174593"><ele>88.58</ele><time>2014-08-28T09:47:39Z</time></trkpt><trkpt lat="39.7231679969" lon="-0.2747757174"><ele>88.10</ele><time>2014-08-28T09:47:43Z</time></trkpt><trkpt lat="39.7232539952" lon="-0.2746789064"><ele>87.14</ele><time>2014-08-28T09:47:54Z</time></trkpt><trkpt lat="39.7233694978" lon="-0.2745375875"><ele>85.69</ele><time>2014-08-28T09:48:08Z</time></trkpt><trkpt lat="39.7233773768" lon="-0.2745297924"><ele>85.69</ele><time>2014-08-28T09:48:09Z</time></trkpt><trkpt lat="39.7234793846" lon="-0.2744090930"><ele>84.73</ele><time>2014-08-28T09:48:21Z</time></trkpt><trkpt lat="39.7234840784" lon="-0.2743898984"><ele>84.25</ele><time>2014-08-28T09:48:23Z</time></trkpt><trkpt lat="39.7234972380" lon="-0.2743676025"><ele>84.25</ele><time>2014-08-28T09:48:25Z</time></trkpt><trkpt lat="39.7235305142" lon="-0.2743383497"><ele>83.77</ele><time>2014-08-28T09:48:29Z</time></trkpt><trkpt lat="39.7235782072" lon="-0.2742697857"><ele>83.29</ele><time>2014-08-28T09:48:37Z</time></trkpt><trkpt lat="39.7236391436" lon="-0.2741463203"><ele>82.33</ele><time>2014-08-28T09:48:49Z</time></trkpt><trkpt lat="39.7236515488" lon="-0.2740504313"><ele>81.37</ele><time>2014-08-28T09:48:56Z</time></trkpt><trkpt lat="39.7236434184" lon="-0.2739748266"><ele>80.41</ele><time>2014-08-28T09:49:02Z</time></trkpt><trkpt lat="39.7236465197" lon="-0.2739207633"><ele>80.41</ele><time>2014-08-28T09:49:05Z</time></trkpt><trkpt lat="39.7236694023" lon="-0.2738814522"><ele>79.93</ele><time>2014-08-28T09:49:08Z</time></trkpt><trkpt lat="39.7236434184" lon="-0.2737787738"><ele>78.48</ele><time>2014-08-28T09:49:15Z</time></trkpt><trkpt lat="39.7236178536" lon="-0.2736666240"><ele>78.00</ele><time>2014-08-28T09:49:22Z</time></trkpt><trkpt lat="39.7235948872" lon="-0.2734507900"><ele>77.04</ele><time>2014-08-28T09:49:36Z</time></trkpt><trkpt lat="39.7236158419" lon="-0.2732480317"><ele>76.56</ele><time>2014-08-28T09:49:51Z</time></trkpt><trkpt lat="39.7236499563" lon="-0.2731248178"><ele>77.04</ele><time>2014-08-28T09:50:00Z</time></trkpt><trkpt lat="39.7237202805" lon="-0.2729813196"><ele>76.08</ele><time>2014-08-28T09:50:07Z</time></trkpt><trkpt lat="39.7238071170" lon="-0.2728748694"><ele>77.04</ele><time>2014-08-28T09:50:17Z</time></trkpt><trkpt lat="39.7238267306" lon="-0.2728563454"><ele>77.04</ele><time>2014-08-28T09:50:19Z</time></trkpt><trkpt lat="39.7238401417" lon="-0.2728280146"><ele>75.60</ele><time>2014-08-28T09:50:21Z</time></trkpt><trkpt lat="39.7238951270" lon="-0.2727058064"><ele>74.64</ele><time>2014-08-28T09:50:31Z</time></trkpt><trkpt lat="39.7238968033" lon="-0.2726965025"><ele>75.12</ele><time>2014-08-28T09:50:32Z</time></trkpt><trkpt lat="39.7239284031" lon="-0.2726022899"><ele>74.64</ele><time>2014-08-28T09:50:38Z</time></trkpt><trkpt lat="39.7239621822" lon="-0.2725260146"><ele>74.16</ele><time>2014-08-28T09:50:43Z</time></trkpt><trkpt lat="39.7240080312" lon="-0.2723947540"><ele>74.16</ele><time>2014-08-28T09:50:53Z</time></trkpt><trkpt lat="39.7240786906" lon="-0.2721851226"><ele>73.68</ele><time>2014-08-28T09:51:07Z</time></trkpt><trkpt lat="39.7241063509" lon="-0.2720614057"><ele>73.20</ele><time>2014-08-28T09:51:17Z</time></trkpt><trkpt lat="39.7241330892" lon="-0.2719379403"><ele>72.24</ele><time>2014-08-28T09:51:26Z</time></trkpt><trkpt lat="39.7241464164" lon="-0.2718871459"><ele>72.72</ele><time>2014-08-28T09:51:30Z</time></trkpt><trkpt lat="39.7241690475" lon="-0.2718247008"><ele>72.24</ele><time>2014-08-28T09:51:34Z</time></trkpt><trkpt lat="39.7242327500" lon="-0.2716574818"><ele>72.24</ele><time>2014-08-28T09:51:46Z</time></trkpt><trkpt lat="39.7242477536" lon="-0.2716118842"><ele>72.24</ele><time>2014-08-28T09:51:49Z</time></trkpt><trkpt lat="39.7242953628" lon="-0.2715222817"><ele>72.24</ele><time>2014-08-28T09:51:58Z</time></trkpt><trkpt lat="39.7243007272" lon="-0.2714703139"><ele>71.27</ele><time>2014-08-28T09:52:01Z</time></trkpt><trkpt lat="39.7243171558" lon="-0.2714250516"><ele>70.79</ele><time>2014-08-28T09:52:04Z</time></trkpt><trkpt lat="39.7243474983" lon="-0.2713776100"><ele>70.79</ele><time>2014-08-28T09:52:08Z</time></trkpt><trkpt lat="39.7243858036" lon="-0.2712473553"><ele>70.31</ele><time>2014-08-28T09:52:19Z</time></trkpt><trkpt lat="39.7243826184" lon="-0.2711787913"><ele>69.83</ele><time>2014-08-28T09:52:25Z</time></trkpt><trkpt lat="39.7243843786" lon="-0.2711419109"><ele>69.83</ele><time>2014-08-28T09:52:27Z</time></trkpt><trkpt lat="39.7243320756" lon="-0.2709980775"><ele>69.83</ele><time>2014-08-28T09:52:45Z</time></trkpt><trkpt lat="39.7243464086" lon="-0.2709499653"><ele>69.35</ele><time>2014-08-28T09:52:48Z</time></trkpt><trkpt lat="39.7243260406" lon="-0.2707912959"><ele>67.91</ele><time>2014-08-28T09:52:56Z</time></trkpt><trkpt lat="39.7243821155" lon="-0.2706462052"><ele>67.43</ele><time>2014-08-28T09:53:07Z</time></trkpt><trkpt lat="39.7243767511" lon="-0.2705896273"><ele>67.43</ele><time>2014-08-28T09:53:10Z</time></trkpt><trkpt lat="39.7243499290" lon="-0.2705208119"><ele>67.43</ele><time>2014-08-28T09:53:13Z</time></trkpt><trkpt lat="39.7243455704" lon="-0.2704726998"><ele>66.95</ele><time>2014-08-28T09:53:16Z</time></trkpt><trkpt lat="39.7243431397" lon="-0.2704034653"><ele>66.47</ele><time>2014-08-28T09:53:21Z</time></trkpt><trkpt lat="39.7243500967" lon="-0.2703437023"><ele>65.99</ele><time>2014-08-28T09:53:25Z</time></trkpt><trkpt lat="39.7243484203" lon="-0.2703002840"><ele>65.99</ele><time>2014-08-28T09:53:28Z</time></trkpt><trkpt lat="39.7243521921" lon="-0.2702728752"><ele>66.47</ele><time>2014-08-28T09:53:30Z</time></trkpt><trkpt lat="39.7243660223" lon="-0.2702145372"><ele>65.99</ele><time>2014-08-28T09:53:34Z</time></trkpt><trkpt lat="39.7243801039" lon="-0.2701629046"><ele>65.51</ele><time>2014-08-28T09:53:38Z</time></trkpt><trkpt lat="39.7243999690" lon="-0.2701273654"><ele>65.51</ele><time>2014-08-28T09:53:42Z</time></trkpt><trkpt lat="39.7244353406" lon="-0.2701050695"><ele>65.51</ele><time>2014-08-28T09:53:45Z</time></trkpt><trkpt lat="39.7245350853" lon="-0.2700176463"><ele>65.03</ele><time>2014-08-28T09:53:54Z</time></trkpt><trkpt lat="39.7245963570" lon="-0.2698718011"><ele>64.07</ele><time>2014-08-28T09:54:06Z</time></trkpt><trkpt lat="39.7247126140" lon="-0.2697692905"><ele>64.07</ele><time>2014-08-28T09:54:15Z</time></trkpt><trkpt lat="39.7248033062" lon="-0.2696260437"><ele>63.10</ele><time>2014-08-28T09:54:28Z</time></trkpt><trkpt lat="39.7248267755" lon="-0.2694638539"><ele>62.14</ele><time>2014-08-28T09:54:41Z</time></trkpt><trkpt lat="39.7248573694" lon="-0.2693019155"><ele>61.66</ele><time>2014-08-28T09:54:54Z</time></trkpt><trkpt lat="39.7248966806" lon="-0.2692236286"><ele>61.66</ele><time>2014-08-28T09:55:01Z</time></trkpt><trkpt lat="39.7249318007" lon="-0.2691494487"><ele>60.70</ele><time>2014-08-28T09:55:06Z</time></trkpt><trkpt lat="39.7250198107" lon="-0.2689549886"><ele>59.26</ele><time>2014-08-28T09:55:22Z</time></trkpt><trkpt lat="39.7250595409" lon="-0.2690536436"><ele>59.26</ele><time>2014-08-28T09:55:40Z</time></trkpt><trkpt lat="39.7252767999" lon="-0.2691195253"><ele>58.78</ele><time>2014-08-28T09:55:53Z</time></trkpt><trkpt lat="39.7255044524" lon="-0.2691769414"><ele>59.26</ele><time>2014-08-28T09:56:06Z</time></trkpt><trkpt lat="39.7256077174" lon="-0.2692796197"><ele>59.26</ele><time>2014-08-28T09:56:17Z</time></trkpt><trkpt lat="39.7257342841" lon="-0.2694766782"><ele>59.74</ele><time>2014-08-28T09:56:33Z</time></trkpt><trkpt lat="39.7259058617" lon="-0.2696439810"><ele>59.26</ele><time>2014-08-28T09:56:51Z</time></trkpt><trkpt lat="39.7260553949" lon="-0.2697445638"><ele>59.26</ele><time>2014-08-28T09:57:09Z</time></trkpt><trkpt lat="39.7262499388" lon="-0.2698608208"><ele>58.30</ele><time>2014-08-28T09:57:29Z</time></trkpt><trkpt lat="39.7263107076" lon="-0.2698987070"><ele>58.78</ele><time>2014-08-28T09:57:42Z</time></trkpt><trkpt lat="39.7264673654" lon="-0.2699944284"><ele>58.78</ele><time>2014-08-28T09:57:57Z</time></trkpt><trkpt lat="39.7266289685" lon="-0.2701883856"><ele>58.78</ele><time>2014-08-28T09:58:15Z</time></trkpt><trkpt lat="39.7268008813" lon="-0.2702375036"><ele>57.82</ele><time>2014-08-28T09:58:30Z</time></trkpt><trkpt lat="39.7268509213" lon="-0.2703546826"><ele>58.30</ele><time>2014-08-28T09:58:44Z</time></trkpt><trkpt lat="39.7269418649" lon="-0.2705115080"><ele>57.34</ele><time>2014-08-28T09:59:00Z</time></trkpt><trkpt lat="39.7271798272" lon="-0.2705724444"><ele>56.86</ele><time>2014-08-28T09:59:15Z</time></trkpt><trkpt lat="39.7271364927" lon="-0.2707089018"><ele>56.86</ele><time>2014-08-28T09:59:24Z</time></trkpt><trkpt lat="39.7273740359" lon="-0.2707413398"><ele>55.89</ele><time>2014-08-28T09:59:40Z</time></trkpt><trkpt lat="39.7275735252" lon="-0.2709321957"><ele>56.86</ele><time>2014-08-28T09:59:55Z</time></trkpt><trkpt lat="39.7277779598" lon="-0.2709855884"><ele>56.37</ele><time>2014-08-28T10:00:09Z</time></trkpt><trkpt lat="39.7278403211" lon="-0.2710513026"><ele>55.89</ele><time>2014-08-28T10:00:24Z</time></trkpt><trkpt lat="39.7280333564" lon="-0.2711158432"><ele>55.89</ele><time>2014-08-28T10:00:38Z</time></trkpt><trkpt lat="39.7282727435" lon="-0.2711549867"><ele>55.89</ele><time>2014-08-28T10:00:55Z</time></trkpt><trkpt lat="39.7284100391" lon="-0.2712127380"><ele>55.41</ele><time>2014-08-28T10:01:08Z</time></trkpt><trkpt lat="39.7284204327" lon="-0.2711933758"><ele>56.37</ele><time>2014-08-28T10:01:11Z</time></trkpt><trkpt lat="39.7284113802" lon="-0.2710912004"><ele>55.41</ele><time>2014-08-28T10:01:22Z</time></trkpt><trkpt lat="39.7284380347" lon="-0.2711626142"><ele>55.41</ele><time>2014-08-28T10:01:44Z</time></trkpt><trkpt lat="39.7284454945" lon="-0.2711600158"><ele>54.93</ele><time>2014-08-28T10:01:45Z</time></trkpt><trkpt lat="39.7285467479" lon="-0.2710112371"><ele>54.45</ele><time>2014-08-28T10:01:58Z</time></trkpt><trkpt lat="39.7286630049" lon="-0.2709166054"><ele>53.97</ele><time>2014-08-28T10:02:14Z</time></trkpt><trkpt lat="39.7288877238" lon="-0.2709074691"><ele>53.49</ele><time>2014-08-28T10:02:30Z</time></trkpt><trkpt lat="39.7289497498" lon="-0.2708820719"><ele>53.49</ele><time>2014-08-28T10:02:40Z</time></trkpt><trkpt lat="39.7290786635" lon="-0.2708912920"><ele>53.49</ele><time>2014-08-28T10:02:59Z</time></trkpt></trkseg></trk></gpx>